Darstellungsparameter: Aktuell verwendete Einstellungen:
Skalierung der Graphiken ... ?
xyx+y,   Skalierungsfaktor:      Skalierung: Modus: x, Faktor: 1
Darstellungszeitraum ... ?
Vom - - bis: - -   Zeitraum: 13.01.2014 - 12.07.2014
Min/Max/Avg-Anzeige ... ?
Zeige MMA aktuell
Zeige MMA Monat
Zeige MMA alles
Zeige --A aktuell
Zeige --A Monat
Zeige --A alles
Keine MMA-Anzeige
MMA:
Minimum Maximum Average (ber die Originaldaten)
MMA-Basis: 13.01.2014 - 12.07.2014
Quicknavigation für Darstellung... ?
Tage:      1T, 2T, 3T, 5T -1T -2T -3T -5T +1T +2T +3T +5T
Wochen: 1W, 2W, 3W -1W -2W -3W +1W +2W +3W
Monate: 1M, 3M, 6M -1M -3M -6M +1M +3M +6M
Jahre:    1J, 3J, 5J, 10J -1J -3J -5J -10J +1J +3J +5J +10J
Nutze für die Darstellung ... ?
Originaldaten oder Mittelwerte auf ...
Stundenbasis Tagesbasis Wochenbasis
Monatsbasis Jahresbasis      Datenbasis: Original-Daten
Darstellen als:
Statistik (Auto) Statistik J:M      Darstellung:
Zur Graphik,    zurück zur Übersicht aller Sensoren.
 
Tabellarische Datenbersicht: ?
 
Sensor: Nr:Datum:Temp:Feuchte:Taupunkt:
Aussen-T/F 1 13-01-2014 00:00:00 -1.7 C 98 % -1.97 C
2 13-01-2014 00:05:00 -1.7 C 98 % -1.97 C
3 13-01-2014 00:10:00 -1.7 C 98 % -1.97 C
4 13-01-2014 00:15:00 -1.7 C 98 % -1.97 C
5 13-01-2014 00:20:00 -1.7 C 98 % -1.97 C
6 13-01-2014 00:25:00 -1.7 C 98 % -1.97 C
7 13-01-2014 00:30:00 -1.7 C 98 % -1.97 C
8 13-01-2014 00:35:00 -1.7 C 98 % -1.97 C
9 13-01-2014 00:40:00 -1.7 C 98 % -1.97 C
10 13-01-2014 00:45:00 -1.7 C 98 % -1.97 C
11 13-01-2014 00:50:00 -1.7 C 98 % -1.97 C
12 13-01-2014 00:55:00 -1.7 C 98 % -1.97 C
13 13-01-2014 01:00:00 -1.7 C 98 % -1.97 C
14 13-01-2014 01:05:00 -1.7 C 98 % -1.97 C
15 13-01-2014 01:10:00 -1.7 C 98 % -1.97 C
16 13-01-2014 01:15:00 -1.7 C 98 % -1.97 C
17 13-01-2014 01:20:00 -1.7 C 98 % -1.97 C
18 13-01-2014 01:25:00 -1.7 C 98 % -1.97 C
19 13-01-2014 01:30:00 -1.7 C 98 % -1.97 C
20 13-01-2014 01:35:00 -1.7 C 98 % -1.97 C
21 13-01-2014 01:40:00 -1.7 C 98 % -1.97 C
22 13-01-2014 01:45:00 -1.7 C 98 % -1.97 C
23 13-01-2014 01:50:00 -1.6 C 98 % -1.87 C
24 13-01-2014 01:55:00 -1.6 C 98 % -1.87 C
25 13-01-2014 02:00:00 -1.6 C 98 % -1.87 C
Sensor: Nr:Datum:Temp:Feuchte:Taupunkt:
Aussen-T/F 26 13-01-2014 02:05:00 -1.5 C 98 % -1.77 C
27 13-01-2014 02:10:00 -1.4 C 98 % -1.67 C
28 13-01-2014 02:15:00 -1.3 C 98 % -1.57 C
29 13-01-2014 02:20:00 -1.3 C 98 % -1.57 C
30 13-01-2014 02:25:00 -1.1 C 98 % -1.38 C
31 13-01-2014 02:30:00 -1 C 98 % -1.28 C
32 13-01-2014 02:35:00 -0.9 C 98 % -1.18 C
33 13-01-2014 02:40:00 -0.8 C 98 % -1.08 C
34 13-01-2014 02:45:00 -0.8 C 98 % -1.08 C
35 13-01-2014 02:50:00 -0.7 C 98 % -0.98 C
36 13-01-2014 02:55:00 -0.6 C 98 % -0.88 C
37 13-01-2014 03:00:00 -0.5 C 98 % -0.78 C
38 13-01-2014 03:05:00 -0.5 C 98 % -0.78 C
39 13-01-2014 03:10:00 -0.4 C 98 % -0.68 C
40 13-01-2014 03:15:00 -0.3 C 98 % -0.58 C
41 13-01-2014 03:20:00 -0.2 C 98 % -0.48 C
42 13-01-2014 03:25:00 -0.1 C 98 % -0.38 C
43 13-01-2014 03:30:00 -0.1 C 98 % -0.38 C
44 13-01-2014 03:35:00 -0.1 C 98 % -0.38 C
45 13-01-2014 03:40:00 -0.1 C 98 % -0.38 C
46 13-01-2014 03:45:00 -0.1 C 98 % -0.38 C
47 13-01-2014 03:50:00 -0.1 C 98 % -0.38 C
48 13-01-2014 03:55:00 0 C 98 % -0.28 C
49 13-01-2014 04:00:00 0.1 C 98 % -0.18 C
50 13-01-2014 04:05:00 0.1 C 98 % -0.18 C
Sensor: Nr:Datum:Temp:Feuchte:Taupunkt:
Aussen-T/F 51 13-01-2014 04:10:00 0.1 C 98 % -0.18 C
52 13-01-2014 04:15:00 0.2 C 98 % -0.08 C
53 13-01-2014 04:20:00 0.2 C 98 % -0.08 C
54 13-01-2014 04:25:00 0.2 C 98 % -0.08 C
55 13-01-2014 04:30:00 0.2 C 98 % -0.08 C
56 13-01-2014 04:35:00 0.2 C 98 % -0.08 C
57 13-01-2014 04:40:00 0.3 C 98 % 0.02 C
58 13-01-2014 04:45:00 0.3 C 98 % 0.02 C
59 13-01-2014 04:50:00 0.4 C 98 % 0.12 C
60 13-01-2014 04:55:00 0.6 C 98 % 0.32 C
61 13-01-2014 05:00:00 0.6 C 98 % 0.32 C
62 13-01-2014 05:05:00 0.7 C 98 % 0.42 C
63 13-01-2014 05:10:00 0.8 C 98 % 0.52 C
64 13-01-2014 05:15:00 0.9 C 98 % 0.62 C
65 13-01-2014 05:20:00 1 C 98 % 0.72 C
66 13-01-2014 05:25:00 1.1 C 98 % 0.82 C
67 13-01-2014 05:30:00 1.2 C 98 % 0.92 C
68 13-01-2014 05:35:00 1.2 C 98 % 0.92 C
69 13-01-2014 05:40:00 1.2 C 98 % 0.92 C
70 13-01-2014 05:45:00 1.3 C 98 % 1.02 C
71 13-01-2014 05:50:00 1.3 C 98 % 1.02 C
72 13-01-2014 05:55:00 1.4 C 98 % 1.12 C
73 13-01-2014 06:00:00 1.4 C 98 % 1.12 C
74 13-01-2014 06:05:00 1.5 C 98 % 1.22 C
75 13-01-2014 06:10:00 1.6 C 98 % 1.32 C
Sensor: Nr:Datum:Temp:Feuchte:Taupunkt:
Aussen-T/F 76 13-01-2014 06:15:00 1.7 C 98 % 1.42 C
77 13-01-2014 06:20:00 1.8 C 98 % 1.52 C
78 13-01-2014 06:25:00 1.8 C 98 % 1.52 C
79 13-01-2014 06:30:00 1.9 C 98 % 1.62 C
80 13-01-2014 06:35:00 1.9 C 98 % 1.62 C
81 13-01-2014 06:40:00 2 C 98 % 1.72 C
82 13-01-2014 06:45:00 2 C 98 % 1.72 C
83 13-01-2014 06:50:00 2.1 C 98 % 1.82 C
84 13-01-2014 06:55:00 2.2 C 98 % 1.92 C
85 13-01-2014 07:00:00 2.2 C 98 % 1.92 C
86 13-01-2014 07:05:00 2.3 C 98 % 2.02 C
87 13-01-2014 07:10:00 2.2 C 98 % 1.92 C
88 13-01-2014 07:15:00 2.2 C 98 % 1.92 C
89 13-01-2014 07:20:00 2.3 C 98 % 2.02 C
90 13-01-2014 07:25:00 2.3 C 98 % 2.02 C
91 13-01-2014 07:30:00 2.3 C 98 % 2.02 C
92 13-01-2014 07:35:00 2.4 C 98 % 2.12 C
93 13-01-2014 07:40:00 2.4 C 98 % 2.12 C
94 13-01-2014 07:45:00 2.4 C 98 % 2.12 C
95 13-01-2014 07:50:00 2.5 C 98 % 2.22 C
96 13-01-2014 07:55:00 2.5 C 98 % 2.22 C
97 13-01-2014 08:00:00 2.4 C 98 % 2.12 C
98 13-01-2014 08:05:00 2.4 C 98 % 2.12 C
99 13-01-2014 08:10:00 2.5 C 98 % 2.22 C
100 13-01-2014 08:15:00 2.6 C 98 % 2.32 C
Sensor: Nr:Datum:Temp:Feuchte:Taupunkt:
Aussen-T/F 101 13-01-2014 08:20:00 2.6 C 98 % 2.32 C
102 13-01-2014 08:25:00 2.7 C 98 % 2.42 C
103 13-01-2014 08:30:00 2.7 C 98 % 2.42 C
104 13-01-2014 08:35:00 2.8 C 98 % 2.52 C
105 13-01-2014 08:40:00 2.8 C 98 % 2.52 C
106 13-01-2014 08:45:00 2.8 C 98 % 2.52 C
107 13-01-2014 08:50:00 2.8 C 98 % 2.52 C
108 13-01-2014 08:55:00 2.8 C 98 % 2.52 C
109 13-01-2014 09:00:00 2.9 C 98 % 2.62 C
110 13-01-2014 09:05:00 2.9 C 98 % 2.62 C
111 13-01-2014 09:10:00 3 C 98 % 2.72 C
112 13-01-2014 09:15:00 3.1 C 98 % 2.82 C
113 13-01-2014 09:20:00 3.1 C 98 % 2.82 C
114 13-01-2014 09:25:00 3.2 C 98 % 2.92 C
115 13-01-2014 09:30:00 3.2 C 98 % 2.92 C
116 13-01-2014 09:35:00 3.3 C 98 % 3.01 C
117 13-01-2014 09:40:00 3.3 C 98 % 3.01 C
118 13-01-2014 09:45:00 3.4 C 99 % 3.26 C
119 13-01-2014 09:50:00 3.4 C 98 % 3.11 C
120 13-01-2014 09:55:00 3.4 C 98 % 3.11 C
121 13-01-2014 10:00:00 3.5 C 98 % 3.21 C
122 13-01-2014 10:05:00 3.6 C 98 % 3.31 C
123 13-01-2014 10:10:00 3.7 C 98 % 3.41 C
124 13-01-2014 10:15:00 3.7 C 98 % 3.41 C
125 13-01-2014 10:20:00 3.7 C 99 % 3.56 C
Sensor: Nr:Datum:Temp:Feuchte:Taupunkt:
Aussen-T/F 126 13-01-2014 10:25:00 3.7 C 99 % 3.56 C
127 13-01-2014 10:30:00 3.8 C 99 % 3.66 C
128 13-01-2014 10:35:00 3.8 C 98 % 3.51 C
129 13-01-2014 10:40:00 3.9 C 98 % 3.61 C
130 13-01-2014 10:45:00 4 C 98 % 3.71 C
131 13-01-2014 10:50:00 4.2 C 99 % 4.06 C
132 13-01-2014 10:55:00 4.4 C 99 % 4.26 C
133 13-01-2014 11:00:00 4.9 C 99 % 4.76 C
134 13-01-2014 11:05:00 5.3 C 99 % 5.16 C
135 13-01-2014 11:10:00 5.2 C 98 % 4.91 C
136 13-01-2014 11:15:00 4.9 C 99 % 4.76 C
137 13-01-2014 11:20:00 4.8 C 98 % 4.51 C
138 13-01-2014 11:25:00 4.8 C 98 % 4.51 C
139 13-01-2014 11:30:00 4.9 C 99 % 4.76 C
140 13-01-2014 11:35:00 5.1 C 99 % 4.96 C
141 13-01-2014 11:40:00 5.1 C 99 % 4.96 C
142 13-01-2014 11:45:00 5.4 C 99 % 5.26 C
143 13-01-2014 11:50:00 5.6 C 99 % 5.46 C
144 13-01-2014 11:55:00 5.5 C 99 % 5.36 C
145 13-01-2014 12:00:00 5.6 C 99 % 5.46 C
146 13-01-2014 12:05:00 5.8 C 99 % 5.66 C
147 13-01-2014 12:10:00 6.1 C 99 % 5.95 C
148 13-01-2014 12:15:00 6.2 C 99 % 6.05 C
149 13-01-2014 12:20:00 6.3 C 99 % 6.15 C
150 13-01-2014 12:25:00 6.3 C 99 % 6.15 C
Sensor: Nr:Datum:Temp:Feuchte:Taupunkt:
Aussen-T/F 151 13-01-2014 12:30:00 6.4 C 99 % 6.25 C
152 13-01-2014 12:35:00 6.6 C 99 % 6.45 C
153 13-01-2014 12:40:00 6.6 C 98 % 6.31 C
154 13-01-2014 12:45:00 6.7 C 97 % 6.26 C
155 13-01-2014 12:50:00 6.9 C 96 % 6.31 C
156 13-01-2014 12:55:00 7.1 C 95 % 6.35 C
157 13-01-2014 13:00:00 7.2 C 95 % 6.45 C
158 13-01-2014 13:05:00 7.3 C 94 % 6.4 C
159 13-01-2014 13:10:00 7.6 C 92 % 6.39 C
160 13-01-2014 13:15:00 7.7 C 91 % 6.33 C
161 13-01-2014 13:20:00 7.8 C 90 % 6.27 C
162 13-01-2014 13:25:00 7.9 C 89 % 6.2 C
163 13-01-2014 13:30:00 8.1 C 89 % 6.4 C
164 13-01-2014 13:35:00 8.1 C 88 % 6.24 C
165 13-01-2014 13:40:00 8.2 C 88 % 6.33 C
166 13-01-2014 13:45:00 8.2 C 87 % 6.17 C
167 13-01-2014 13:50:00 8.2 C 86 % 6 C
168 13-01-2014 13:55:00 8.2 C 85 % 5.83 C
169 13-01-2014 14:00:00 8.2 C 86 % 6 C
170 13-01-2014 14:05:00 8.2 C 85 % 5.83 C
171 13-01-2014 14:10:00 8.2 C 86 % 6 C
172 13-01-2014 14:15:00 8.1 C 85 % 5.73 C
173 13-01-2014 14:20:00 8.1 C 86 % 5.9 C
174 13-01-2014 14:25:00 8.1 C 86 % 5.9 C
175 13-01-2014 14:30:00 8 C 86 % 5.81 C
Sensor: Nr:Datum:Temp:Feuchte:Taupunkt:
Aussen-T/F 176 13-01-2014 14:35:00 8 C 86 % 5.81 C
177 13-01-2014 14:40:00 7.9 C 87 % 5.87 C
178 13-01-2014 14:45:00 7.9 C 86 % 5.71 C
179 13-01-2014 14:50:00 7.8 C 87 % 5.78 C
180 13-01-2014 14:55:00 7.8 C 87 % 5.78 C
181 13-01-2014 15:00:00 7.8 C 87 % 5.78 C
182 13-01-2014 15:05:00 7.7 C 88 % 5.84 C
183 13-01-2014 15:10:00 7.6 C 89 % 5.91 C
184 13-01-2014 15:15:00 7.6 C 88 % 5.74 C
185 13-01-2014 15:20:00 7.6 C 88 % 5.74 C
186 13-01-2014 15:25:00 7.4 C 90 % 5.87 C
187 13-01-2014 15:30:00 7.4 C 90 % 5.87 C
188 13-01-2014 15:35:00 7.3 C 90 % 5.77 C
189 13-01-2014 15:40:00 7.2 C 91 % 5.83 C
190 13-01-2014 15:45:00 7.1 C 91 % 5.73 C
191 13-01-2014 15:50:00 7 C 92 % 5.79 C
192 13-01-2014 15:55:00 6.9 C 92 % 5.69 C
193 13-01-2014 16:00:00 6.9 C 93 % 5.85 C
194 13-01-2014 16:05:00 6.9 C 93 % 5.85 C
195 13-01-2014 16:10:00 6.9 C 93 % 5.85 C
196 13-01-2014 16:15:00 7 C 93 % 5.95 C
197 13-01-2014 16:20:00 7 C 92 % 5.79 C
198 13-01-2014 16:25:00 6.9 C 92 % 5.69 C
199 13-01-2014 16:30:00 6.8 C 92 % 5.59 C
200 13-01-2014 16:35:00 6.6 C 92 % 5.4 C
Sensor: Nr:Datum:Temp:Feuchte:Taupunkt:
Aussen-T/F 201 13-01-2014 16:40:00 6.4 C 93 % 5.35 C
202 13-01-2014 16:45:00 6.3 C 94 % 5.41 C
203 13-01-2014 16:50:00 6.2 C 94 % 5.31 C
204 13-01-2014 16:55:00 6.2 C 94 % 5.31 C
205 13-01-2014 17:00:00 6.2 C 94 % 5.31 C
206 13-01-2014 17:05:00 6.2 C 94 % 5.31 C
207 13-01-2014 17:10:00 6.2 C 94 % 5.31 C
208 13-01-2014 17:15:00 6.2 C 95 % 5.46 C
209 13-01-2014 17:20:00 6.2 C 95 % 5.46 C
210 13-01-2014 17:25:00 6.2 C 95 % 5.46 C
211 13-01-2014 17:30:00 6.2 C 95 % 5.46 C
212 13-01-2014 17:35:00 6.3 C 95 % 5.56 C
213 13-01-2014 17:40:00 6.2 C 95 % 5.46 C
214 13-01-2014 17:45:00 6.2 C 95 % 5.46 C
215 13-01-2014 17:50:00 6.2 C 95 % 5.46 C
216 13-01-2014 17:55:00 6.2 C 94 % 5.31 C
217 13-01-2014 18:00:00 6.1 C 95 % 5.36 C
218 13-01-2014 18:05:00 6.2 C 95 % 5.46 C
219 13-01-2014 18:10:00 6.1 C 95 % 5.36 C
220 13-01-2014 18:15:00 6.2 C 95 % 5.46 C
221 13-01-2014 18:20:00 6.2 C 95 % 5.46 C
222 13-01-2014 18:25:00 6.2 C 95 % 5.46 C
223 13-01-2014 18:30:00 6.2 C 95 % 5.46 C
224 13-01-2014 18:35:00 6.1 C 96 % 5.51 C
225 13-01-2014 18:40:00 6.1 C 96 % 5.51 C
Sensor: Nr:Datum:Temp:Feuchte:Taupunkt:
Aussen-T/F 226 13-01-2014 18:45:00 6.1 C 96 % 5.51 C
227 13-01-2014 18:50:00 6.1 C 96 % 5.51 C
228 13-01-2014 18:55:00 6.1 C 96 % 5.51 C
229 13-01-2014 19:00:00 6.1 C 96 % 5.51 C
230 13-01-2014 19:05:00 6.1 C 96 % 5.51 C
231 13-01-2014 19:10:00 6.1 C 96 % 5.51 C
232 13-01-2014 19:15:00 6.1 C 96 % 5.51 C
233 13-01-2014 19:20:00 6.1 C 96 % 5.51 C
234 13-01-2014 19:25:00 6 C 96 % 5.41 C
235 13-01-2014 19:30:00 6 C 96 % 5.41 C
236 13-01-2014 19:35:00 6 C 96 % 5.41 C
237 13-01-2014 19:40:00 6 C 96 % 5.41 C
238 13-01-2014 19:45:00 6 C 96 % 5.41 C
239 13-01-2014 19:50:00 5.9 C 96 % 5.31 C
240 13-01-2014 19:55:00 5.9 C 96 % 5.31 C
241 13-01-2014 20:00:00 5.8 C 96 % 5.21 C
242 13-01-2014 20:05:00 5.8 C 96 % 5.21 C
243 13-01-2014 20:10:00 5.8 C 96 % 5.21 C
244 13-01-2014 20:15:00 5.8 C 96 % 5.21 C
245 13-01-2014 20:20:00 5.7 C 96 % 5.11 C
246 13-01-2014 20:25:00 5.7 C 96 % 5.11 C
247 13-01-2014 20:30:00 5.7 C 96 % 5.11 C
248 13-01-2014 20:35:00 5.7 C 96 % 5.11 C
249 13-01-2014 20:40:00 5.7 C 96 % 5.11 C
250 13-01-2014 20:45:00 5.7 C 96 % 5.11 C
Sensor: Nr:Datum:Temp:Feuchte:Taupunkt:
Aussen-T/F 251 13-01-2014 20:50:00 5.7 C 96 % 5.11 C
252 13-01-2014 20:55:00 5.7 C 96 % 5.11 C
253 13-01-2014 21:00:00 5.6 C 96 % 5.01 C
254 13-01-2014 21:05:00 5.6 C 96 % 5.01 C
255 13-01-2014 21:10:00 5.6 C 96 % 5.01 C
256 13-01-2014 21:15:00 5.6 C 96 % 5.01 C
257 13-01-2014 21:20:00 5.6 C 96 % 5.01 C
258 13-01-2014 21:25:00 5.6 C 96 % 5.01 C
259 13-01-2014 21:30:00 5.4 C 95 % 4.66 C
260 13-01-2014 21:35:00 5.2 C 95 % 4.47 C
261 13-01-2014 21:40:00 5 C 95 % 4.27 C
262 13-01-2014 21:45:00 4.8 C 95 % 4.07 C
263 13-01-2014 21:50:00 4.8 C 95 % 4.07 C
264 13-01-2014 21:55:00 4.8 C 96 % 4.22 C
265 13-01-2014 22:00:00 4.7 C 96 % 4.12 C
266 13-01-2014 22:05:00 4.6 C 96 % 4.02 C
267 13-01-2014 22:10:00 4.5 C 96 % 3.92 C
268 13-01-2014 22:15:00 4.5 C 96 % 3.92 C
269 13-01-2014 22:20:00 4.5 C 96 % 3.92 C
270 13-01-2014 22:25:00 4.4 C 96 % 3.82 C
271 13-01-2014 22:30:00 4.3 C 96 % 3.72 C
272 13-01-2014 22:35:00 4.2 C 96 % 3.62 C
273 13-01-2014 22:40:00 4.1 C 96 % 3.52 C
274 13-01-2014 22:45:00 4 C 96 % 3.42 C
275 13-01-2014 22:50:00 3.9 C 96 % 3.32 C
Sensor: Nr:Datum:Temp:Feuchte:Taupunkt:
Aussen-T/F 276 13-01-2014 22:55:00 3.8 C 96 % 3.22 C
277 13-01-2014 23:00:00 3.8 C 96 % 3.22 C
278 13-01-2014 23:05:00 3.8 C 96 % 3.22 C
279 13-01-2014 23:10:00 3.8 C 97 % 3.37 C
280 13-01-2014 23:15:00 3.8 C 96 % 3.22 C
281 13-01-2014 23:20:00 3.8 C 96 % 3.22 C
282 13-01-2014 23:25:00 3.8 C 97 % 3.37 C
283 13-01-2014 23:30:00 3.9 C 97 % 3.47 C
284 13-01-2014 23:35:00 3.9 C 97 % 3.47 C
285 13-01-2014 23:40:00 4.1 C 97 % 3.67 C
286 13-01-2014 23:45:00 4.2 C 97 % 3.77 C
287 13-01-2014 23:50:00 4.2 C 97 % 3.77 C
288 13-01-2014 23:55:00 4.2 C 97 % 3.77 C
289 14-01-2014 00:00:00 4.2 C 97 % 3.77 C
290 14-01-2014 00:05:00 4.1 C 97 % 3.67 C
291 14-01-2014 00:10:00 4.1 C 97 % 3.67 C
292 14-01-2014 00:15:00 4.1 C 97 % 3.67 C
293 14-01-2014 00:20:00 4 C 96 % 3.42 C
294 14-01-2014 00:25:00 3.9 C 96 % 3.32 C
295 14-01-2014 00:30:00 3.7 C 96 % 3.12 C
296 14-01-2014 00:35:00 3.7 C 97 % 3.27 C
297 14-01-2014 00:40:00 3.7 C 96 % 3.12 C
298 14-01-2014 00:45:00 3.7 C 96 % 3.12 C
299 14-01-2014 00:50:00 3.6 C 96 % 3.02 C
300 14-01-2014 00:55:00 3.7 C 97 % 3.27 C
Sensor: Nr:Datum:Temp:Feuchte:Taupunkt:
Aussen-T/F 301 14-01-2014 01:00:00 3.7 C 97 % 3.27 C
302 14-01-2014 01:05:00 3.6 C 97 % 3.17 C
303 14-01-2014 01:10:00 3.6 C 97 % 3.17 C
304 14-01-2014 01:15:00 3.7 C 97 % 3.27 C
305 14-01-2014 01:20:00 3.7 C 97 % 3.27 C
306 14-01-2014 01:25:00 3.6 C 97 % 3.17 C
307 14-01-2014 01:30:00 3.6 C 97 % 3.17 C
308 14-01-2014 01:35:00 3.5 C 97 % 3.07 C
309 14-01-2014 01:40:00 3.3 C 96 % 2.72 C
310 14-01-2014 01:45:00 3.3 C 97 % 2.87 C
311 14-01-2014 01:50:00 3.2 C 97 % 2.77 C
312 14-01-2014 01:55:00 3.2 C 97 % 2.77 C
313 14-01-2014 02:00:00 3.3 C 97 % 2.87 C
314 14-01-2014 02:05:00 3.2 C 97 % 2.77 C
315 14-01-2014 02:10:00 3.2 C 97 % 2.77 C
316 14-01-2014 02:15:00 3.2 C 97 % 2.77 C
317 14-01-2014 02:20:00 3.2 C 97 % 2.77 C
318 14-01-2014 02:25:00 3.3 C 97 % 2.87 C
319 14-01-2014 02:30:00 3.2 C 97 % 2.77 C
320 14-01-2014 02:35:00 3.2 C 97 % 2.77 C
321 14-01-2014 02:40:00 3.3 C 97 % 2.87 C
322 14-01-2014 02:45:00 3.4 C 97 % 2.97 C
323 14-01-2014 02:50:00 3.5 C 97 % 3.07 C
324 14-01-2014 02:55:00 3.6 C 97 % 3.17 C
325 14-01-2014 03:00:00 3.7 C 97 % 3.27 C
Sensor: Nr:Datum:Temp:Feuchte:Taupunkt:
Aussen-T/F 326 14-01-2014 03:05:00 3.8 C 97 % 3.37 C
327 14-01-2014 03:10:00 3.9 C 97 % 3.47 C
328 14-01-2014 03:15:00 4 C 98 % 3.71 C
329 14-01-2014 03:20:00 4.1 C 98 % 3.81 C
330 14-01-2014 03:25:00 4.1 C 98 % 3.81 C
331 14-01-2014 03:30:00 4.1 C 98 % 3.81 C
332 14-01-2014 03:35:00 4.1 C 97 % 3.67 C
333 14-01-2014 03:40:00 4.1 C 97 % 3.67 C
334 14-01-2014 03:45:00 4.1 C 97 % 3.67 C
335 14-01-2014 03:50:00 4.1 C 97 % 3.67 C
336 14-01-2014 03:55:00 4.1 C 97 % 3.67 C
337 14-01-2014 04:00:00 4.1 C 97 % 3.67 C
338 14-01-2014 04:05:00 4.2 C 97 % 3.77 C
339 14-01-2014 04:10:00 4.2 C 97 % 3.77 C
340 14-01-2014 04:15:00 4.2 C 97 % 3.77 C
341 14-01-2014 04:20:00 4.2 C 97 % 3.77 C
342 14-01-2014 04:25:00 4.2 C 97 % 3.77 C
343 14-01-2014 04:30:00 4.2 C 97 % 3.77 C
344 14-01-2014 04:35:00 4.3 C 97 % 3.87 C
345 14-01-2014 04:40:00 4.3 C 97 % 3.87 C
346 14-01-2014 04:45:00 4.5 C 98 % 4.21 C
347 14-01-2014 04:50:00 4.7 C 98 % 4.41 C
348 14-01-2014 04:55:00 4.8 C 98 % 4.51 C
349 14-01-2014 05:00:00 5 C 98 % 4.71 C
350 14-01-2014 05:05:00 5.1 C 98 % 4.81 C
Sensor: Nr:Datum:Temp:Feuchte:Taupunkt:
Aussen-T/F 351 14-01-2014 05:10:00 5.2 C 97 % 4.76 C
352 14-01-2014 05:15:00 5.2 C 97 % 4.76 C
353 14-01-2014 05:20:00 5.3 C 96 % 4.72 C
354 14-01-2014 05:25:00 5.3 C 95 % 4.57 C
355 14-01-2014 05:30:00 5.4 C 95 % 4.66 C
356 14-01-2014 05:35:00 5.5 C 95 % 4.76 C
357 14-01-2014 05:40:00 5.6 C 95 % 4.86 C
358 14-01-2014 05:45:00 5.6 C 94 % 4.71 C
359 14-01-2014 05:50:00 5.5 C 94 % 4.61 C
360 14-01-2014 05:55:00 5.5 C 94 % 4.61 C
361 14-01-2014 06:00:00 5.4 C 94 % 4.51 C
362 14-01-2014 06:05:00 5.4 C 93 % 4.36 C
363 14-01-2014 06:10:00 5.3 C 94 % 4.41 C
364 14-01-2014 06:15:00 5.3 C 94 % 4.41 C
365 14-01-2014 06:20:00 5.3 C 94 % 4.41 C
366 14-01-2014 06:25:00 5.2 C 94 % 4.32 C
367 14-01-2014 06:30:00 5.2 C 94 % 4.32 C
368 14-01-2014 06:35:00 5.2 C 94 % 4.32 C
369 14-01-2014 06:40:00 5 C 94 % 4.12 C
370 14-01-2014 06:45:00 4.9 C 94 % 4.02 C
371 14-01-2014 06:50:00 5 C 95 % 4.27 C
372 14-01-2014 06:55:00 5 C 95 % 4.27 C
373 14-01-2014 07:00:00 4.9 C 95 % 4.17 C
374 14-01-2014 07:05:00 4.9 C 95 % 4.17 C
375 14-01-2014 07:10:00 4.7 C 94 % 3.82 C
Sensor: Nr:Datum:Temp:Feuchte:Taupunkt:
Aussen-T/F 376 14-01-2014 07:15:00 4.6 C 95 % 3.87 C
377 14-01-2014 07:20:00 4.6 C 95 % 3.87 C
378 14-01-2014 07:25:00 4.8 C 96 % 4.22 C
379 14-01-2014 07:30:00 4.8 C 95 % 4.07 C
380 14-01-2014 07:35:00 4.8 C 95 % 4.07 C
381 14-01-2014 07:40:00 4.7 C 95 % 3.97 C
382 14-01-2014 07:45:00 4.5 C 95 % 3.77 C
383 14-01-2014 07:50:00 4.3 C 95 % 3.57 C
384 14-01-2014 07:55:00 4.2 C 95 % 3.47 C
385 14-01-2014 08:00:00 4.2 C 96 % 3.62 C
386 14-01-2014 08:05:00 4.2 C 96 % 3.62 C
387 14-01-2014 08:10:00 4.5 C 97 % 4.07 C
388 14-01-2014 08:15:00 4.6 C 97 % 4.17 C
389 14-01-2014 08:20:00 4.7 C 96 % 4.12 C
390 14-01-2014 08:25:00 4.5 C 96 % 3.92 C
391 14-01-2014 08:30:00 4.3 C 95 % 3.57 C
392 14-01-2014 08:35:00 4.1 C 95 % 3.37 C
393 14-01-2014 08:40:00 4 C 96 % 3.42 C
394 14-01-2014 08:45:00 4 C 96 % 3.42 C
395 14-01-2014 08:50:00 4 C 96 % 3.42 C
396 14-01-2014 08:55:00 4.2 C 97 % 3.77 C
397 14-01-2014 09:00:00 4.3 C 97 % 3.87 C
398 14-01-2014 09:05:00 4.4 C 97 % 3.97 C
399 14-01-2014 09:10:00 4.4 C 97 % 3.97 C
400 14-01-2014 09:15:00 4.6 C 97 % 4.17 C
Sensor: Nr:Datum:Temp:Feuchte:Taupunkt:
Aussen-T/F 401 14-01-2014 09:20:00 4.7 C 97 % 4.27 C
402 14-01-2014 09:25:00 4.9 C 97 % 4.46 C
403 14-01-2014 09:30:00 5.1 C 97 % 4.66 C
404 14-01-2014 09:35:00 5.2 C 97 % 4.76 C
405 14-01-2014 09:40:00 5.3 C 97 % 4.86 C
406 14-01-2014 09:45:00 5.5 C 96 % 4.91 C
407 14-01-2014 09:50:00 5.6 C 96 % 5.01 C
408 14-01-2014 09:55:00 5.7 C 95 % 4.96 C
409 14-01-2014 10:00:00 5.8 C 95 % 5.06 C
410 14-01-2014 10:05:00 5.8 C 95 % 5.06 C
411 14-01-2014 10:10:00 5.8 C 94 % 4.91 C
412 14-01-2014 10:15:00 5.8 C 94 % 4.91 C
413 14-01-2014 10:20:00 5.8 C 93 % 4.76 C
414 14-01-2014 10:25:00 5.8 C 93 % 4.76 C
415 14-01-2014 10:30:00 5.8 C 93 % 4.76 C
416 14-01-2014 10:35:00 5.8 C 93 % 4.76 C
417 14-01-2014 10:40:00 5.8 C 93 % 4.76 C
418 14-01-2014 10:45:00 5.8 C 93 % 4.76 C
419 14-01-2014 10:50:00 5.8 C 94 % 4.91 C
420 14-01-2014 10:55:00 5.8 C 94 % 4.91 C
421 14-01-2014 11:00:00 5.8 C 94 % 4.91 C
422 14-01-2014 11:05:00 5.9 C 94 % 5.01 C
423 14-01-2014 11:10:00 5.9 C 94 % 5.01 C
424 14-01-2014 11:15:00 5.9 C 94 % 5.01 C
425 14-01-2014 11:20:00 5.9 C 94 % 5.01 C
Sensor: Nr:Datum:Temp:Feuchte:Taupunkt:
Aussen-T/F 426 14-01-2014 12:05:00 6.8 C 92 % 5.59 C
427 14-01-2014 12:10:00 6.9 C 91 % 5.54 C
428 14-01-2014 12:15:00 6.9 C 91 % 5.54 C
429 14-01-2014 12:20:00 6.9 C 90 % 5.38 C
430 14-01-2014 12:25:00 6.9 C 90 % 5.38 C
431 14-01-2014 12:30:00 6.9 C 91 % 5.54 C
432 14-01-2014 12:35:00 6.9 C 90 % 5.38 C
433 14-01-2014 12:40:00 6.9 C 91 % 5.54 C
434 14-01-2014 12:45:00 6.9 C 91 % 5.54 C
435 14-01-2014 12:50:00 6.9 C 92 % 5.69 C
436 14-01-2014 12:55:00 7 C 91 % 5.63 C
437 14-01-2014 13:00:00 7.1 C 91 % 5.73 C
438 14-01-2014 13:05:00 7.3 C 91 % 5.93 C
439 14-01-2014 13:10:00 7.4 C 91 % 6.03 C
440 14-01-2014 13:15:00 7.5 C 89 % 5.81 C
441 14-01-2014 13:20:00 7.6 C 89 % 5.91 C
442 14-01-2014 13:25:00 7.6 C 89 % 5.91 C
443 14-01-2014 13:30:00 7.6 C 88 % 5.74 C
444 14-01-2014 13:35:00 7.6 C 89 % 5.91 C
445 14-01-2014 13:40:00 7.7 C 88 % 5.84 C
446 14-01-2014 13:45:00 7.7 C 88 % 5.84 C
447 14-01-2014 13:50:00 7.8 C 88 % 5.94 C
448 14-01-2014 13:55:00 7.8 C 88 % 5.94 C
449 14-01-2014 14:00:00 7.9 C 87 % 5.87 C
450 14-01-2014 14:05:00 8 C 87 % 5.97 C
Sensor: Nr:Datum:Temp:Feuchte:Taupunkt:
Aussen-T/F 451 14-01-2014 14:10:00 8.1 C 87 % 6.07 C
452 14-01-2014 14:15:00 8.1 C 87 % 6.07 C
453 14-01-2014 14:20:00 8.1 C 86 % 5.9 C
454 14-01-2014 14:25:00 8.1 C 87 % 6.07 C
455 14-01-2014 14:30:00 8.1 C 87 % 6.07 C
456 14-01-2014 14:35:00 8 C 87 % 5.97 C
457 14-01-2014 14:40:00 7.9 C 88 % 6.04 C
458 14-01-2014 14:45:00 7.8 C 87 % 5.78 C
459 14-01-2014 14:50:00 7.8 C 87 % 5.78 C
460 14-01-2014 14:55:00 7.8 C 87 % 5.78 C
461 14-01-2014 15:00:00 7.7 C 88 % 5.84 C
462 14-01-2014 15:05:00 7.5 C 89 % 5.81 C
463 14-01-2014 15:10:00 7.3 C 90 % 5.77 C
464 14-01-2014 15:15:00 7.1 C 91 % 5.73 C
465 14-01-2014 15:20:00 7.2 C 92 % 5.99 C
466 14-01-2014 15:25:00 7.2 C 92 % 5.99 C
467 14-01-2014 15:30:00 7.2 C 91 % 5.83 C
468 14-01-2014 15:35:00 7.3 C 90 % 5.77 C
469 14-01-2014 15:40:00 7.4 C 90 % 5.87 C
470 14-01-2014 15:45:00 7.5 C 89 % 5.81 C
471 14-01-2014 15:50:00 7.6 C 88 % 5.74 C
472 14-01-2014 15:55:00 7.6 C 87 % 5.58 C
473 14-01-2014 16:00:00 7.6 C 88 % 5.74 C
474 14-01-2014 16:05:00 7.6 C 88 % 5.74 C
475 14-01-2014 16:10:00 7.6 C 87 % 5.58 C
Sensor: Nr:Datum:Temp:Feuchte:Taupunkt:
Aussen-T/F 476 14-01-2014 16:15:00 7.6 C 87 % 5.58 C
477 14-01-2014 16:20:00 7.5 C 87 % 5.48 C
478 14-01-2014 16:25:00 7.4 C 87 % 5.38 C
479 14-01-2014 16:30:00 7.3 C 88 % 5.45 C
480 14-01-2014 16:35:00 7.2 C 88 % 5.35 C
481 14-01-2014 16:40:00 7 C 88 % 5.15 C
482 14-01-2014 16:45:00 6.8 C 89 % 5.12 C
483 14-01-2014 16:50:00 6.7 C 90 % 5.18 C
484 14-01-2014 16:55:00 6.5 C 90 % 4.98 C
485 14-01-2014 17:00:00 6.4 C 90 % 4.88 C
486 14-01-2014 17:05:00 6.4 C 90 % 4.88 C
487 14-01-2014 17:10:00 6.4 C 91 % 5.04 C
488 14-01-2014 17:15:00 6.4 C 91 % 5.04 C
489 14-01-2014 17:20:00 6.4 C 91 % 5.04 C
490 14-01-2014 17:25:00 6.4 C 92 % 5.2 C
491 14-01-2014 17:30:00 6.4 C 92 % 5.2 C
492 14-01-2014 17:35:00 6.4 C 92 % 5.2 C
493 14-01-2014 17:40:00 6.3 C 93 % 5.25 C
494 14-01-2014 17:45:00 6.3 C 93 % 5.25 C
495 14-01-2014 17:50:00 6.2 C 94 % 5.31 C
496 14-01-2014 17:55:00 6.1 C 94 % 5.21 C
497 14-01-2014 18:00:00 6 C 94 % 5.11 C
498 14-01-2014 18:05:00 5.9 C 95 % 5.16 C
499 14-01-2014 18:10:00 5.8 C 95 % 5.06 C
500 14-01-2014 18:15:00 5.7 C 95 % 4.96 C
Sensor: Nr:Datum:Temp:Feuchte:Taupunkt:
Aussen-T/F 501 14-01-2014 18:20:00 5.6 C 95 % 4.86 C
502 14-01-2014 18:25:00 5.4 C 95 % 4.66 C
503 14-01-2014 18:30:00 5.2 C 95 % 4.47 C
504 14-01-2014 18:35:00 5 C 95 % 4.27 C
505 14-01-2014 18:40:00 4.7 C 95 % 3.97 C
506 14-01-2014 18:45:00 4.6 C 95 % 3.87 C
507 14-01-2014 18:50:00 4.4 C 95 % 3.67 C
508 14-01-2014 18:55:00 4.2 C 95 % 3.47 C
509 14-01-2014 19:00:00 4.1 C 96 % 3.52 C
510 14-01-2014 19:05:00 4.1 C 96 % 3.52 C
511 14-01-2014 19:10:00 3.9 C 96 % 3.32 C
512 14-01-2014 19:15:00 3.8 C 96 % 3.22 C
513 14-01-2014 19:20:00 3.8 C 96 % 3.22 C
514 14-01-2014 19:25:00 3.6 C 96 % 3.02 C
515 14-01-2014 19:30:00 3.4 C 96 % 2.82 C
516 14-01-2014 19:35:00 3.4 C 96 % 2.82 C
517 14-01-2014 19:40:00 3.3 C 96 % 2.72 C
518 14-01-2014 19:45:00 3.2 C 96 % 2.63 C
519 14-01-2014 19:50:00 3.2 C 96 % 2.63 C
520 14-01-2014 19:55:00 3.1 C 96 % 2.53 C
521 14-01-2014 20:00:00 3 C 96 % 2.43 C
522 14-01-2014 20:05:00 3.1 C 96 % 2.53 C
523 14-01-2014 20:10:00 3.1 C 96 % 2.53 C
524 14-01-2014 20:15:00 3.2 C 97 % 2.77 C
525 14-01-2014 20:20:00 3.2 C 97 % 2.77 C
Sensor: Nr:Datum:Temp:Feuchte:Taupunkt:
Aussen-T/F 526 14-01-2014 20:25:00 3.2 C 97 % 2.77 C
527 14-01-2014 20:30:00 3.2 C 97 % 2.77 C
528 14-01-2014 20:35:00 3.2 C 97 % 2.77 C
529 14-01-2014 20:40:00 3.3 C 97 % 2.87 C
530 14-01-2014 20:45:00 3.3 C 97 % 2.87 C
531 14-01-2014 20:50:00 3.4 C 97 % 2.97 C
532 14-01-2014 20:55:00 3.4 C 97 % 2.97 C
533 14-01-2014 21:00:00 3.5 C 97 % 3.07 C
534 14-01-2014 21:05:00 3.5 C 97 % 3.07 C
535 14-01-2014 21:10:00 3.4 C 97 % 2.97 C
536 14-01-2014 21:15:00 3.3 C 97 % 2.87 C
537 14-01-2014 21:20:00 3.2 C 97 % 2.77 C
538 14-01-2014 21:25:00 3.2 C 97 % 2.77 C
539 14-01-2014 21:30:00 3.2 C 97 % 2.77 C
540 14-01-2014 21:35:00 3.2 C 97 % 2.77 C
541 14-01-2014 21:40:00 3.4 C 97 % 2.97 C
542 14-01-2014 21:45:00 3.6 C 97 % 3.17 C
543 14-01-2014 21:50:00 3.5 C 97 % 3.07 C
544 14-01-2014 21:55:00 3.4 C 97 % 2.97 C
545 14-01-2014 22:00:00 3.4 C 97 % 2.97 C
546 14-01-2014 22:05:00 3.4 C 97 % 2.97 C
547 14-01-2014 22:10:00 3.5 C 97 % 3.07 C
548 14-01-2014 22:15:00 3.6 C 97 % 3.17 C
549 14-01-2014 22:20:00 3.7 C 98 % 3.41 C
550 14-01-2014 22:25:00 3.8 C 98 % 3.51 C
Sensor: Nr:Datum:Temp:Feuchte:Taupunkt:
Aussen-T/F 551 14-01-2014 22:30:00 3.9 C 97 % 3.47 C
552 14-01-2014 22:35:00 4 C 97 % 3.57 C
553 14-01-2014 22:40:00 4.1 C 97 % 3.67 C
554 14-01-2014 22:45:00 4.1 C 98 % 3.81 C
555 14-01-2014 22:50:00 4.1 C 98 % 3.81 C
556 14-01-2014 22:55:00 4.2 C 98 % 3.91 C
557 14-01-2014 23:00:00 4.2 C 97 % 3.77 C
558 14-01-2014 23:05:00 4.2 C 97 % 3.77 C
559 14-01-2014 23:10:00 4.2 C 97 % 3.77 C
560 14-01-2014 23:15:00 4.2 C 97 % 3.77 C
561 14-01-2014 23:20:00 4.3 C 97 % 3.87 C
562 14-01-2014 23:25:00 4.3 C 97 % 3.87 C
563 14-01-2014 23:30:00 4.3 C 98 % 4.01 C
564 14-01-2014 23:35:00 4.3 C 98 % 4.01 C
565 14-01-2014 23:40:00 4.4 C 98 % 4.11 C
566 14-01-2014 23:45:00 4.6 C 97 % 4.17 C
567 14-01-2014 23:50:00 4.7 C 98 % 4.41 C
568 14-01-2014 23:55:00 4.8 C 97 % 4.37 C
569 15-01-2014 00:00:00 4.8 C 97 % 4.37 C
570 15-01-2014 00:05:00 4.8 C 97 % 4.37 C
571 15-01-2014 00:10:00 4.8 C 97 % 4.37 C
572 15-01-2014 00:15:00 4.8 C 97 % 4.37 C
573 15-01-2014 00:20:00 4.8 C 97 % 4.37 C
574 15-01-2014 00:25:00 4.8 C 97 % 4.37 C
575 15-01-2014 00:30:00 4.8 C 97 % 4.37 C
Sensor: Nr:Datum:Temp:Feuchte:Taupunkt:
Aussen-T/F 576 15-01-2014 00:35:00 4.8 C 96 % 4.22 C
577 15-01-2014 00:40:00 4.8 C 96 % 4.22 C
578 15-01-2014 00:45:00 4.8 C 96 % 4.22 C
579 15-01-2014 00:50:00 4.8 C 96 % 4.22 C
580 15-01-2014 00:55:00 4.8 C 96 % 4.22 C
581 15-01-2014 01:00:00 4.8 C 96 % 4.22 C
582 15-01-2014 01:05:00 4.8 C 96 % 4.22 C
583 15-01-2014 01:10:00 4.8 C 96 % 4.22 C
584 15-01-2014 01:15:00 4.9 C 96 % 4.32 C
585 15-01-2014 01:20:00 4.9 C 96 % 4.32 C
586 15-01-2014 01:25:00 4.9 C 96 % 4.32 C
587 15-01-2014 01:30:00 4.9 C 96 % 4.32 C
588 15-01-2014 01:35:00 4.9 C 95 % 4.17 C
589 15-01-2014 01:40:00 4.9 C 95 % 4.17 C
590 15-01-2014 01:45:00 5 C 95 % 4.27 C
591 15-01-2014 01:50:00 5 C 95 % 4.27 C
592 15-01-2014 01:55:00 5 C 95 % 4.27 C
593 15-01-2014 02:00:00 4.9 C 95 % 4.17 C
594 15-01-2014 02:05:00 4.9 C 95 % 4.17 C
595 15-01-2014 02:10:00 4.8 C 95 % 4.07 C
596 15-01-2014 02:15:00 4.8 C 95 % 4.07 C
597 15-01-2014 02:20:00 4.7 C 95 % 3.97 C
598 15-01-2014 02:25:00 4.7 C 94 % 3.82 C
599 15-01-2014 02:30:00 4.8 C 94 % 3.92 C
600 15-01-2014 02:35:00 4.8 C 94 % 3.92 C
Sensor: Nr:Datum:Temp:Feuchte:Taupunkt:
Aussen-T/F 601 15-01-2014 02:40:00 4.8 C 93 % 3.77 C
602 15-01-2014 02:45:00 4.8 C 93 % 3.77 C
603 15-01-2014 02:50:00 4.8 C 93 % 3.77 C
604 15-01-2014 02:55:00 4.8 C 93 % 3.77 C
605 15-01-2014 03:00:00 4.8 C 93 % 3.77 C
606 15-01-2014 03:05:00 4.7 C 92 % 3.51 C
607 15-01-2014 03:10:00 4.8 C 92 % 3.61 C
608 15-01-2014 03:15:00 4.7 C 92 % 3.51 C
609 15-01-2014 03:20:00 4.7 C 92 % 3.51 C
610 15-01-2014 03:25:00 4.7 C 92 % 3.51 C
611 15-01-2014 03:30:00 4.8 C 91 % 3.46 C
612 15-01-2014 03:35:00 4.8 C 91 % 3.46 C
613 15-01-2014 03:40:00 4.8 C 90 % 3.3 C
614 15-01-2014 03:45:00 4.8 C 90 % 3.3 C
615 15-01-2014 03:50:00 4.8 C 90 % 3.3 C
616 15-01-2014 03:55:00 4.7 C 89 % 3.05 C
617 15-01-2014 04:00:00 4.6 C 89 % 2.95 C
618 15-01-2014 04:05:00 4.6 C 87 % 2.63 C
619 15-01-2014 04:10:00 4.6 C 86 % 2.47 C
620 15-01-2014 04:15:00 4.5 C 86 % 2.37 C
621 15-01-2014 04:20:00 4.4 C 86 % 2.27 C
622 15-01-2014 04:25:00 4.2 C 86 % 2.07 C
623 15-01-2014 04:30:00 4.1 C 87 % 2.14 C
624 15-01-2014 04:35:00 3.9 C 88 % 2.1 C
625 15-01-2014 04:40:00 3.7 C 89 % 2.06 C
Sensor: Nr:Datum:Temp:Feuchte:Taupunkt:
Aussen-T/F 626 15-01-2014 04:45:00 3.4 C 90 % 1.92 C
627 15-01-2014 04:50:00 3.3 C 90 % 1.82 C
628 15-01-2014 04:55:00 3.2 C 91 % 1.88 C
629 15-01-2014 05:00:00 3.2 C 91 % 1.88 C
630 15-01-2014 05:05:00 3.2 C 91 % 1.88 C
631 15-01-2014 05:10:00 3.3 C 91 % 1.98 C
632 15-01-2014 05:15:00 3.4 C 91 % 2.07 C
633 15-01-2014 05:20:00 3.5 C 91 % 2.17 C
634 15-01-2014 05:25:00 3.4 C 91 % 2.07 C
635 15-01-2014 05:30:00 3.4 C 91 % 2.07 C
636 15-01-2014 05:35:00 3.3 C 91 % 1.98 C
637 15-01-2014 05:40:00 3.1 C 91 % 1.78 C
638 15-01-2014 05:45:00 2.9 C 91 % 1.58 C
639 15-01-2014 05:50:00 2.7 C 92 % 1.53 C
640 15-01-2014 05:55:00 2.6 C 92 % 1.43 C
641 15-01-2014 06:00:00 2.6 C 93 % 1.59 C
642 15-01-2014 06:05:00 2.6 C 92 % 1.43 C
643 15-01-2014 06:10:00 2.4 C 93 % 1.39 C
644 15-01-2014 06:15:00 2.4 C 93 % 1.39 C
645 15-01-2014 06:20:00 2.3 C 93 % 1.29 C
646 15-01-2014 06:25:00 2.1 C 93 % 1.09 C
647 15-01-2014 06:30:00 2.1 C 93 % 1.09 C
648 15-01-2014 06:35:00 1.9 C 94 % 1.04 C
649 15-01-2014 06:40:00 1.8 C 94 % 0.94 C
650 15-01-2014 06:45:00 1.8 C 94 % 0.94 C
Sensor: Nr:Datum:Temp:Feuchte:Taupunkt:
Aussen-T/F 651 15-01-2014 06:50:00 1.7 C 94 % 0.84 C
652 15-01-2014 06:55:00 1.6 C 94 % 0.74 C
653 15-01-2014 07:00:00 1.7 C 94 % 0.84 C
654 15-01-2014 07:05:00 1.6 C 94 % 0.74 C
655 15-01-2014 07:10:00 1.6 C 94 % 0.74 C
656 15-01-2014 07:15:00 1.6 C 95 % 0.89 C
657 15-01-2014 07:20:00 1.6 C 95 % 0.89 C
658 15-01-2014 07:25:00 1.6 C 95 % 0.89 C
659 15-01-2014 07:30:00 1.6 C 95 % 0.89 C
660 15-01-2014 07:35:00 1.5 C 94 % 0.64 C
661 15-01-2014 07:40:00 1.4 C 95 % 0.69 C
662 15-01-2014 07:45:00 1.4 C 95 % 0.69 C
663 15-01-2014 07:50:00 1.6 C 95 % 0.89 C
664 15-01-2014 07:55:00 1.6 C 95 % 0.89 C
665 15-01-2014 08:00:00 1.7 C 95 % 0.99 C
666 15-01-2014 08:05:00 1.7 C 95 % 0.99 C
667 15-01-2014 08:10:00 1.7 C 95 % 0.99 C
668 15-01-2014 08:15:00 1.7 C 95 % 0.99 C
669 15-01-2014 08:20:00 1.7 C 95 % 0.99 C
670 15-01-2014 08:25:00 1.7 C 95 % 0.99 C
671 15-01-2014 08:30:00 1.7 C 95 % 0.99 C
672 15-01-2014 08:35:00 1.7 C 95 % 0.99 C
673 15-01-2014 08:40:00 1.7 C 95 % 0.99 C
674 15-01-2014 08:45:00 1.8 C 95 % 1.09 C
675 15-01-2014 08:50:00 1.9 C 96 % 1.33 C
Sensor: Nr:Datum:Temp:Feuchte:Taupunkt:
Aussen-T/F 676 15-01-2014 08:55:00 1.9 C 96 % 1.33 C
677 15-01-2014 09:00:00 2 C 96 % 1.43 C
678 15-01-2014 09:05:00 2.1 C 96 % 1.53 C
679 15-01-2014 09:10:00 2.1 C 96 % 1.53 C
680 15-01-2014 09:15:00 2.2 C 96 % 1.63 C
681 15-01-2014 09:20:00 2.2 C 96 % 1.63 C
682 15-01-2014 09:25:00 2.2 C 96 % 1.63 C
683 15-01-2014 09:30:00 2.2 C 96 % 1.63 C
684 15-01-2014 09:35:00 2.3 C 95 % 1.58 C
685 15-01-2014 09:40:00 2.3 C 95 % 1.58 C
686 15-01-2014 09:45:00 2.4 C 95 % 1.68 C
687 15-01-2014 09:50:00 2.6 C 96 % 2.03 C
688 15-01-2014 09:55:00 2.7 C 96 % 2.13 C
689 15-01-2014 10:00:00 2.8 C 95 % 2.08 C
690 15-01-2014 10:05:00 2.9 C 95 % 2.18 C
691 15-01-2014 10:10:00 2.9 C 95 % 2.18 C
692 15-01-2014 10:15:00 3.1 C 94 % 2.23 C
693 15-01-2014 10:20:00 3.2 C 94 % 2.33 C
694 15-01-2014 10:25:00 3.4 C 93 % 2.38 C
695 15-01-2014 10:30:00 3.6 C 92 % 2.42 C
696 15-01-2014 10:35:00 3.7 C 91 % 2.37 C
697 15-01-2014 10:40:00 3.8 C 90 % 2.31 C
698 15-01-2014 10:45:00 3.9 C 91 % 2.57 C
699 15-01-2014 10:50:00 4.1 C 90 % 2.61 C
700 15-01-2014 10:55:00 4.1 C 89 % 2.45 C
Sensor: Nr:Datum:Temp:Feuchte:Taupunkt:
Aussen-T/F 701 15-01-2014 11:00:00 4.2 C 89 % 2.55 C
702 15-01-2014 11:05:00 4.3 C 89 % 2.65 C
703 15-01-2014 11:10:00 4.4 C 88 % 2.59 C
704 15-01-2014 11:15:00 4.4 C 87 % 2.43 C
705 15-01-2014 11:20:00 4.6 C 87 % 2.63 C
706 15-01-2014 11:25:00 4.6 C 87 % 2.63 C
707 15-01-2014 11:30:00 4.7 C 87 % 2.73 C
708 15-01-2014 11:35:00 4.7 C 86 % 2.56 C
709 15-01-2014 11:40:00 4.8 C 87 % 2.82 C
710 15-01-2014 11:45:00 4.8 C 87 % 2.82 C
711 15-01-2014 11:50:00 4.9 C 86 % 2.76 C
712 15-01-2014 11:55:00 5 C 86 % 2.86 C
713 15-01-2014 12:00:00 5.1 C 87 % 3.12 C
714 15-01-2014 12:05:00 5.2 C 84 % 2.72 C
715 15-01-2014 12:10:00 5.3 C 83 % 2.65 C
716 15-01-2014 12:15:00 5.4 C 84 % 2.92 C
717 15-01-2014 12:20:00 5.5 C 84 % 3.02 C
718 15-01-2014 12:25:00 5.6 C 83 % 2.95 C
719 15-01-2014 12:30:00 5.6 C 84 % 3.12 C
720 15-01-2014 12:35:00 5.7 C 84 % 3.21 C
721 15-01-2014 12:40:00 5.7 C 84 % 3.21 C
722 15-01-2014 12:45:00 5.8 C 84 % 3.31 C
723 15-01-2014 12:50:00 5.8 C 83 % 3.14 C
724 15-01-2014 12:55:00 5.9 C 83 % 3.24 C
725 15-01-2014 13:00:00 5.9 C 83 % 3.24 C
Sensor: Nr:Datum:Temp:Feuchte:Taupunkt:
Aussen-T/F 726 15-01-2014 13:05:00 5.9 C 83 % 3.24 C
727 15-01-2014 13:10:00 5.9 C 82 % 3.07 C
728 15-01-2014 13:15:00 5.9 C 82 % 3.07 C
729 15-01-2014 13:20:00 5.9 C 82 % 3.07 C
730 15-01-2014 13:25:00 5.9 C 82 % 3.07 C
731 15-01-2014 13:30:00 5.9 C 81 % 2.9 C
732 15-01-2014 13:35:00 6 C 82 % 3.17 C
733 15-01-2014 13:40:00 6 C 82 % 3.17 C
734 15-01-2014 13:45:00 5.9 C 83 % 3.24 C
735 15-01-2014 13:50:00 5.8 C 83 % 3.14 C
736 15-01-2014 13:55:00 5.7 C 84 % 3.21 C
737 15-01-2014 14:00:00 5.6 C 84 % 3.12 C
738 15-01-2014 14:05:00 5.6 C 85 % 3.28 C
739 15-01-2014 14:10:00 5.5 C 85 % 3.18 C
740 15-01-2014 14:15:00 5.5 C 86 % 3.35 C
741 15-01-2014 14:20:00 5.5 C 86 % 3.35 C
742 15-01-2014 14:25:00 5.4 C 86 % 3.25 C
743 15-01-2014 14:30:00 5.3 C 86 % 3.15 C
744 15-01-2014 14:35:00 5.3 C 87 % 3.32 C
745 15-01-2014 14:40:00 5.2 C 87 % 3.22 C
746 15-01-2014 14:45:00 5.2 C 88 % 3.38 C
747 15-01-2014 14:50:00 5.1 C 88 % 3.28 C
748 15-01-2014 14:55:00 5.1 C 89 % 3.44 C
749 15-01-2014 15:00:00 5.1 C 89 % 3.44 C
750 15-01-2014 15:05:00 5 C 90 % 3.5 C
Sensor: Nr:Datum:Temp:Feuchte:Taupunkt:
Aussen-T/F 751 15-01-2014 15:10:00 4.9 C 90 % 3.4 C
752 15-01-2014 15:15:00 4.9 C 91 % 3.56 C
753 15-01-2014 15:20:00 4.8 C 91 % 3.46 C
754 15-01-2014 15:25:00 4.8 C 91 % 3.46 C
755 15-01-2014 15:30:00 4.8 C 91 % 3.46 C
756 15-01-2014 15:35:00 4.8 C 92 % 3.61 C
757 15-01-2014 15:40:00 4.7 C 92 % 3.51 C
758 15-01-2014 15:45:00 4.7 C 92 % 3.51 C
759 15-01-2014 15:50:00 4.7 C 93 % 3.67 C
760 15-01-2014 15:55:00 4.6 C 92 % 3.42 C
761 15-01-2014 16:00:00 4.6 C 92 % 3.42 C
762 15-01-2014 16:05:00 4.6 C 92 % 3.42 C
763 15-01-2014 16:10:00 4.6 C 92 % 3.42 C
764 15-01-2014 16:15:00 4.5 C 93 % 3.47 C
765 15-01-2014 16:20:00 4.5 C 93 % 3.47 C
766 15-01-2014 16:25:00 4.4 C 93 % 3.37 C
767 15-01-2014 16:30:00 4.4 C 93 % 3.37 C
768 15-01-2014 16:35:00 4.4 C 93 % 3.37 C
769 15-01-2014 16:40:00 4.4 C 93 % 3.37 C
770 15-01-2014 16:45:00 4.4 C 93 % 3.37 C
771 15-01-2014 16:50:00 4.4 C 93 % 3.37 C
772 15-01-2014 16:55:00 4.4 C 93 % 3.37 C
773 15-01-2014 17:00:00 4.4 C 93 % 3.37 C
774 15-01-2014 17:05:00 4.4 C 94 % 3.52 C
775 15-01-2014 17:10:00 4.4 C 94 % 3.52 C
Sensor: Nr:Datum:Temp:Feuchte:Taupunkt:
Aussen-T/F 776 15-01-2014 17:15:00 4.4 C 93 % 3.37 C
777 15-01-2014 17:20:00 4.4 C 94 % 3.52 C
778 15-01-2014 17:25:00 4.4 C 94 % 3.52 C
779 15-01-2014 17:30:00 4.4 C 93 % 3.37 C
780 15-01-2014 17:35:00 4.4 C 93 % 3.37 C
781 15-01-2014 17:40:00 4.4 C 92 % 3.22 C
782 15-01-2014 17:45:00 4.5 C 92 % 3.32 C
783 15-01-2014 17:50:00 4.6 C 92 % 3.42 C
784 15-01-2014 17:55:00 4.6 C 92 % 3.42 C
785 15-01-2014 18:00:00 4.6 C 91 % 3.26 C
786 15-01-2014 18:05:00 4.6 C 91 % 3.26 C
787 15-01-2014 18:10:00 4.7 C 91 % 3.36 C
788 15-01-2014 18:15:00 4.7 C 91 % 3.36 C
789 15-01-2014 18:20:00 4.7 C 91 % 3.36 C
790 15-01-2014 18:25:00 4.7 C 90 % 3.2 C
791 15-01-2014 18:30:00 4.7 C 90 % 3.2 C
792 15-01-2014 18:35:00 4.8 C 90 % 3.3 C
793 15-01-2014 18:40:00 4.8 C 90 % 3.3 C
794 15-01-2014 18:45:00 4.8 C 90 % 3.3 C
795 15-01-2014 18:50:00 4.8 C 90 % 3.3 C
796 15-01-2014 18:55:00 4.8 C 91 % 3.46 C
797 15-01-2014 19:00:00 4.8 C 92 % 3.61 C
798 15-01-2014 19:05:00 4.7 C 92 % 3.51 C
799 15-01-2014 19:10:00 4.8 C 90 % 3.3 C
800 15-01-2014 19:15:00 4.8 C 91 % 3.46 C
Sensor: Nr:Datum:Temp:Feuchte:Taupunkt:
Aussen-T/F 801 15-01-2014 19:20:00 4.8 C 91 % 3.46 C
802 15-01-2014 19:25:00 4.8 C 91 % 3.46 C
803 15-01-2014 19:30:00 4.8 C 91 % 3.46 C
804 15-01-2014 19:35:00 4.8 C 91 % 3.46 C
805 15-01-2014 19:40:00 4.8 C 90 % 3.3 C
806 15-01-2014 19:45:00 4.9 C 91 % 3.56 C
807 15-01-2014 19:50:00 4.9 C 91 % 3.56 C
808 15-01-2014 19:55:00 4.9 C 91 % 3.56 C
809 15-01-2014 20:00:00 4.9 C 91 % 3.56 C
810 15-01-2014 20:05:00 4.8 C 91 % 3.46 C
811 15-01-2014 20:10:00 4.8 C 92 % 3.61 C
812 15-01-2014 20:15:00 4.8 C 92 % 3.61 C
813 15-01-2014 20:20:00 4.8 C 92 % 3.61 C
814 15-01-2014 20:25:00 4.8 C 93 % 3.77 C
815 15-01-2014 20:30:00 4.8 C 93 % 3.77 C
816 15-01-2014 20:35:00 4.8 C 93 % 3.77 C
817 15-01-2014 20:40:00 4.7 C 94 % 3.82 C
818 15-01-2014 20:45:00 4.7 C 94 % 3.82 C
819 15-01-2014 20:50:00 4.7 C 94 % 3.82 C
820 15-01-2014 20:55:00 4.7 C 94 % 3.82 C
821 15-01-2014 21:00:00 4.7 C 94 % 3.82 C
822 15-01-2014 21:05:00 4.7 C 94 % 3.82 C
823 15-01-2014 21:10:00 4.7 C 94 % 3.82 C
824 15-01-2014 21:15:00 4.7 C 94 % 3.82 C
825 15-01-2014 21:20:00 4.7 C 95 % 3.97 C
Sensor: Nr:Datum:Temp:Feuchte:Taupunkt:
Aussen-T/F 826 15-01-2014 21:25:00 4.7 C 95 % 3.97 C
827 15-01-2014 21:30:00 4.6 C 95 % 3.87 C
828 15-01-2014 21:35:00 4.6 C 95 % 3.87 C
829 15-01-2014 21:40:00 4.6 C 95 % 3.87 C
830 15-01-2014 21:45:00 4.6 C 95 % 3.87 C
831 15-01-2014 21:50:00 4.6 C 95 % 3.87 C
832 15-01-2014 21:55:00 4.6 C 96 % 4.02 C
833 15-01-2014 22:00:00 4.5 C 96 % 3.92 C
834 15-01-2014 22:05:00 4.5 C 96 % 3.92 C
835 15-01-2014 22:10:00 4.5 C 96 % 3.92 C
836 15-01-2014 22:15:00 4.5 C 96 % 3.92 C
837 15-01-2014 22:20:00 4.5 C 96 % 3.92 C
838 15-01-2014 22:25:00 4.5 C 96 % 3.92 C
839 15-01-2014 22:30:00 4.5 C 96 % 3.92 C
840 15-01-2014 22:35:00 4.4 C 96 % 3.82 C
841 15-01-2014 22:40:00 4.4 C 96 % 3.82 C
842 15-01-2014 22:45:00 4.4 C 96 % 3.82 C
843 15-01-2014 22:50:00 4.4 C 96 % 3.82 C
844 15-01-2014 22:55:00 4.4 C 96 % 3.82 C
845 15-01-2014 23:00:00 4.5 C 97 % 4.07 C
846 15-01-2014 23:05:00 4.4 C 97 % 3.97 C
847 15-01-2014 23:10:00 4.4 C 97 % 3.97 C
848 15-01-2014 23:15:00 4.4 C 97 % 3.97 C
849 15-01-2014 23:20:00 4.4 C 97 % 3.97 C
850 15-01-2014 23:25:00 4.4 C 97 % 3.97 C
Sensor: Nr:Datum:Temp:Feuchte:Taupunkt:
Aussen-T/F 851 15-01-2014 23:30:00 4.5 C 97 % 4.07 C
852 15-01-2014 23:35:00 4.5 C 97 % 4.07 C
853 15-01-2014 23:40:00 4.5 C 97 % 4.07 C
854 15-01-2014 23:45:00 4.5 C 97 % 4.07 C
855 15-01-2014 23:50:00 4.5 C 97 % 4.07 C
856 15-01-2014 23:55:00 4.5 C 97 % 4.07 C
857 16-01-2014 00:00:00 4.5 C 97 % 4.07 C
858 16-01-2014 00:05:00 4.5 C 97 % 4.07 C
859 16-01-2014 00:10:00 4.5 C 97 % 4.07 C
860 16-01-2014 00:15:00 4.5 C 97 % 4.07 C
861 16-01-2014 00:20:00 4.5 C 97 % 4.07 C
862 16-01-2014 00:25:00 4.5 C 97 % 4.07 C
863 16-01-2014 00:30:00 4.5 C 97 % 4.07 C
864 16-01-2014 00:35:00 4.5 C 97 % 4.07 C
865 16-01-2014 00:40:00 4.5 C 97 % 4.07 C
866 16-01-2014 00:45:00 4.5 C 97 % 4.07 C
867 16-01-2014 00:50:00 4.5 C 97 % 4.07 C
868 16-01-2014 00:55:00 4.5 C 97 % 4.07 C
869 16-01-2014 01:00:00 4.5 C 97 % 4.07 C
870 16-01-2014 01:05:00 4.5 C 97 % 4.07 C
871 16-01-2014 01:10:00 4.6 C 97 % 4.17 C
872 16-01-2014 01:15:00 4.6 C 97 % 4.17 C
873 16-01-2014 01:20:00 4.6 C 97 % 4.17 C
874 16-01-2014 01:25:00 4.6 C 97 % 4.17 C
875 16-01-2014 01:30:00 4.7 C 97 % 4.27 C
Sensor: Nr:Datum:Temp:Feuchte:Taupunkt:
Aussen-T/F 876 16-01-2014 01:35:00 4.7 C 97 % 4.27 C
877 16-01-2014 01:40:00 4.7 C 97 % 4.27 C
878 16-01-2014 01:45:00 4.7 C 97 % 4.27 C
879 16-01-2014 01:50:00 4.8 C 97 % 4.37 C
880 16-01-2014 01:55:00 4.8 C 97 % 4.37 C
881 16-01-2014 02:00:00 4.8 C 97 % 4.37 C
882 16-01-2014 02:05:00 4.8 C 97 % 4.37 C
883 16-01-2014 02:10:00 4.8 C 97 % 4.37 C
884 16-01-2014 02:15:00 4.8 C 97 % 4.37 C
885 16-01-2014 02:20:00 4.9 C 97 % 4.46 C
886 16-01-2014 02:25:00 4.9 C 97 % 4.46 C
887 16-01-2014 02:30:00 4.9 C 97 % 4.46 C
888 16-01-2014 02:35:00 4.9 C 97 % 4.46 C
889 16-01-2014 02:40:00 4.9 C 97 % 4.46 C
890 16-01-2014 02:45:00 5 C 97 % 4.56 C
891 16-01-2014 02:50:00 5 C 97 % 4.56 C
892 16-01-2014 02:55:00 5.1 C 98 % 4.81 C
893 16-01-2014 03:00:00 5.1 C 98 % 4.81 C
894 16-01-2014 03:05:00 5.1 C 98 % 4.81 C
895 16-01-2014 03:10:00 5.1 C 98 % 4.81 C
896 16-01-2014 03:15:00 5.1 C 98 % 4.81 C
897 16-01-2014 03:20:00 5.1 C 98 % 4.81 C
898 16-01-2014 03:25:00 5.1 C 98 % 4.81 C
899 16-01-2014 03:30:00 5.1 C 98 % 4.81 C
900 16-01-2014 03:35:00 5.1 C 98 % 4.81 C
Sensor: Nr:Datum:Temp:Feuchte:Taupunkt:
Aussen-T/F 901 16-01-2014 03:40:00 5.1 C 98 % 4.81 C
902 16-01-2014 03:45:00 5.1 C 98 % 4.81 C
903 16-01-2014 03:50:00 5.2 C 98 % 4.91 C
904 16-01-2014 03:55:00 5.2 C 98 % 4.91 C
905 16-01-2014 04:00:00 5.2 C 98 % 4.91 C
906 16-01-2014 04:05:00 5.2 C 98 % 4.91 C
907 16-01-2014 04:10:00 5.3 C 98 % 5.01 C
908 16-01-2014 04:15:00 5.3 C 98 % 5.01 C
909 16-01-2014 04:20:00 5.3 C 98 % 5.01 C
910 16-01-2014 04:25:00 5.3 C 98 % 5.01 C
911 16-01-2014 04:30:00 5.2 C 98 % 4.91 C
912 16-01-2014 04:35:00 5.3 C 98 % 5.01 C
913 16-01-2014 04:40:00 5.3 C 98 % 5.01 C
914 16-01-2014 04:45:00 5.3 C 98 % 5.01 C
915 16-01-2014 04:50:00 5.3 C 98 % 5.01 C
916 16-01-2014 04:55:00 5.3 C 98 % 5.01 C
917 16-01-2014 05:00:00 5.3 C 98 % 5.01 C
918 16-01-2014 05:05:00 5.4 C 98 % 5.11 C
919 16-01-2014 05:10:00 5.4 C 98 % 5.11 C
920 16-01-2014 05:15:00 5.4 C 98 % 5.11 C
921 16-01-2014 05:20:00 5.4 C 98 % 5.11 C
922 16-01-2014 05:25:00 5.4 C 98 % 5.11 C
923 16-01-2014 05:30:00 5.4 C 98 % 5.11 C
924 16-01-2014 05:35:00 5.4 C 98 % 5.11 C
925 16-01-2014 05:40:00 5.4 C 98 % 5.11 C
Sensor: Nr:Datum:Temp:Feuchte:Taupunkt:
Aussen-T/F 926 16-01-2014 05:45:00 5.4 C 98 % 5.11 C
927 16-01-2014 05:50:00 5.4 C 98 % 5.11 C
928 16-01-2014 05:55:00 5.5 C 98 % 5.21 C
929 16-01-2014 06:00:00 5.5 C 98 % 5.21 C
930 16-01-2014 06:05:00 5.5 C 98 % 5.21 C
931 16-01-2014 06:10:00 5.5 C 98 % 5.21 C
932 16-01-2014 06:15:00 5.5 C 98 % 5.21 C
933 16-01-2014 06:20:00 5.5 C 98 % 5.21 C
934 16-01-2014 06:25:00 5.5 C 98 % 5.21 C
935 16-01-2014 06:30:00 5.5 C 98 % 5.21 C
936 16-01-2014 06:35:00 5.6 C 98 % 5.31 C
937 16-01-2014 06:40:00 5.6 C 98 % 5.31 C
938 16-01-2014 06:45:00 5.6 C 98 % 5.31 C
939 16-01-2014 06:50:00 5.6 C 98 % 5.31 C
940 16-01-2014 06:55:00 5.6 C 98 % 5.31 C
941 16-01-2014 07:00:00 5.6 C 98 % 5.31 C
942 16-01-2014 07:05:00 5.6 C 98 % 5.31 C
943 16-01-2014 07:10:00 5.6 C 98 % 5.31 C
944 16-01-2014 07:15:00 5.6 C 98 % 5.31 C
945 16-01-2014 07:20:00 5.6 C 98 % 5.31 C
946 16-01-2014 07:25:00 5.6 C 98 % 5.31 C
947 16-01-2014 07:30:00 5.7 C 98 % 5.41 C
948 16-01-2014 07:35:00 5.7 C 98 % 5.41 C
949 16-01-2014 07:40:00 5.7 C 98 % 5.41 C
950 16-01-2014 07:45:00 5.7 C 98 % 5.41 C
Sensor: Nr:Datum:Temp:Feuchte:Taupunkt:
Aussen-T/F 951 16-01-2014 07:50:00 5.6 C 98 % 5.31 C
952 16-01-2014 07:55:00 5.7 C 98 % 5.41 C
953 16-01-2014 08:00:00 5.6 C 98 % 5.31 C
954 16-01-2014 08:05:00 5.6 C 98 % 5.31 C
955 16-01-2014 08:10:00 5.5 C 98 % 5.21 C
956 16-01-2014 08:15:00 5.4 C 98 % 5.11 C
957 16-01-2014 08:20:00 5.4 C 98 % 5.11 C
958 16-01-2014 08:25:00 5.4 C 98 % 5.11 C
959 16-01-2014 08:30:00 5.4 C 98 % 5.11 C
960 16-01-2014 08:35:00 5.4 C 98 % 5.11 C
961 16-01-2014 08:40:00 5.4 C 98 % 5.11 C
962 16-01-2014 08:45:00 5.4 C 98 % 5.11 C
963 16-01-2014 08:50:00 5.4 C 98 % 5.11 C
964 16-01-2014 08:55:00 5.4 C 98 % 5.11 C
965 16-01-2014 09:00:00 5.4 C 98 % 5.11 C
966 16-01-2014 09:05:00 5.4 C 98 % 5.11 C
967 16-01-2014 09:10:00 5.6 C 98 % 5.31 C
968 16-01-2014 09:15:00 5.6 C 98 % 5.31 C
969 16-01-2014 09:20:00 5.6 C 98 % 5.31 C
970 16-01-2014 09:25:00 5.6 C 98 % 5.31 C
971 16-01-2014 09:30:00 5.6 C 98 % 5.31 C
972 16-01-2014 09:35:00 5.6 C 98 % 5.31 C
973 16-01-2014 09:40:00 5.7 C 98 % 5.41 C
974 16-01-2014 09:45:00 5.8 C 98 % 5.51 C
975 16-01-2014 09:50:00 5.8 C 98 % 5.51 C
Sensor: Nr:Datum:Temp:Feuchte:Taupunkt:
Aussen-T/F 976 16-01-2014 09:55:00 5.9 C 98 % 5.61 C
977 16-01-2014 10:00:00 5.9 C 98 % 5.61 C
978 16-01-2014 10:05:00 5.9 C 98 % 5.61 C
979 16-01-2014 10:10:00 6.1 C 98 % 5.81 C
980 16-01-2014 10:15:00 6.1 C 98 % 5.81 C
981 16-01-2014 10:20:00 6.1 C 98 % 5.81 C
982 16-01-2014 10:25:00 6.1 C 98 % 5.81 C
983 16-01-2014 10:30:00 6.1 C 98 % 5.81 C
984 16-01-2014 10:35:00 6.2 C 98 % 5.91 C
985 16-01-2014 10:40:00 6.2 C 98 % 5.91 C
986 16-01-2014 10:45:00 6.2 C 98 % 5.91 C
987 16-01-2014 10:50:00 6.2 C 98 % 5.91 C
988 16-01-2014 10:55:00 6.2 C 97 % 5.76 C
989 16-01-2014 11:00:00 6.2 C 97 % 5.76 C
990 16-01-2014 11:05:00 6.2 C 97 % 5.76 C
991 16-01-2014 11:10:00 6.2 C 97 % 5.76 C
992 16-01-2014 11:15:00 6.2 C 97 % 5.76 C
993 16-01-2014 11:20:00 6.2 C 97 % 5.76 C
994 16-01-2014 11:25:00 6.2 C 96 % 5.61 C
995 16-01-2014 11:30:00 6.4 C 95 % 5.66 C
996 16-01-2014 11:35:00 6.6 C 94 % 5.71 C
997 16-01-2014 11:40:00 6.7 C 94 % 5.8 C
998 16-01-2014 11:45:00 6.8 C 92 % 5.59 C
999 16-01-2014 11:50:00 6.9 C 94 % 6 C
1000 16-01-2014 11:55:00 7 C 93 % 5.95 C
Sensor: Nr:Datum:Temp:Feuchte:Taupunkt:
Aussen-T/F 1001 16-01-2014 12:00:00 7.1 C 94 % 6.2 C
1002 16-01-2014 12:05:00 7.2 C 94 % 6.3 C
1003 16-01-2014 12:10:00 7.3 C 95 % 6.55 C
1004 16-01-2014 12:15:00 7.3 C 94 % 6.4 C
1005 16-01-2014 12:20:00 7.3 C 92 % 6.09 C
1006 16-01-2014 12:25:00 7.4 C 93 % 6.34 C
1007 16-01-2014 12:30:00 7.6 C 92 % 6.39 C
1008 16-01-2014 12:35:00 7.7 C 90 % 6.17 C
1009 16-01-2014 12:40:00 7.8 C 89 % 6.1 C
1010 16-01-2014 12:45:00 7.9 C 89 % 6.2 C
1011 16-01-2014 12:50:00 8 C 90 % 6.46 C
1012 16-01-2014 12:55:00 8 C 88 % 6.14 C
1013 16-01-2014 13:00:00 8.1 C 89 % 6.4 C
1014 16-01-2014 13:05:00 8.2 C 90 % 6.66 C
1015 16-01-2014 13:10:00 8.2 C 89 % 6.5 C
1016 16-01-2014 13:15:00 8.2 C 88 % 6.33 C
1017 16-01-2014 13:20:00 8.2 C 84 % 5.66 C
1018 16-01-2014 13:25:00 8.3 C 86 % 6.1 C
1019 16-01-2014 13:30:00 8.3 C 86 % 6.1 C
1020 16-01-2014 13:35:00 8.4 C 86 % 6.2 C
1021 16-01-2014 13:40:00 8.4 C 84 % 5.86 C
1022 16-01-2014 13:45:00 8.4 C 84 % 5.86 C
1023 16-01-2014 13:50:00 8.5 C 84 % 5.96 C
1024 16-01-2014 13:55:00 8.6 C 86 % 6.39 C
1025 16-01-2014 14:00:00 8.5 C 88 % 6.63 C
Sensor: Nr:Datum:Temp:Feuchte:Taupunkt:
Aussen-T/F 1026 16-01-2014 14:05:00 8.4 C 88 % 6.53 C
1027 16-01-2014 14:10:00 8.3 C 88 % 6.43 C
1028 16-01-2014 14:15:00 8.3 C 89 % 6.6 C
1029 16-01-2014 14:20:00 8.2 C 87 % 6.17 C
1030 16-01-2014 14:25:00 8.1 C 89 % 6.4 C
1031 16-01-2014 14:30:00 8 C 89 % 6.3 C
1032 16-01-2014 14:35:00 7.9 C 90 % 6.36 C
1033 16-01-2014 14:40:00 7.8 C 90 % 6.27 C
1034 16-01-2014 14:45:00 7.8 C 91 % 6.43 C
1035 16-01-2014 14:50:00 7.8 C 91 % 6.43 C
1036 16-01-2014 14:55:00 7.8 C 91 % 6.43 C
1037 16-01-2014 15:00:00 7.7 C 88 % 5.84 C
1038 16-01-2014 15:05:00 7.7 C 89 % 6 C
1039 16-01-2014 15:10:00 7.8 C 89 % 6.1 C
1040 16-01-2014 15:15:00 7.8 C 89 % 6.1 C
1041 16-01-2014 15:20:00 7.8 C 89 % 6.1 C
1042 16-01-2014 15:25:00 7.8 C 88 % 5.94 C
1043 16-01-2014 15:30:00 8 C 89 % 6.3 C
1044 16-01-2014 15:35:00 8.1 C 88 % 6.24 C
1045 16-01-2014 15:40:00 8.1 C 89 % 6.4 C
1046 16-01-2014 15:45:00 8.1 C 86 % 5.9 C
1047 16-01-2014 15:50:00 8.2 C 86 % 6 C
1048 16-01-2014 15:55:00 8.2 C 86 % 6 C
1049 16-01-2014 16:00:00 8.2 C 88 % 6.33 C
1050 16-01-2014 16:05:00 8.2 C 86 % 6 C
Sensor: Nr:Datum:Temp:Feuchte:Taupunkt:
Aussen-T/F 1051 16-01-2014 16:10:00 8.2 C 86 % 6 C
1052 16-01-2014 16:15:00 8.3 C 86 % 6.1 C
1053 16-01-2014 16:20:00 8.3 C 85 % 5.93 C
1054 16-01-2014 16:25:00 8.4 C 85 % 6.03 C
1055 16-01-2014 16:30:00 8.5 C 84 % 5.96 C
1056 16-01-2014 16:35:00 8.6 C 84 % 6.05 C
1057 16-01-2014 16:40:00 8.6 C 84 % 6.05 C
1058 16-01-2014 16:45:00 8.6 C 84 % 6.05 C
1059 16-01-2014 16:50:00 8.4 C 85 % 6.03 C
1060 16-01-2014 16:55:00 8.3 C 87 % 6.27 C
1061 16-01-2014 17:00:00 8.2 C 86 % 6 C
1062 16-01-2014 17:05:00 8.3 C 85 % 5.93 C
1063 16-01-2014 17:10:00 8.3 C 86 % 6.1 C
1064 16-01-2014 17:15:00 8.3 C 85 % 5.93 C
1065 16-01-2014 17:20:00 8.3 C 87 % 6.27 C
1066 16-01-2014 17:25:00 8.2 C 86 % 6 C
1067 16-01-2014 17:30:00 8.1 C 88 % 6.24 C
1068 16-01-2014 17:35:00 8.2 C 88 % 6.33 C
1069 16-01-2014 17:40:00 8.1 C 87 % 6.07 C
1070 16-01-2014 17:45:00 8.1 C 88 % 6.24 C
1071 16-01-2014 17:50:00 8.1 C 89 % 6.4 C
1072 16-01-2014 17:55:00 8.1 C 88 % 6.24 C
1073 16-01-2014 18:00:00 7.9 C 88 % 6.04 C
1074 16-01-2014 18:05:00 7.8 C 89 % 6.1 C
1075 16-01-2014 18:10:00 7.9 C 89 % 6.2 C
Sensor: Nr:Datum:Temp:Feuchte:Taupunkt:
Aussen-T/F 1076 16-01-2014 18:15:00 7.8 C 89 % 6.1 C
1077 16-01-2014 18:20:00 7.9 C 89 % 6.2 C
1078 16-01-2014 18:25:00 7.9 C 89 % 6.2 C
1079 16-01-2014 18:30:00 8 C 88 % 6.14 C
1080 16-01-2014 18:35:00 8 C 88 % 6.14 C
1081 16-01-2014 18:40:00 8.3 C 87 % 6.27 C
1082 16-01-2014 18:45:00 8.5 C 86 % 6.3 C
1083 16-01-2014 18:50:00 8.6 C 85 % 6.23 C
1084 16-01-2014 18:55:00 8.7 C 85 % 6.32 C
1085 16-01-2014 19:00:00 8.7 C 84 % 6.15 C
1086 16-01-2014 19:05:00 8.7 C 85 % 6.32 C
1087 16-01-2014 19:10:00 8.8 C 84 % 6.25 C
1088 16-01-2014 19:15:00 8.7 C 85 % 6.32 C
1089 16-01-2014 19:20:00 8.7 C 85 % 6.32 C
1090 16-01-2014 19:25:00 8.7 C 85 % 6.32 C
1091 16-01-2014 19:30:00 8.7 C 85 % 6.32 C
1092 16-01-2014 19:35:00 8.7 C 85 % 6.32 C
1093 16-01-2014 19:40:00 8.7 C 85 % 6.32 C
1094 16-01-2014 19:45:00 8.7 C 85 % 6.32 C
1095 16-01-2014 19:50:00 8.7 C 86 % 6.49 C
1096 16-01-2014 19:55:00 8.6 C 86 % 6.39 C
1097 16-01-2014 20:00:00 8.5 C 86 % 6.3 C
1098 16-01-2014 20:05:00 8.3 C 87 % 6.27 C
1099 16-01-2014 20:10:00 7.9 C 87 % 5.87 C
1100 16-01-2014 20:15:00 7.8 C 89 % 6.1 C
Sensor: Nr:Datum:Temp:Feuchte:Taupunkt:
Aussen-T/F 1101 16-01-2014 20:20:00 7.7 C 89 % 6 C
1102 16-01-2014 20:25:00 7.4 C 90 % 5.87 C
1103 16-01-2014 20:30:00 7.3 C 91 % 5.93 C
1104 16-01-2014 20:35:00 7.2 C 91 % 5.83 C
1105 16-01-2014 20:40:00 7.1 C 92 % 5.89 C
1106 16-01-2014 20:45:00 7.1 C 92 % 5.89 C
1107 16-01-2014 20:50:00 7.1 C 93 % 6.05 C
1108 16-01-2014 20:55:00 7.1 C 93 % 6.05 C
1109 16-01-2014 21:00:00 7.2 C 93 % 6.15 C
1110 16-01-2014 21:05:00 7.2 C 92 % 5.99 C
1111 16-01-2014 21:10:00 7.1 C 92 % 5.89 C
1112 16-01-2014 21:15:00 7.1 C 92 % 5.89 C
1113 16-01-2014 21:20:00 6.9 C 92 % 5.69 C
1114 16-01-2014 21:25:00 7 C 93 % 5.95 C
1115 16-01-2014 21:30:00 7 C 93 % 5.95 C
1116 16-01-2014 21:35:00 7 C 93 % 5.95 C
1117 16-01-2014 21:40:00 7 C 93 % 5.95 C
1118 16-01-2014 21:45:00 6.9 C 93 % 5.85 C
1119 16-01-2014 21:50:00 6.9 C 93 % 5.85 C
1120 16-01-2014 21:55:00 6.9 C 93 % 5.85 C
1121 16-01-2014 22:00:00 6.9 C 93 % 5.85 C
1122 16-01-2014 22:05:00 6.9 C 93 % 5.85 C
1123 16-01-2014 22:10:00 6.9 C 93 % 5.85 C
1124 16-01-2014 22:15:00 6.9 C 94 % 6 C
1125 16-01-2014 22:20:00 6.9 C 93 % 5.85 C
Sensor: Nr:Datum:Temp:Feuchte:Taupunkt:
Aussen-T/F 1126 16-01-2014 22:25:00 6.9 C 93 % 5.85 C
1127 16-01-2014 22:30:00 6.8 C 93 % 5.75 C
1128 16-01-2014 22:35:00 6.7 C 93 % 5.65 C
1129 16-01-2014 22:40:00 6.7 C 93 % 5.65 C
1130 16-01-2014 22:45:00 6.7 C 93 % 5.65 C
1131 16-01-2014 22:50:00 6.6 C 93 % 5.55 C
1132 16-01-2014 22:55:00 6.6 C 92 % 5.4 C
1133 16-01-2014 23:00:00 6.4 C 92 % 5.2 C
1134 16-01-2014 23:05:00 6.3 C 92 % 5.1 C
1135 16-01-2014 23:10:00 6.1 C 93 % 5.06 C
1136 16-01-2014 23:15:00 5.8 C 92 % 4.6 C
1137 16-01-2014 23:20:00 5.7 C 93 % 4.66 C
1138 16-01-2014 23:25:00 5.6 C 94 % 4.71 C
1139 16-01-2014 23:30:00 5.4 C 94 % 4.51 C
1140 16-01-2014 23:35:00 5.3 C 94 % 4.41 C
1141 16-01-2014 23:40:00 5.3 C 94 % 4.41 C
1142 16-01-2014 23:45:00 5.2 C 95 % 4.47 C
1143 16-01-2014 23:50:00 5.1 C 94 % 4.22 C
1144 16-01-2014 23:55:00 5.1 C 95 % 4.37 C
1145 17-01-2014 00:00:00 5.1 C 95 % 4.37 C
1146 17-01-2014 00:05:00 5.1 C 95 % 4.37 C
1147 17-01-2014 00:10:00 5.2 C 95 % 4.47 C
1148 17-01-2014 00:15:00 5.3 C 96 % 4.72 C
1149 17-01-2014 00:20:00 5.4 C 96 % 4.81 C
1150 17-01-2014 00:25:00 5.7 C 96 % 5.11 C
Sensor: Nr:Datum:Temp:Feuchte:Taupunkt:
Aussen-T/F 1151 17-01-2014 00:30:00 5.8 C 96 % 5.21 C
1152 17-01-2014 00:35:00 6.1 C 96 % 5.51 C
1153 17-01-2014 00:40:00 6.3 C 95 % 5.56 C
1154 17-01-2014 00:45:00 6.4 C 94 % 5.51 C
1155 17-01-2014 00:50:00 6.4 C 94 % 5.51 C
1156 17-01-2014 00:55:00 6.4 C 94 % 5.51 C
1157 17-01-2014 01:00:00 6.4 C 94 % 5.51 C
1158 17-01-2014 01:05:00 6.4 C 94 % 5.51 C
1159 17-01-2014 01:10:00 6.4 C 94 % 5.51 C
1160 17-01-2014 01:15:00 6.4 C 94 % 5.51 C
1161 17-01-2014 01:20:00 6.6 C 94 % 5.71 C
1162 17-01-2014 01:25:00 6.6 C 93 % 5.55 C
1163 17-01-2014 01:30:00 6.7 C 93 % 5.65 C
1164 17-01-2014 01:35:00 6.7 C 93 % 5.65 C
1165 17-01-2014 01:40:00 6.7 C 93 % 5.65 C
1166 17-01-2014 01:45:00 6.7 C 93 % 5.65 C
1167 17-01-2014 01:50:00 6.7 C 93 % 5.65 C
1168 17-01-2014 01:55:00 6.8 C 93 % 5.75 C
1169 17-01-2014 02:00:00 6.8 C 92 % 5.59 C
1170 17-01-2014 02:05:00 6.9 C 92 % 5.69 C
1171 17-01-2014 02:10:00 6.9 C 92 % 5.69 C
1172 17-01-2014 02:15:00 6.9 C 92 % 5.69 C
1173 17-01-2014 02:20:00 6.9 C 92 % 5.69 C
1174 17-01-2014 02:25:00 6.9 C 92 % 5.69 C
1175 17-01-2014 02:30:00 6.9 C 92 % 5.69 C
Sensor: Nr:Datum:Temp:Feuchte:Taupunkt:
Aussen-T/F 1176 17-01-2014 02:35:00 6.9 C 92 % 5.69 C
1177 17-01-2014 02:40:00 6.9 C 93 % 5.85 C
1178 17-01-2014 02:45:00 6.9 C 93 % 5.85 C
1179 17-01-2014 02:50:00 6.8 C 93 % 5.75 C
1180 17-01-2014 02:55:00 6.8 C 93 % 5.75 C
1181 17-01-2014 03:00:00 6.8 C 93 % 5.75 C
1182 17-01-2014 03:05:00 6.8 C 94 % 5.9 C
1183 17-01-2014 03:10:00 6.8 C 94 % 5.9 C
1184 17-01-2014 03:15:00 6.8 C 94 % 5.9 C
1185 17-01-2014 03:20:00 6.8 C 94 % 5.9 C
1186 17-01-2014 03:25:00 6.8 C 94 % 5.9 C
1187 17-01-2014 03:30:00 6.8 C 94 % 5.9 C
1188 17-01-2014 03:35:00 6.8 C 95 % 6.06 C
1189 17-01-2014 03:40:00 6.8 C 95 % 6.06 C
1190 17-01-2014 03:45:00 6.8 C 95 % 6.06 C
1191 17-01-2014 03:50:00 6.8 C 95 % 6.06 C
1192 17-01-2014 03:55:00 6.8 C 96 % 6.21 C
1193 17-01-2014 04:00:00 6.8 C 96 % 6.21 C
1194 17-01-2014 04:05:00 6.8 C 96 % 6.21 C
1195 17-01-2014 04:10:00 6.8 C 96 % 6.21 C
1196 17-01-2014 04:15:00 6.7 C 96 % 6.11 C
1197 17-01-2014 04:20:00 6.7 C 96 % 6.11 C
1198 17-01-2014 04:25:00 6.7 C 96 % 6.11 C
1199 17-01-2014 04:30:00 6.7 C 96 % 6.11 C
1200 17-01-2014 04:35:00 6.7 C 96 % 6.11 C
Sensor: Nr:Datum:Temp:Feuchte:Taupunkt:
Aussen-T/F 1201 17-01-2014 04:40:00 6.7 C 97 % 6.26 C
1202 17-01-2014 04:45:00 6.7 C 97 % 6.26 C
1203 17-01-2014 04:50:00 6.7 C 97 % 6.26 C
1204 17-01-2014 04:55:00 6.7 C 96 % 6.11 C
1205 17-01-2014 05:00:00 6.7 C 96 % 6.11 C
1206 17-01-2014 05:05:00 6.7 C 97 % 6.26 C
1207 17-01-2014 05:10:00 6.7 C 97 % 6.26 C
1208 17-01-2014 05:15:00 6.7 C 97 % 6.26 C
1209 17-01-2014 05:20:00 6.7 C 97 % 6.26 C
1210 17-01-2014 05:25:00 6.6 C 97 % 6.16 C
1211 17-01-2014 05:30:00 6.4 C 97 % 5.96 C
1212 17-01-2014 05:35:00 6.3 C 97 % 5.86 C
1213 17-01-2014 05:40:00 6.3 C 97 % 5.86 C
1214 17-01-2014 05:45:00 6.3 C 97 % 5.86 C
1215 17-01-2014 05:50:00 6.4 C 97 % 5.96 C
1216 17-01-2014 05:55:00 6.4 C 97 % 5.96 C
1217 17-01-2014 06:00:00 6.4 C 97 % 5.96 C
1218 17-01-2014 06:05:00 6.4 C 97 % 5.96 C
1219 17-01-2014 06:10:00 6.4 C 97 % 5.96 C
1220 17-01-2014 06:15:00 6.4 C 97 % 5.96 C
1221 17-01-2014 06:20:00 6.5 C 97 % 6.06 C
1222 17-01-2014 06:25:00 6.5 C 97 % 6.06 C
1223 17-01-2014 06:30:00 6.4 C 97 % 5.96 C
1224 17-01-2014 06:35:00 6.4 C 97 % 5.96 C
1225 17-01-2014 06:40:00 6.4 C 97 % 5.96 C
Sensor: Nr:Datum:Temp:Feuchte:Taupunkt:
Aussen-T/F 1226 17-01-2014 06:45:00 6.4 C 97 % 5.96 C
1227 17-01-2014 06:50:00 6.4 C 97 % 5.96 C
1228 17-01-2014 06:55:00 6.4 C 97 % 5.96 C
1229 17-01-2014 07:00:00 6.4 C 97 % 5.96 C
1230 17-01-2014 07:05:00 6.4 C 97 % 5.96 C
1231 17-01-2014 07:10:00 6.4 C 97 % 5.96 C
1232 17-01-2014 07:15:00 6.3 C 97 % 5.86 C
1233 17-01-2014 07:20:00 6.3 C 97 % 5.86 C
1234 17-01-2014 07:25:00 6.2 C 97 % 5.76 C
1235 17-01-2014 07:30:00 5.9 C 96 % 5.31 C
1236 17-01-2014 07:35:00 5.8 C 96 % 5.21 C
1237 17-01-2014 07:40:00 5.8 C 97 % 5.36 C
1238 17-01-2014 07:45:00 5.9 C 97 % 5.46 C
1239 17-01-2014 07:50:00 5.9 C 97 % 5.46 C
1240 17-01-2014 07:55:00 5.9 C 97 % 5.46 C
1241 17-01-2014 08:00:00 5.9 C 97 % 5.46 C
1242 17-01-2014 08:05:00 5.8 C 97 % 5.36 C
1243 17-01-2014 08:10:00 5.6 C 97 % 5.16 C
1244 17-01-2014 08:15:00 5.4 C 97 % 4.96 C
1245 17-01-2014 08:20:00 5.4 C 97 % 4.96 C
1246 17-01-2014 08:25:00 5.3 C 97 % 4.86 C
1247 17-01-2014 08:30:00 5.4 C 97 % 4.96 C
1248 17-01-2014 08:35:00 5.3 C 97 % 4.86 C
1249 17-01-2014 08:40:00 5.4 C 97 % 4.96 C
1250 17-01-2014 08:45:00 5.4 C 97 % 4.96 C
Sensor: Nr:Datum:Temp:Feuchte:Taupunkt:
Aussen-T/F 1251 17-01-2014 08:50:00 5.4 C 97 % 4.96 C
1252 17-01-2014 08:55:00 5.5 C 97 % 5.06 C
1253 17-01-2014 09:00:00 5.6 C 97 % 5.16 C
1254 17-01-2014 09:05:00 5.7 C 97 % 5.26 C
1255 17-01-2014 09:10:00 5.8 C 97 % 5.36 C
1256 17-01-2014 09:15:00 5.9 C 97 % 5.46 C
1257 17-01-2014 09:20:00 5.9 C 97 % 5.46 C
1258 17-01-2014 09:25:00 6.1 C 97 % 5.66 C
1259 17-01-2014 09:30:00 6.2 C 97 % 5.76 C
1260 17-01-2014 09:35:00 6.3 C 98 % 6.01 C
1261 17-01-2014 09:40:00 6.3 C 97 % 5.86 C
1262 17-01-2014 09:45:00 6.3 C 97 % 5.86 C
1263 17-01-2014 09:50:00 6.1 C 97 % 5.66 C
1264 17-01-2014 09:55:00 5.9 C 96 % 5.31 C
1265 17-01-2014 10:00:00 5.9 C 96 % 5.31 C
1266 17-01-2014 10:05:00 5.9 C 97 % 5.46 C
1267 17-01-2014 10:10:00 6.1 C 97 % 5.66 C
1268 17-01-2014 10:15:00 6.3 C 97 % 5.86 C
1269 17-01-2014 10:20:00 6.4 C 97 % 5.96 C
1270 17-01-2014 10:25:00 6.6 C 97 % 6.16 C
1271 17-01-2014 10:30:00 6.7 C 97 % 6.26 C
1272 17-01-2014 10:35:00 6.8 C 97 % 6.36 C
1273 17-01-2014 10:40:00 6.9 C 96 % 6.31 C
1274 17-01-2014 10:45:00 7.2 C 96 % 6.61 C
1275 17-01-2014 10:50:00 7.3 C 95 % 6.55 C
Sensor: Nr:Datum:Temp:Feuchte:Taupunkt:
Aussen-T/F 1276 17-01-2014 10:55:00 7.4 C 95 % 6.65 C
1277 17-01-2014 11:00:00 7.4 C 95 % 6.65 C
1278 17-01-2014 11:05:00 7.5 C 95 % 6.75 C
1279 17-01-2014 11:10:00 7.7 C 92 % 6.48 C
1280 17-01-2014 11:15:00 7.9 C 92 % 6.68 C
1281 17-01-2014 11:20:00 8.1 C 90 % 6.56 C
1282 17-01-2014 11:25:00 8.2 C 91 % 6.82 C
1283 17-01-2014 11:30:00 8.3 C 91 % 6.92 C
1284 17-01-2014 11:35:00 8.3 C 90 % 6.76 C
1285 17-01-2014 11:40:00 8.3 C 90 % 6.76 C
1286 17-01-2014 11:45:00 8.4 C 92 % 7.18 C
1287 17-01-2014 11:50:00 8.4 C 92 % 7.18 C
1288 17-01-2014 11:55:00 8.4 C 91 % 7.02 C
1289 17-01-2014 12:00:00 8.6 C 90 % 7.06 C
1290 17-01-2014 12:05:00 8.7 C 89 % 6.99 C
1291 17-01-2014 12:10:00 8.8 C 89 % 7.09 C
1292 17-01-2014 12:15:00 9 C 86 % 6.79 C
1293 17-01-2014 12:20:00 9.1 C 85 % 6.72 C
1294 17-01-2014 12:25:00 9.2 C 86 % 6.98 C
1295 17-01-2014 12:30:00 9.3 C 86 % 7.08 C
1296 17-01-2014 12:35:00 9.3 C 84 % 6.74 C
1297 17-01-2014 12:40:00 9.4 C 84 % 6.84 C
1298 17-01-2014 12:45:00 9.5 C 83 % 6.76 C
1299 17-01-2014 12:50:00 9.6 C 82 % 6.68 C
1300 17-01-2014 12:55:00 9.7 C 82 % 6.78 C
Sensor: Nr:Datum:Temp:Feuchte:Taupunkt:
Aussen-T/F 1301 17-01-2014 13:00:00 9.7 C 81 % 6.6 C
1302 17-01-2014 13:05:00 9.7 C 82 % 6.78 C
1303 17-01-2014 13:10:00 9.8 C 82 % 6.88 C
1304 17-01-2014 13:15:00 9.8 C 83 % 7.05 C
1305 17-01-2014 13:20:00 9.9 C 82 % 6.98 C
1306 17-01-2014 13:25:00 9.9 C 83 % 7.15 C
1307 17-01-2014 13:30:00 10 C 81 % 6.89 C
1308 17-01-2014 13:35:00 10 C 82 % 7.07 C
1309 17-01-2014 13:40:00 10.1 C 83 % 7.35 C
1310 17-01-2014 13:45:00 10.1 C 86 % 7.87 C
1311 17-01-2014 13:50:00 10.1 C 85 % 7.7 C
1312 17-01-2014 13:55:00 10.1 C 85 % 7.7 C
1313 17-01-2014 14:00:00 10.1 C 83 % 7.35 C
1314 17-01-2014 14:05:00 10.1 C 86 % 7.87 C
1315 17-01-2014 14:10:00 10.1 C 82 % 7.17 C
1316 17-01-2014 14:15:00 10.1 C 82 % 7.17 C
1317 17-01-2014 14:20:00 10.1 C 86 % 7.87 C
1318 17-01-2014 14:25:00 10.1 C 85 % 7.7 C
1319 17-01-2014 14:30:00 10.1 C 87 % 8.04 C
1320 17-01-2014 14:35:00 10 C 86 % 7.77 C
1321 17-01-2014 14:40:00 10 C 83 % 7.25 C
1322 17-01-2014 14:45:00 9.9 C 84 % 7.33 C
1323 17-01-2014 14:50:00 9.9 C 86 % 7.67 C
1324 17-01-2014 14:55:00 9.8 C 83 % 7.05 C
1325 17-01-2014 15:00:00 9.8 C 84 % 7.23 C
Sensor: Nr:Datum:Temp:Feuchte:Taupunkt:
Aussen-T/F 1326 17-01-2014 15:05:00 9.7 C 88 % 7.81 C
1327 17-01-2014 15:10:00 9.4 C 88 % 7.52 C
1328 17-01-2014 15:15:00 9.2 C 89 % 7.48 C
1329 17-01-2014 15:20:00 9.1 C 90 % 7.55 C
1330 17-01-2014 15:25:00 9.1 C 91 % 7.71 C
1331 17-01-2014 15:30:00 9.1 C 91 % 7.71 C
1332 17-01-2014 15:35:00 9.2 C 91 % 7.81 C
1333 17-01-2014 15:40:00 9.2 C 91 % 7.81 C
1334 17-01-2014 15:45:00 9.2 C 90 % 7.65 C
1335 17-01-2014 15:50:00 9.2 C 90 % 7.65 C
1336 17-01-2014 15:55:00 9.2 C 89 % 7.48 C
1337 17-01-2014 16:00:00 9.2 C 89 % 7.48 C
1338 17-01-2014 16:05:00 9 C 88 % 7.12 C
1339 17-01-2014 16:10:00 8.9 C 88 % 7.02 C
1340 17-01-2014 16:15:00 8.8 C 89 % 7.09 C
1341 17-01-2014 16:20:00 8.7 C 89 % 6.99 C
1342 17-01-2014 16:25:00 8.6 C 87 % 6.56 C
1343 17-01-2014 16:30:00 8.6 C 88 % 6.73 C
1344 17-01-2014 16:35:00 8.4 C 87 % 6.37 C
1345 17-01-2014 16:40:00 8.3 C 88 % 6.43 C
1346 17-01-2014 16:45:00 8.1 C 88 % 6.24 C
1347 17-01-2014 16:50:00 7.9 C 88 % 6.04 C
1348 17-01-2014 16:55:00 7.7 C 89 % 6 C
1349 17-01-2014 17:00:00 7.4 C 89 % 5.71 C
1350 17-01-2014 17:05:00 7.3 C 89 % 5.61 C
Sensor: Nr:Datum:Temp:Feuchte:Taupunkt:
Aussen-T/F 1351 17-01-2014 17:10:00 7.1 C 89 % 5.41 C
1352 17-01-2014 17:15:00 6.9 C 90 % 5.38 C
1353 17-01-2014 17:20:00 6.8 C 90 % 5.28 C
1354 17-01-2014 17:25:00 6.7 C 90 % 5.18 C
1355 17-01-2014 17:30:00 6.5 C 91 % 5.14 C
1356 17-01-2014 17:35:00 6.4 C 91 % 5.04 C
1357 17-01-2014 17:40:00 6.3 C 92 % 5.1 C
1358 17-01-2014 17:45:00 6.2 C 92 % 5 C
1359 17-01-2014 17:50:00 6.3 C 93 % 5.25 C
1360 17-01-2014 17:55:00 6.3 C 93 % 5.25 C
1361 17-01-2014 18:00:00 6.4 C 93 % 5.35 C
1362 17-01-2014 18:05:00 6.4 C 93 % 5.35 C
1363 17-01-2014 18:10:00 6.3 C 93 % 5.25 C
1364 17-01-2014 18:15:00 6.2 C 93 % 5.15 C
1365 17-01-2014 18:20:00 6.1 C 93 % 5.06 C
1366 17-01-2014 18:25:00 6 C 93 % 4.96 C
1367 17-01-2014 18:30:00 5.9 C 93 % 4.86 C
1368 17-01-2014 18:35:00 5.9 C 93 % 4.86 C
1369 17-01-2014 18:40:00 5.8 C 93 % 4.76 C
1370 17-01-2014 18:45:00 5.8 C 93 % 4.76 C
1371 17-01-2014 18:50:00 5.7 C 93 % 4.66 C
1372 17-01-2014 18:55:00 5.7 C 93 % 4.66 C
1373 17-01-2014 19:00:00 5.7 C 94 % 4.81 C
1374 17-01-2014 19:05:00 5.7 C 94 % 4.81 C
1375 17-01-2014 19:10:00 5.6 C 94 % 4.71 C
Sensor: Nr:Datum:Temp:Feuchte:Taupunkt:
Aussen-T/F 1376 17-01-2014 19:15:00 5.6 C 94 % 4.71 C
1377 17-01-2014 19:20:00 5.6 C 94 % 4.71 C
1378 17-01-2014 19:25:00 5.6 C 94 % 4.71 C
1379 17-01-2014 19:30:00 5.6 C 93 % 4.56 C
1380 17-01-2014 19:35:00 5.6 C 93 % 4.56 C
1381 17-01-2014 19:40:00 5.6 C 93 % 4.56 C
1382 17-01-2014 19:45:00 5.4 C 93 % 4.36 C
1383 17-01-2014 19:50:00 5.4 C 93 % 4.36 C
1384 17-01-2014 19:55:00 5.3 C 94 % 4.41 C
1385 17-01-2014 20:00:00 5.3 C 94 % 4.41 C
1386 17-01-2014 20:05:00 5.3 C 94 % 4.41 C
1387 17-01-2014 20:10:00 5.3 C 94 % 4.41 C
1388 17-01-2014 20:15:00 5.2 C 93 % 4.16 C
1389 17-01-2014 20:20:00 5.2 C 94 % 4.32 C
1390 17-01-2014 20:25:00 5.2 C 94 % 4.32 C
1391 17-01-2014 20:30:00 5.2 C 93 % 4.16 C
1392 17-01-2014 20:35:00 5.2 C 93 % 4.16 C
1393 17-01-2014 20:40:00 5.2 C 93 % 4.16 C
1394 17-01-2014 20:45:00 5.2 C 93 % 4.16 C
1395 17-01-2014 20:50:00 5.2 C 93 % 4.16 C
1396 17-01-2014 20:55:00 5.1 C 93 % 4.06 C
1397 17-01-2014 21:00:00 5 C 93 % 3.96 C
1398 17-01-2014 21:05:00 4.9 C 93 % 3.87 C
1399 17-01-2014 21:10:00 4.9 C 93 % 3.87 C
1400 17-01-2014 21:15:00 4.9 C 93 % 3.87 C
Sensor: Nr:Datum:Temp:Feuchte:Taupunkt:
Aussen-T/F 1401 17-01-2014 21:20:00 4.9 C 94 % 4.02 C
1402 17-01-2014 21:25:00 5 C 94 % 4.12 C
1403 17-01-2014 21:30:00 4.9 C 93 % 3.87 C
1404 17-01-2014 21:35:00 4.9 C 93 % 3.87 C
1405 17-01-2014 21:40:00 4.8 C 93 % 3.77 C
1406 17-01-2014 21:45:00 4.8 C 93 % 3.77 C
1407 17-01-2014 21:50:00 4.7 C 94 % 3.82 C
1408 17-01-2014 21:55:00 4.6 C 94 % 3.72 C
1409 17-01-2014 22:00:00 4.7 C 94 % 3.82 C
1410 17-01-2014 22:05:00 4.6 C 94 % 3.72 C
1411 17-01-2014 22:10:00 4.6 C 94 % 3.72 C
1412 17-01-2014 22:15:00 4.7 C 94 % 3.82 C
1413 17-01-2014 22:20:00 4.7 C 94 % 3.82 C
1414 17-01-2014 22:25:00 4.6 C 94 % 3.72 C
1415 17-01-2014 22:30:00 4.6 C 94 % 3.72 C
1416 17-01-2014 22:35:00 4.6 C 94 % 3.72 C
1417 17-01-2014 22:40:00 4.4 C 94 % 3.52 C
1418 17-01-2014 22:45:00 4.4 C 94 % 3.52 C
1419 17-01-2014 22:50:00 4.3 C 94 % 3.42 C
1420 17-01-2014 22:55:00 4.3 C 94 % 3.42 C
1421 17-01-2014 23:00:00 4.3 C 94 % 3.42 C
1422 17-01-2014 23:05:00 4.3 C 94 % 3.42 C
1423 17-01-2014 23:10:00 4.3 C 94 % 3.42 C
1424 17-01-2014 23:15:00 4.3 C 94 % 3.42 C
1425 17-01-2014 23:20:00 4.2 C 94 % 3.32 C
Sensor: Nr:Datum:Temp:Feuchte:Taupunkt:
Aussen-T/F 1426 17-01-2014 23:25:00 4.2 C 94 % 3.32 C
1427 17-01-2014 23:30:00 4.2 C 95 % 3.47 C
1428 17-01-2014 23:35:00 4.2 C 95 % 3.47 C
1429 17-01-2014 23:40:00 4.2 C 95 % 3.47 C
1430 17-01-2014 23:45:00 4.1 C 94 % 3.22 C
1431 17-01-2014 23:50:00 4.1 C 94 % 3.22 C
1432 17-01-2014 23:55:00 4 C 95 % 3.27 C
1433 18-01-2014 00:00:00 4 C 95 % 3.27 C
1434 18-01-2014 00:05:00 3.9 C 95 % 3.17 C
1435 18-01-2014 00:10:00 3.8 C 94 % 2.93 C
1436 18-01-2014 00:15:00 3.8 C 94 % 2.93 C
1437 18-01-2014 00:20:00 3.8 C 95 % 3.07 C
1438 18-01-2014 00:25:00 3.8 C 95 % 3.07 C
1439 18-01-2014 00:30:00 3.8 C 95 % 3.07 C
1440 18-01-2014 00:35:00 3.7 C 94 % 2.83 C
1441 18-01-2014 00:40:00 3.7 C 95 % 2.98 C
1442 18-01-2014 00:45:00 3.7 C 95 % 2.98 C
1443 18-01-2014 00:50:00 3.6 C 95 % 2.88 C
1444 18-01-2014 00:55:00 3.7 C 95 % 2.98 C
1445 18-01-2014 01:00:00 3.7 C 95 % 2.98 C
1446 18-01-2014 01:05:00 3.8 C 95 % 3.07 C
1447 18-01-2014 01:10:00 3.7 C 95 % 2.98 C
1448 18-01-2014 01:15:00 3.6 C 95 % 2.88 C
1449 18-01-2014 01:20:00 3.6 C 95 % 2.88 C
1450 18-01-2014 01:25:00 3.6 C 95 % 2.88 C
Sensor: Nr:Datum:Temp:Feuchte:Taupunkt:
Aussen-T/F 1451 18-01-2014 01:30:00 3.5 C 95 % 2.78 C
1452 18-01-2014 01:35:00 3.4 C 95 % 2.68 C
1453 18-01-2014 01:40:00 3.4 C 95 % 2.68 C
1454 18-01-2014 01:45:00 3.4 C 95 % 2.68 C
1455 18-01-2014 01:50:00 3.3 C 95 % 2.58 C
1456 18-01-2014 01:55:00 3.3 C 95 % 2.58 C
1457 18-01-2014 02:00:00 3.3 C 95 % 2.58 C
1458 18-01-2014 02:05:00 3.3 C 95 % 2.58 C
1459 18-01-2014 02:10:00 3.2 C 95 % 2.48 C
1460 18-01-2014 02:15:00 3.1 C 95 % 2.38 C
1461 18-01-2014 02:20:00 3.1 C 95 % 2.38 C
1462 18-01-2014 02:25:00 3 C 95 % 2.28 C
1463 18-01-2014 02:30:00 3 C 95 % 2.28 C
1464 18-01-2014 02:35:00 2.9 C 95 % 2.18 C
1465 18-01-2014 02:40:00 2.9 C 95 % 2.18 C
1466 18-01-2014 02:45:00 2.8 C 95 % 2.08 C
1467 18-01-2014 02:50:00 2.8 C 95 % 2.08 C
1468 18-01-2014 02:55:00 2.7 C 95 % 1.98 C
1469 18-01-2014 03:00:00 2.7 C 95 % 1.98 C
1470 18-01-2014 03:05:00 2.7 C 96 % 2.13 C
1471 18-01-2014 03:10:00 2.7 C 96 % 2.13 C
1472 18-01-2014 03:15:00 2.7 C 96 % 2.13 C
1473 18-01-2014 03:20:00 2.8 C 96 % 2.23 C
1474 18-01-2014 03:25:00 2.8 C 96 % 2.23 C
1475 18-01-2014 03:30:00 2.9 C 96 % 2.33 C
Sensor: Nr:Datum:Temp:Feuchte:Taupunkt:
Aussen-T/F 1476 18-01-2014 03:35:00 2.9 C 96 % 2.33 C
1477 18-01-2014 03:40:00 2.9 C 96 % 2.33 C
1478 18-01-2014 03:45:00 3 C 96 % 2.43 C
1479 18-01-2014 03:50:00 2.9 C 96 % 2.33 C
1480 18-01-2014 03:55:00 2.9 C 96 % 2.33 C
1481 18-01-2014 04:00:00 2.8 C 96 % 2.23 C
1482 18-01-2014 04:05:00 2.8 C 96 % 2.23 C
1483 18-01-2014 04:10:00 2.8 C 96 % 2.23 C
1484 18-01-2014 04:15:00 2.7 C 96 % 2.13 C
1485 18-01-2014 04:20:00 2.7 C 96 % 2.13 C
1486 18-01-2014 04:25:00 2.6 C 96 % 2.03 C
1487 18-01-2014 04:30:00 2.7 C 96 % 2.13 C
1488 18-01-2014 04:35:00 2.6 C 96 % 2.03 C
1489 18-01-2014 04:40:00 2.5 C 96 % 1.93 C
1490 18-01-2014 04:45:00 2.4 C 96 % 1.83 C
1491 18-01-2014 04:50:00 2.4 C 96 % 1.83 C
1492 18-01-2014 04:55:00 2.3 C 96 % 1.73 C
1493 18-01-2014 05:00:00 2.2 C 95 % 1.48 C
1494 18-01-2014 05:05:00 2.1 C 96 % 1.53 C
1495 18-01-2014 05:10:00 2 C 96 % 1.43 C
1496 18-01-2014 05:15:00 1.9 C 96 % 1.33 C
1497 18-01-2014 05:20:00 1.9 C 96 % 1.33 C
1498 18-01-2014 05:25:00 1.8 C 96 % 1.23 C
1499 18-01-2014 05:30:00 1.8 C 96 % 1.23 C
1500 18-01-2014 05:35:00 1.9 C 96 % 1.33 C
Sensor: Nr:Datum:Temp:Feuchte:Taupunkt:
Aussen-T/F 1501 18-01-2014 05:40:00 1.9 C 96 % 1.33 C
1502 18-01-2014 05:45:00 1.8 C 96 % 1.23 C
1503 18-01-2014 05:50:00 1.8 C 96 % 1.23 C
1504 18-01-2014 05:55:00 1.8 C 96 % 1.23 C
1505 18-01-2014 06:00:00 1.8 C 96 % 1.23 C
1506 18-01-2014 06:05:00 1.8 C 97 % 1.38 C
1507 18-01-2014 06:10:00 1.8 C 97 % 1.38 C
1508 18-01-2014 06:15:00 1.8 C 97 % 1.38 C
1509 18-01-2014 06:20:00 1.8 C 97 % 1.38 C
1510 18-01-2014 06:25:00 1.8 C 97 % 1.38 C
1511 18-01-2014 06:30:00 1.8 C 96 % 1.23 C
1512 18-01-2014 06:35:00 1.8 C 97 % 1.38 C
1513 18-01-2014 06:40:00 1.8 C 97 % 1.38 C
1514 18-01-2014 06:45:00 2 C 97 % 1.58 C
1515 18-01-2014 06:50:00 2.4 C 97 % 1.97 C
1516 18-01-2014 06:55:00 2.6 C 97 % 2.17 C
1517 18-01-2014 07:00:00 2.7 C 97 % 2.27 C
1518 18-01-2014 07:05:00 2.8 C 97 % 2.37 C
1519 18-01-2014 07:10:00 2.8 C 97 % 2.37 C
1520 18-01-2014 07:15:00 2.8 C 97 % 2.37 C
1521 18-01-2014 07:20:00 2.7 C 96 % 2.13 C
1522 18-01-2014 07:25:00 2.6 C 96 % 2.03 C
1523 18-01-2014 07:30:00 2.5 C 96 % 1.93 C
1524 18-01-2014 07:35:00 2.5 C 96 % 1.93 C
1525 18-01-2014 07:40:00 2.6 C 97 % 2.17 C
Sensor: Nr:Datum:Temp:Feuchte:Taupunkt:
Aussen-T/F 1526 18-01-2014 07:45:00 2.6 C 96 % 2.03 C
1527 18-01-2014 07:50:00 2.7 C 97 % 2.27 C
1528 18-01-2014 07:55:00 2.8 C 97 % 2.37 C
1529 18-01-2014 08:00:00 3 C 97 % 2.57 C
1530 18-01-2014 08:05:00 3.2 C 97 % 2.77 C
1531 18-01-2014 08:10:00 3.2 C 97 % 2.77 C
1532 18-01-2014 08:15:00 4.1 C 95 % 3.37 C
1533 18-01-2014 08:20:00 4.3 C 94 % 3.42 C
1534 18-01-2014 08:25:00 4.4 C 93 % 3.37 C
1535 18-01-2014 08:30:00 4.6 C 92 % 3.42 C
1536 18-01-2014 08:35:00 4.6 C 92 % 3.42 C
1537 18-01-2014 08:40:00 4.6 C 92 % 3.42 C
1538 18-01-2014 08:45:00 4.8 C 90 % 3.3 C
1539 18-01-2014 08:50:00 4.8 C 90 % 3.3 C
1540 18-01-2014 08:55:00 4.8 C 89 % 3.14 C
1541 18-01-2014 09:00:00 4.8 C 89 % 3.14 C
1542 18-01-2014 09:05:00 4.8 C 89 % 3.14 C
1543 18-01-2014 09:10:00 4.8 C 89 % 3.14 C
1544 18-01-2014 09:15:00 4.8 C 89 % 3.14 C
1545 18-01-2014 09:20:00 4.8 C 89 % 3.14 C
1546 18-01-2014 09:25:00 4.8 C 89 % 3.14 C
1547 18-01-2014 09:30:00 4.7 C 89 % 3.05 C
1548 18-01-2014 09:35:00 4.7 C 89 % 3.05 C
1549 18-01-2014 09:40:00 4.8 C 89 % 3.14 C
1550 18-01-2014 09:45:00 4.8 C 89 % 3.14 C
Sensor: Nr:Datum:Temp:Feuchte:Taupunkt:
Aussen-T/F 1551 18-01-2014 09:50:00 4.8 C 89 % 3.14 C
1552 18-01-2014 09:55:00 4.8 C 89 % 3.14 C
1553 18-01-2014 10:00:00 4.8 C 89 % 3.14 C
1554 18-01-2014 10:05:00 4.8 C 89 % 3.14 C
1555 18-01-2014 10:10:00 4.9 C 89 % 3.24 C
1556 18-01-2014 10:15:00 4.8 C 89 % 3.14 C
1557 18-01-2014 10:20:00 4.8 C 89 % 3.14 C
1558 18-01-2014 10:25:00 4.8 C 89 % 3.14 C
1559 18-01-2014 10:30:00 4.8 C 89 % 3.14 C
1560 18-01-2014 10:35:00 5 C 89 % 3.34 C
1561 18-01-2014 10:40:00 5.2 C 89 % 3.54 C
1562 18-01-2014 10:45:00 5.3 C 88 % 3.48 C
1563 18-01-2014 10:50:00 5.3 C 88 % 3.48 C
1564 18-01-2014 10:55:00 5.3 C 88 % 3.48 C
1565 18-01-2014 11:00:00 5.3 C 88 % 3.48 C
1566 18-01-2014 11:05:00 5.8 C 88 % 3.97 C
1567 18-01-2014 11:10:00 5.8 C 88 % 3.97 C
1568 18-01-2014 11:30:00 6.2 C 100 % 6.2 C
1569 18-01-2014 11:35:00 6.2 C 100 % 6.2 C
1570 18-01-2014 11:40:00 6.2 C 100 % 6.2 C
1571 18-01-2014 12:40:00 6.9 C 86 % 4.72 C
1572 18-01-2014 12:45:00 6.9 C 85 % 4.56 C
1573 18-01-2014 12:50:00 6.9 C 84 % 4.39 C
1574 18-01-2014 12:55:00 6.9 C 85 % 4.56 C
1575 18-01-2014 13:00:00 6.9 C 85 % 4.56 C
Sensor: Nr:Datum:Temp:Feuchte:Taupunkt:
Aussen-T/F 1576 18-01-2014 13:05:00 7.2 C 83 % 4.51 C
1577 18-01-2014 13:10:00 7.3 C 82 % 4.44 C
1578 18-01-2014 13:15:00 7.4 C 82 % 4.53 C
1579 18-01-2014 13:20:00 7.5 C 83 % 4.81 C
1580 18-01-2014 13:25:00 7.6 C 81 % 4.55 C
1581 18-01-2014 13:30:00 7.7 C 82 % 4.83 C
1582 18-01-2014 13:35:00 7.7 C 82 % 4.83 C
1583 18-01-2014 13:40:00 7.8 C 81 % 4.75 C
1584 18-01-2014 13:45:00 7.9 C 80 % 4.67 C
1585 18-01-2014 13:50:00 7.9 C 81 % 4.85 C
1586 18-01-2014 13:55:00 7.9 C 81 % 4.85 C
1587 18-01-2014 14:00:00 8 C 81 % 4.94 C
1588 18-01-2014 14:05:00 7.9 C 81 % 4.85 C
1589 18-01-2014 14:10:00 7.9 C 82 % 5.02 C
1590 18-01-2014 14:15:00 7.9 C 81 % 4.85 C
1591 18-01-2014 14:20:00 7.9 C 80 % 4.67 C
1592 18-01-2014 14:25:00 7.9 C 80 % 4.67 C
1593 18-01-2014 14:30:00 7.9 C 80 % 4.67 C
1594 18-01-2014 14:50:00 8.1 C 80 % 4.86 C
1595 18-01-2014 14:55:00 8.1 C 80 % 4.86 C
1596 18-01-2014 15:00:00 8.1 C 82 % 5.22 C
1597 18-01-2014 15:05:00 7.9 C 83 % 5.2 C
1598 18-01-2014 15:10:00 7.8 C 82 % 4.92 C
1599 18-01-2014 15:15:00 7.8 C 82 % 4.92 C
1600 18-01-2014 15:20:00 7.8 C 81 % 4.75 C
Sensor: Nr:Datum:Temp:Feuchte:Taupunkt:
Aussen-T/F 1601 18-01-2014 15:25:00 7.8 C 83 % 5.1 C
1602 18-01-2014 15:30:00 7.8 C 84 % 5.27 C
1603 18-01-2014 15:35:00 7.8 C 82 % 4.92 C
1604 18-01-2014 15:40:00 7.8 C 82 % 4.92 C
1605 18-01-2014 15:45:00 7.8 C 81 % 4.75 C
1606 18-01-2014 15:50:00 7.8 C 83 % 5.1 C
1607 18-01-2014 15:55:00 7.7 C 82 % 4.83 C
1608 18-01-2014 16:00:00 7.5 C 84 % 4.98 C
1609 18-01-2014 16:05:00 7.3 C 85 % 4.95 C
1610 18-01-2014 16:10:00 7.1 C 86 % 4.92 C
1611 18-01-2014 16:15:00 6.9 C 85 % 4.56 C
1612 18-01-2014 16:20:00 6.8 C 85 % 4.46 C
1613 18-01-2014 16:25:00 6.8 C 85 % 4.46 C
1614 18-01-2014 16:30:00 6.7 C 85 % 4.36 C
1615 18-01-2014 16:35:00 6.7 C 85 % 4.36 C
1616 18-01-2014 16:40:00 6.7 C 85 % 4.36 C
1617 18-01-2014 16:45:00 6.7 C 84 % 4.19 C
1618 18-01-2014 16:50:00 6.7 C 85 % 4.36 C
1619 18-01-2014 16:55:00 6.6 C 85 % 4.26 C
1620 18-01-2014 17:00:00 6.3 C 85 % 3.97 C
1621 18-01-2014 17:05:00 6.3 C 85 % 3.97 C
1622 18-01-2014 17:10:00 6.1 C 86 % 3.94 C
1623 18-01-2014 17:15:00 5.8 C 87 % 3.81 C
1624 18-01-2014 17:20:00 5.6 C 87 % 3.61 C
1625 18-01-2014 17:25:00 5.5 C 88 % 3.67 C
Sensor: Nr:Datum:Temp:Feuchte:Taupunkt:
Aussen-T/F 1626 18-01-2014 17:30:00 5.5 C 87 % 3.51 C
1627 18-01-2014 17:35:00 5.6 C 87 % 3.61 C
1628 18-01-2014 17:40:00 5.7 C 86 % 3.55 C
1629 18-01-2014 17:45:00 5.6 C 86 % 3.45 C
1630 18-01-2014 17:50:00 5.7 C 85 % 3.38 C
1631 18-01-2014 17:55:00 5.8 C 86 % 3.64 C
1632 18-01-2014 18:00:00 5.7 C 86 % 3.55 C
1633 18-01-2014 18:05:00 5.6 C 85 % 3.28 C
1634 18-01-2014 18:10:00 5.6 C 85 % 3.28 C
1635 18-01-2014 18:15:00 5.7 C 85 % 3.38 C
1636 18-01-2014 18:20:00 5.6 C 85 % 3.28 C
1637 18-01-2014 18:25:00 5.6 C 86 % 3.45 C
1638 18-01-2014 18:30:00 5.6 C 85 % 3.28 C
1639 18-01-2014 18:35:00 5.8 C 85 % 3.48 C
1640 18-01-2014 18:40:00 6 C 83 % 3.34 C
1641 18-01-2014 18:45:00 6.1 C 83 % 3.44 C
1642 18-01-2014 18:50:00 6.2 C 82 % 3.36 C
1643 18-01-2014 18:55:00 6.2 C 82 % 3.36 C
1644 18-01-2014 19:00:00 6.2 C 83 % 3.53 C
1645 18-01-2014 19:05:00 6.3 C 81 % 3.29 C
1646 18-01-2014 19:10:00 6.4 C 81 % 3.38 C
1647 18-01-2014 19:15:00 6.3 C 81 % 3.29 C
1648 18-01-2014 19:20:00 6.3 C 82 % 3.46 C
1649 18-01-2014 19:25:00 6.1 C 82 % 3.26 C
1650 18-01-2014 19:30:00 5.9 C 83 % 3.24 C
Sensor: Nr:Datum:Temp:Feuchte:Taupunkt:
Aussen-T/F 1651 18-01-2014 19:35:00 5.7 C 85 % 3.38 C
1652 18-01-2014 19:40:00 5.8 C 84 % 3.31 C
1653 18-01-2014 19:45:00 5.8 C 85 % 3.48 C
1654 18-01-2014 19:50:00 5.8 C 84 % 3.31 C
1655 18-01-2014 19:55:00 5.9 C 84 % 3.41 C
1656 18-01-2014 20:00:00 5.9 C 84 % 3.41 C
1657 18-01-2014 20:05:00 5.7 C 85 % 3.38 C
1658 18-01-2014 20:10:00 5.6 C 85 % 3.28 C
1659 18-01-2014 20:15:00 5.4 C 87 % 3.41 C
1660 18-01-2014 20:20:00 5.2 C 87 % 3.22 C
1661 18-01-2014 20:25:00 5 C 88 % 3.18 C
1662 18-01-2014 20:30:00 4.9 C 88 % 3.08 C
1663 18-01-2014 20:35:00 4.8 C 88 % 2.99 C
1664 18-01-2014 20:40:00 4.7 C 89 % 3.05 C
1665 18-01-2014 20:45:00 4.6 C 89 % 2.95 C
1666 18-01-2014 20:50:00 4.4 C 90 % 2.91 C
1667 18-01-2014 20:55:00 4.3 C 90 % 2.81 C
1668 18-01-2014 21:00:00 4.1 C 90 % 2.61 C
1669 18-01-2014 21:05:00 3.8 C 90 % 2.31 C
1670 18-01-2014 21:10:00 3.6 C 91 % 2.27 C
1671 18-01-2014 21:15:00 3.5 C 91 % 2.17 C
1672 18-01-2014 21:20:00 3.4 C 92 % 2.23 C
1673 18-01-2014 21:25:00 3.4 C 92 % 2.23 C
1674 18-01-2014 21:30:00 3.3 C 92 % 2.13 C
1675 18-01-2014 21:35:00 3.2 C 92 % 2.03 C
Sensor: Nr:Datum:Temp:Feuchte:Taupunkt:
Aussen-T/F 1676 18-01-2014 21:40:00 3.1 C 92 % 1.93 C
1677 18-01-2014 21:45:00 3 C 93 % 1.98 C
1678 18-01-2014 21:50:00 2.9 C 93 % 1.88 C
1679 18-01-2014 21:55:00 2.8 C 93 % 1.78 C
1680 18-01-2014 22:00:00 2.7 C 93 % 1.68 C
1681 18-01-2014 22:05:00 2.7 C 94 % 1.83 C
1682 18-01-2014 22:10:00 2.7 C 94 % 1.83 C
1683 18-01-2014 22:15:00 2.7 C 94 % 1.83 C
1684 18-01-2014 22:20:00 2.8 C 94 % 1.93 C
1685 18-01-2014 22:25:00 2.8 C 94 % 1.93 C
1686 18-01-2014 22:30:00 2.8 C 94 % 1.93 C
1687 18-01-2014 22:35:00 2.9 C 94 % 2.03 C
1688 18-01-2014 22:40:00 3.1 C 95 % 2.38 C
1689 18-01-2014 22:45:00 3.1 C 95 % 2.38 C
1690 18-01-2014 22:50:00 3.2 C 95 % 2.48 C
1691 18-01-2014 22:55:00 3.3 C 95 % 2.58 C
1692 18-01-2014 23:00:00 3.4 C 95 % 2.68 C
1693 18-01-2014 23:05:00 3.5 C 95 % 2.78 C
1694 18-01-2014 23:10:00 3.6 C 95 % 2.88 C
1695 18-01-2014 23:15:00 3.6 C 95 % 2.88 C
1696 18-01-2014 23:20:00 3.7 C 94 % 2.83 C
1697 18-01-2014 23:25:00 3.7 C 94 % 2.83 C
1698 18-01-2014 23:30:00 3.8 C 94 % 2.93 C
1699 18-01-2014 23:35:00 3.8 C 94 % 2.93 C
1700 18-01-2014 23:40:00 3.8 C 94 % 2.93 C
Sensor: Nr:Datum:Temp:Feuchte:Taupunkt:
Aussen-T/F 1701 18-01-2014 23:45:00 3.8 C 94 % 2.93 C
1702 18-01-2014 23:50:00 3.9 C 94 % 3.02 C
1703 18-01-2014 23:55:00 3.9 C 94 % 3.02 C
1704 19-01-2014 00:00:00 4 C 94 % 3.12 C
1705 19-01-2014 00:05:00 4.1 C 94 % 3.22 C
1706 19-01-2014 00:10:00 4.1 C 94 % 3.22 C
1707 19-01-2014 00:15:00 4.1 C 94 % 3.22 C
1708 19-01-2014 00:20:00 4.2 C 94 % 3.32 C
1709 19-01-2014 00:25:00 4.2 C 94 % 3.32 C
1710 19-01-2014 00:30:00 4.2 C 94 % 3.32 C
1711 19-01-2014 00:35:00 4.2 C 94 % 3.32 C
1712 19-01-2014 00:40:00 4.2 C 94 % 3.32 C
1713 19-01-2014 00:45:00 4.3 C 94 % 3.42 C
1714 19-01-2014 00:50:00 4.3 C 94 % 3.42 C
1715 19-01-2014 00:55:00 4.3 C 94 % 3.42 C
1716 19-01-2014 01:00:00 4.4 C 94 % 3.52 C
1717 19-01-2014 01:05:00 4.4 C 94 % 3.52 C
1718 19-01-2014 01:10:00 4.4 C 94 % 3.52 C
1719 19-01-2014 01:15:00 4.4 C 94 % 3.52 C
1720 19-01-2014 01:20:00 4.4 C 94 % 3.52 C
1721 19-01-2014 01:25:00 4.4 C 93 % 3.37 C
1722 19-01-2014 01:30:00 4.4 C 94 % 3.52 C
1723 19-01-2014 01:35:00 4.4 C 94 % 3.52 C
1724 19-01-2014 01:40:00 4.4 C 94 % 3.52 C
1725 19-01-2014 01:45:00 4.4 C 94 % 3.52 C
Sensor: Nr:Datum:Temp:Feuchte:Taupunkt:
Aussen-T/F 1726 19-01-2014 01:50:00 4.5 C 94 % 3.62 C
1727 19-01-2014 01:55:00 4.5 C 93 % 3.47 C
1728 19-01-2014 02:00:00 4.6 C 94 % 3.72 C
1729 19-01-2014 02:05:00 4.6 C 93 % 3.57 C
1730 19-01-2014 02:10:00 4.6 C 93 % 3.57 C
1731 19-01-2014 02:15:00 4.6 C 93 % 3.57 C
1732 19-01-2014 02:20:00 4.6 C 92 % 3.42 C
1733 19-01-2014 02:25:00 4.7 C 92 % 3.51 C
1734 19-01-2014 02:30:00 4.7 C 92 % 3.51 C
1735 19-01-2014 02:35:00 4.7 C 92 % 3.51 C
1736 19-01-2014 02:40:00 4.7 C 92 % 3.51 C
1737 19-01-2014 02:45:00 4.7 C 92 % 3.51 C
1738 19-01-2014 02:50:00 4.7 C 91 % 3.36 C
1739 19-01-2014 02:55:00 4.7 C 91 % 3.36 C
1740 19-01-2014 03:00:00 4.6 C 91 % 3.26 C
1741 19-01-2014 03:05:00 4.6 C 91 % 3.26 C
1742 19-01-2014 03:10:00 4.6 C 91 % 3.26 C
1743 19-01-2014 03:15:00 4.6 C 91 % 3.26 C
1744 19-01-2014 03:20:00 4.6 C 91 % 3.26 C
1745 19-01-2014 03:25:00 4.5 C 91 % 3.16 C
1746 19-01-2014 03:30:00 4.5 C 91 % 3.16 C
1747 19-01-2014 03:35:00 4.4 C 91 % 3.06 C
1748 19-01-2014 03:40:00 4.4 C 92 % 3.22 C
1749 19-01-2014 03:45:00 4.3 C 92 % 3.12 C
1750 19-01-2014 03:50:00 4.3 C 92 % 3.12 C
Sensor: Nr:Datum:Temp:Feuchte:Taupunkt:
Aussen-T/F 1751 19-01-2014 03:55:00 4.2 C 92 % 3.02 C
1752 19-01-2014 04:00:00 4.2 C 92 % 3.02 C
1753 19-01-2014 04:05:00 4.2 C 92 % 3.02 C
1754 19-01-2014 04:10:00 4.2 C 92 % 3.02 C
1755 19-01-2014 04:15:00 4.2 C 92 % 3.02 C
1756 19-01-2014 04:20:00 4.2 C 92 % 3.02 C
1757 19-01-2014 04:25:00 4.2 C 92 % 3.02 C
1758 19-01-2014 04:30:00 4.2 C 92 % 3.02 C
1759 19-01-2014 04:35:00 4.2 C 92 % 3.02 C
1760 19-01-2014 04:40:00 4.2 C 92 % 3.02 C
1761 19-01-2014 04:45:00 4.2 C 92 % 3.02 C
1762 19-01-2014 04:50:00 4.2 C 93 % 3.17 C
1763 19-01-2014 04:55:00 4.2 C 93 % 3.17 C
1764 19-01-2014 05:00:00 4.2 C 93 % 3.17 C
1765 19-01-2014 05:05:00 4.1 C 93 % 3.07 C
1766 19-01-2014 05:10:00 4.2 C 93 % 3.17 C
1767 19-01-2014 05:15:00 4.1 C 93 % 3.07 C
1768 19-01-2014 05:20:00 4.1 C 93 % 3.07 C
1769 19-01-2014 05:25:00 4.1 C 93 % 3.07 C
1770 19-01-2014 05:30:00 4.2 C 93 % 3.17 C
1771 19-01-2014 05:35:00 4.2 C 93 % 3.17 C
1772 19-01-2014 05:40:00 4.2 C 93 % 3.17 C
1773 19-01-2014 05:45:00 4.2 C 93 % 3.17 C
1774 19-01-2014 05:50:00 4.1 C 93 % 3.07 C
1775 19-01-2014 05:55:00 4.1 C 93 % 3.07 C
Sensor: Nr:Datum:Temp:Feuchte:Taupunkt:
Aussen-T/F 1776 19-01-2014 06:00:00 4.1 C 93 % 3.07 C
1777 19-01-2014 06:05:00 4.1 C 93 % 3.07 C
1778 19-01-2014 06:10:00 4.1 C 93 % 3.07 C
1779 19-01-2014 06:15:00 4.1 C 93 % 3.07 C
1780 19-01-2014 06:20:00 4.1 C 93 % 3.07 C
1781 19-01-2014 06:25:00 4.1 C 93 % 3.07 C
1782 19-01-2014 06:30:00 4.1 C 93 % 3.07 C
1783 19-01-2014 06:35:00 4.1 C 93 % 3.07 C
1784 19-01-2014 06:40:00 4.2 C 93 % 3.17 C
1785 19-01-2014 06:45:00 4.2 C 93 % 3.17 C
1786 19-01-2014 06:50:00 4.1 C 93 % 3.07 C
1787 19-01-2014 06:55:00 4.2 C 93 % 3.17 C
1788 19-01-2014 07:00:00 4.1 C 93 % 3.07 C
1789 19-01-2014 07:05:00 4.1 C 93 % 3.07 C
1790 19-01-2014 07:10:00 4.1 C 93 % 3.07 C
1791 19-01-2014 07:15:00 4.1 C 92 % 2.92 C
1792 19-01-2014 07:20:00 4.1 C 93 % 3.07 C
1793 19-01-2014 07:25:00 4.1 C 93 % 3.07 C
1794 19-01-2014 07:30:00 4 C 93 % 2.97 C
1795 19-01-2014 07:35:00 3.9 C 93 % 2.87 C
1796 19-01-2014 07:40:00 3.9 C 93 % 2.87 C
1797 19-01-2014 07:45:00 3.9 C 93 % 2.87 C
1798 19-01-2014 07:50:00 3.8 C 93 % 2.77 C
1799 19-01-2014 07:55:00 3.8 C 93 % 2.77 C
1800 19-01-2014 08:00:00 3.8 C 93 % 2.77 C
Sensor: Nr:Datum:Temp:Feuchte:Taupunkt:
Aussen-T/F 1801 19-01-2014 08:05:00 3.8 C 93 % 2.77 C
1802 19-01-2014 08:10:00 3.7 C 93 % 2.68 C
1803 19-01-2014 08:15:00 3.7 C 93 % 2.68 C
1804 19-01-2014 08:20:00 3.7 C 93 % 2.68 C
1805 19-01-2014 08:25:00 3.6 C 93 % 2.58 C
1806 19-01-2014 08:30:00 3.6 C 94 % 2.73 C
1807 19-01-2014 08:35:00 3.6 C 94 % 2.73 C
1808 19-01-2014 08:40:00 3.6 C 94 % 2.73 C
1809 19-01-2014 08:45:00 3.7 C 94 % 2.83 C
1810 19-01-2014 08:50:00 3.7 C 94 % 2.83 C
1811 19-01-2014 08:55:00 3.7 C 94 % 2.83 C
1812 19-01-2014 09:00:00 3.7 C 94 % 2.83 C
1813 19-01-2014 09:05:00 3.8 C 94 % 2.93 C
1814 19-01-2014 09:10:00 3.8 C 95 % 3.07 C
1815 19-01-2014 09:15:00 3.9 C 94 % 3.02 C
1816 19-01-2014 09:20:00 4 C 94 % 3.12 C
1817 19-01-2014 09:25:00 4.1 C 94 % 3.22 C
1818 19-01-2014 09:30:00 4.1 C 94 % 3.22 C
1819 19-01-2014 09:35:00 4.2 C 94 % 3.32 C
1820 19-01-2014 09:40:00 4.2 C 94 % 3.32 C
1821 19-01-2014 09:45:00 4.2 C 94 % 3.32 C
1822 19-01-2014 09:50:00 4.4 C 93 % 3.37 C
1823 19-01-2014 09:55:00 4.4 C 93 % 3.37 C
1824 19-01-2014 10:00:00 4.6 C 92 % 3.42 C
1825 19-01-2014 10:05:00 4.7 C 92 % 3.51 C
Sensor: Nr:Datum:Temp:Feuchte:Taupunkt:
Aussen-T/F 1826 19-01-2014 10:10:00 4.8 C 92 % 3.61 C
1827 19-01-2014 10:15:00 4.9 C 91 % 3.56 C
1828 19-01-2014 10:20:00 4.9 C 91 % 3.56 C
1829 19-01-2014 10:25:00 5.1 C 91 % 3.76 C
1830 19-01-2014 10:30:00 5.1 C 91 % 3.76 C
1831 19-01-2014 10:35:00 5.2 C 90 % 3.7 C
1832 19-01-2014 10:40:00 5.2 C 90 % 3.7 C
1833 19-01-2014 10:45:00 5.2 C 90 % 3.7 C
1834 19-01-2014 10:50:00 5.3 C 90 % 3.8 C
1835 19-01-2014 10:55:00 5.3 C 90 % 3.8 C
1836 19-01-2014 11:00:00 5.4 C 90 % 3.89 C
1837 19-01-2014 11:05:00 5.4 C 90 % 3.89 C
1838 19-01-2014 11:10:00 5.4 C 89 % 3.74 C
1839 19-01-2014 11:15:00 5.5 C 89 % 3.84 C
1840 19-01-2014 11:20:00 5.6 C 89 % 3.93 C
1841 19-01-2014 11:25:00 5.6 C 89 % 3.93 C
1842 19-01-2014 11:30:00 5.6 C 89 % 3.93 C
1843 19-01-2014 11:35:00 5.7 C 89 % 4.03 C
1844 19-01-2014 11:40:00 5.7 C 89 % 4.03 C
1845 19-01-2014 11:45:00 5.8 C 89 % 4.13 C
1846 19-01-2014 11:50:00 5.9 C 89 % 4.23 C
1847 19-01-2014 11:55:00 5.9 C 88 % 4.07 C
1848 19-01-2014 12:00:00 6 C 88 % 4.17 C
1849 19-01-2014 12:05:00 6.1 C 88 % 4.27 C
1850 19-01-2014 12:10:00 6.1 C 87 % 4.1 C
Sensor: Nr:Datum:Temp:Feuchte:Taupunkt:
Aussen-T/F 1851 19-01-2014 12:15:00 6.1 C 87 % 4.1 C
1852 19-01-2014 12:20:00 6.1 C 87 % 4.1 C
1853 19-01-2014 12:25:00 6.2 C 87 % 4.2 C
1854 19-01-2014 12:30:00 6.2 C 87 % 4.2 C
1855 19-01-2014 12:35:00 6.2 C 87 % 4.2 C
1856 19-01-2014 12:40:00 6.3 C 87 % 4.3 C
1857 19-01-2014 12:45:00 6.3 C 86 % 4.14 C
1858 19-01-2014 12:50:00 6.4 C 87 % 4.4 C
1859 19-01-2014 12:55:00 6.4 C 87 % 4.4 C
1860 19-01-2014 13:00:00 6.6 C 86 % 4.43 C
1861 19-01-2014 13:05:00 6.7 C 88 % 4.86 C
1862 19-01-2014 13:10:00 6.7 C 86 % 4.53 C
1863 19-01-2014 13:15:00 6.8 C 87 % 4.79 C
1864 19-01-2014 13:20:00 6.8 C 86 % 4.63 C
1865 19-01-2014 13:25:00 6.8 C 86 % 4.63 C
1866 19-01-2014 13:30:00 6.8 C 85 % 4.46 C
1867 19-01-2014 13:35:00 6.8 C 87 % 4.79 C
1868 19-01-2014 13:40:00 6.8 C 86 % 4.63 C
1869 19-01-2014 13:45:00 6.8 C 86 % 4.63 C
1870 19-01-2014 13:50:00 6.8 C 86 % 4.63 C
1871 19-01-2014 13:55:00 6.9 C 86 % 4.72 C
1872 19-01-2014 14:00:00 6.9 C 86 % 4.72 C
1873 19-01-2014 14:05:00 6.8 C 86 % 4.63 C
1874 19-01-2014 14:10:00 6.9 C 86 % 4.72 C
1875 19-01-2014 14:15:00 6.9 C 86 % 4.72 C
Sensor: Nr:Datum:Temp:Feuchte:Taupunkt:
Aussen-T/F 1876 19-01-2014 14:20:00 7 C 85 % 4.66 C
1877 19-01-2014 14:25:00 7.1 C 85 % 4.75 C
1878 19-01-2014 14:30:00 7.2 C 85 % 4.85 C
1879 19-01-2014 14:35:00 7.2 C 85 % 4.85 C
1880 19-01-2014 14:40:00 7.2 C 84 % 4.68 C
1881 19-01-2014 14:45:00 7.3 C 85 % 4.95 C
1882 19-01-2014 14:50:00 7.3 C 85 % 4.95 C
1883 19-01-2014 14:55:00 7.4 C 85 % 5.05 C
1884 19-01-2014 15:00:00 7.4 C 84 % 4.88 C
1885 19-01-2014 15:05:00 7.4 C 84 % 4.88 C
1886 19-01-2014 15:10:00 7.3 C 84 % 4.78 C
1887 19-01-2014 15:15:00 7.3 C 84 % 4.78 C
1888 19-01-2014 15:20:00 7.3 C 85 % 4.95 C
1889 19-01-2014 15:25:00 7.3 C 84 % 4.78 C
1890 19-01-2014 15:30:00 7.3 C 84 % 4.78 C
1891 19-01-2014 15:35:00 7.2 C 84 % 4.68 C
1892 19-01-2014 15:40:00 7.1 C 85 % 4.75 C
1893 19-01-2014 15:45:00 7.1 C 85 % 4.75 C
1894 19-01-2014 15:50:00 7.1 C 85 % 4.75 C
1895 19-01-2014 15:55:00 7.1 C 85 % 4.75 C
1896 19-01-2014 16:00:00 7.1 C 85 % 4.75 C
1897 19-01-2014 16:40:00 5.4 C 100 % 5.4 C
1898 19-01-2014 16:45:00 5.4 C 100 % 5.4 C
1899 19-01-2014 16:50:00 5.4 C 100 % 5.4 C
1900 19-01-2014 16:55:00 5.4 C 100 % 5.4 C
Sensor: Nr:Datum:Temp:Feuchte:Taupunkt:
Aussen-T/F 1901 19-01-2014 17:00:00 4.8 C 92 % 3.61 C
1902 19-01-2014 17:05:00 4.6 C 92 % 3.42 C
1903 19-01-2014 17:10:00 4.5 C 92 % 3.32 C
1904 19-01-2014 17:15:00 4.3 C 92 % 3.12 C
1905 19-01-2014 17:20:00 4.2 C 93 % 3.17 C
1906 19-01-2014 17:25:00 4.1 C 93 % 3.07 C
1907 19-01-2014 17:30:00 4.1 C 93 % 3.07 C
1908 19-01-2014 17:35:00 4 C 93 % 2.97 C
1909 19-01-2014 17:40:00 4 C 94 % 3.12 C
1910 19-01-2014 17:45:00 4 C 94 % 3.12 C
1911 19-01-2014 17:50:00 4 C 94 % 3.12 C
1912 19-01-2014 17:55:00 3.9 C 94 % 3.02 C
1913 19-01-2014 18:00:00 3.9 C 94 % 3.02 C
1914 19-01-2014 18:05:00 3.9 C 94 % 3.02 C
1915 19-01-2014 18:10:00 3.9 C 94 % 3.02 C
1916 19-01-2014 18:15:00 3.8 C 94 % 2.93 C
1917 19-01-2014 18:20:00 3.8 C 95 % 3.07 C
1918 19-01-2014 18:25:00 3.8 C 95 % 3.07 C
1919 19-01-2014 18:30:00 3.8 C 94 % 2.93 C
1920 19-01-2014 18:35:00 3.8 C 94 % 2.93 C
1921 19-01-2014 18:40:00 3.8 C 95 % 3.07 C
1922 19-01-2014 18:45:00 3.8 C 95 % 3.07 C
1923 19-01-2014 18:50:00 3.8 C 95 % 3.07 C
1924 19-01-2014 18:55:00 3.7 C 94 % 2.83 C
1925 19-01-2014 19:00:00 3.7 C 95 % 2.98 C
Sensor: Nr:Datum:Temp:Feuchte:Taupunkt:
Aussen-T/F 1926 19-01-2014 19:05:00 3.7 C 95 % 2.98 C
1927 19-01-2014 19:10:00 3.7 C 95 % 2.98 C
1928 19-01-2014 19:15:00 3.6 C 95 % 2.88 C
1929 19-01-2014 19:20:00 3.6 C 95 % 2.88 C
1930 19-01-2014 19:25:00 3.6 C 95 % 2.88 C
1931 19-01-2014 19:30:00 3.7 C 95 % 2.98 C
1932 19-01-2014 19:35:00 3.7 C 95 % 2.98 C
1933 19-01-2014 19:40:00 3.8 C 95 % 3.07 C
1934 19-01-2014 19:45:00 3.7 C 95 % 2.98 C
1935 19-01-2014 19:50:00 3.7 C 95 % 2.98 C
1936 19-01-2014 19:55:00 3.7 C 95 % 2.98 C
1937 19-01-2014 20:00:00 3.6 C 95 % 2.88 C
1938 19-01-2014 20:05:00 3.5 C 95 % 2.78 C
1939 19-01-2014 20:10:00 3.4 C 95 % 2.68 C
1940 19-01-2014 20:15:00 3.4 C 95 % 2.68 C
1941 19-01-2014 20:20:00 3.3 C 95 % 2.58 C
1942 19-01-2014 20:25:00 3.3 C 95 % 2.58 C
1943 19-01-2014 20:30:00 3.5 C 95 % 2.78 C
1944 19-01-2014 20:35:00 3.5 C 95 % 2.78 C
1945 19-01-2014 20:40:00 3.4 C 95 % 2.68 C
1946 19-01-2014 20:45:00 3.4 C 95 % 2.68 C
1947 19-01-2014 20:50:00 3.4 C 95 % 2.68 C
1948 19-01-2014 20:55:00 3.3 C 95 % 2.58 C
1949 19-01-2014 21:00:00 3.3 C 95 % 2.58 C
1950 19-01-2014 21:05:00 3.4 C 95 % 2.68 C
Sensor: Nr:Datum:Temp:Feuchte:Taupunkt:
Aussen-T/F 1951 19-01-2014 21:10:00 3.4 C 95 % 2.68 C
1952 19-01-2014 21:15:00 3.4 C 95 % 2.68 C
1953 19-01-2014 21:20:00 3.4 C 95 % 2.68 C
1954 19-01-2014 21:25:00 3.4 C 95 % 2.68 C
1955 19-01-2014 21:30:00 3.3 C 95 % 2.58 C
1956 19-01-2014 21:35:00 3.3 C 95 % 2.58 C
1957 19-01-2014 21:40:00 3.4 C 95 % 2.68 C
1958 19-01-2014 21:45:00 3.4 C 95 % 2.68 C
1959 19-01-2014 21:50:00 3.4 C 95 % 2.68 C
1960 19-01-2014 21:55:00 3.5 C 95 % 2.78 C
1961 19-01-2014 22:00:00 3.6 C 95 % 2.88 C
1962 19-01-2014 22:05:00 3.6 C 95 % 2.88 C
1963 19-01-2014 22:10:00 3.6 C 95 % 2.88 C
1964 19-01-2014 22:15:00 3.7 C 95 % 2.98 C
1965 19-01-2014 22:20:00 3.7 C 95 % 2.98 C
1966 19-01-2014 22:25:00 3.6 C 95 % 2.88 C
1967 19-01-2014 22:30:00 3.6 C 95 % 2.88 C
1968 19-01-2014 22:35:00 3.6 C 95 % 2.88 C
1969 19-01-2014 22:40:00 3.6 C 95 % 2.88 C
1970 19-01-2014 22:45:00 3.6 C 95 % 2.88 C
1971 19-01-2014 22:50:00 3.5 C 95 % 2.78 C
1972 19-01-2014 22:55:00 3.6 C 95 % 2.88 C
1973 19-01-2014 23:00:00 3.6 C 95 % 2.88 C
1974 19-01-2014 23:05:00 3.7 C 95 % 2.98 C
1975 19-01-2014 23:10:00 3.7 C 95 % 2.98 C
Sensor: Nr:Datum:Temp:Feuchte:Taupunkt:
Aussen-T/F 1976 19-01-2014 23:15:00 3.7 C 95 % 2.98 C
1977 19-01-2014 23:20:00 3.8 C 95 % 3.07 C
1978 19-01-2014 23:25:00 3.8 C 95 % 3.07 C
1979 19-01-2014 23:30:00 3.8 C 95 % 3.07 C
1980 19-01-2014 23:35:00 3.8 C 95 % 3.07 C
1981 19-01-2014 23:40:00 3.9 C 95 % 3.17 C
1982 19-01-2014 23:45:00 3.9 C 95 % 3.17 C
1983 19-01-2014 23:50:00 3.9 C 95 % 3.17 C
1984 19-01-2014 23:55:00 3.9 C 95 % 3.17 C
1985 20-01-2014 00:00:00 3.9 C 95 % 3.17 C
1986 20-01-2014 00:05:00 3.9 C 95 % 3.17 C
1987 20-01-2014 00:10:00 4 C 95 % 3.27 C
1988 20-01-2014 00:15:00 4 C 95 % 3.27 C
1989 20-01-2014 00:20:00 4.1 C 95 % 3.37 C
1990 20-01-2014 00:25:00 4.1 C 95 % 3.37 C
1991 20-01-2014 00:30:00 4.1 C 95 % 3.37 C
1992 20-01-2014 00:35:00 4.1 C 95 % 3.37 C
1993 20-01-2014 00:40:00 4.1 C 95 % 3.37 C
1994 20-01-2014 00:45:00 4.2 C 95 % 3.47 C
1995 20-01-2014 00:50:00 4.1 C 95 % 3.37 C
1996 20-01-2014 00:55:00 4.2 C 95 % 3.47 C
1997 20-01-2014 01:00:00 4.2 C 95 % 3.47 C
1998 20-01-2014 01:05:00 4.2 C 95 % 3.47 C
1999 20-01-2014 01:10:00 4.2 C 95 % 3.47 C
2000 20-01-2014 01:15:00 4.2 C 95 % 3.47 C
Sensor: Nr:Datum:Temp:Feuchte:Taupunkt:
Aussen-T/F 2001 20-01-2014 01:20:00 4.2 C 95 % 3.47 C
2002 20-01-2014 01:25:00 4.2 C 95 % 3.47 C
2003 20-01-2014 01:30:00 4.2 C 95 % 3.47 C
2004 20-01-2014 01:35:00 4.2 C 95 % 3.47 C
2005 20-01-2014 01:40:00 4.2 C 95 % 3.47 C
2006 20-01-2014 01:45:00 4.2 C 94 % 3.32 C
2007 20-01-2014 01:50:00 4.2 C 95 % 3.47 C
2008 20-01-2014 01:55:00 4.2 C 95 % 3.47 C
2009 20-01-2014 02:00:00 4.2 C 94 % 3.32 C
2010 20-01-2014 02:05:00 4.2 C 94 % 3.32 C
2011 20-01-2014 02:10:00 4.2 C 94 % 3.32 C
2012 20-01-2014 02:15:00 4.2 C 94 % 3.32 C
2013 20-01-2014 02:20:00 4.2 C 94 % 3.32 C
2014 20-01-2014 02:25:00 4.2 C 94 % 3.32 C
2015 20-01-2014 02:30:00 4.2 C 94 % 3.32 C
2016 20-01-2014 02:35:00 4.2 C 94 % 3.32 C
2017 20-01-2014 02:40:00 4.2 C 94 % 3.32 C
2018 20-01-2014 02:45:00 4.2 C 94 % 3.32 C
2019 20-01-2014 02:50:00 4.2 C 94 % 3.32 C
2020 20-01-2014 02:55:00 4.2 C 94 % 3.32 C
2021 20-01-2014 03:00:00 4.2 C 94 % 3.32 C
2022 20-01-2014 03:05:00 4.2 C 94 % 3.32 C
2023 20-01-2014 03:10:00 4.2 C 94 % 3.32 C
2024 20-01-2014 03:15:00 4.2 C 94 % 3.32 C
2025 20-01-2014 03:20:00 4.2 C 94 % 3.32 C
Sensor: Nr:Datum:Temp:Feuchte:Taupunkt:
Aussen-T/F 2026 20-01-2014 03:25:00 4.2 C 94 % 3.32 C
2027 20-01-2014 03:30:00 4.2 C 94 % 3.32 C
2028 20-01-2014 03:35:00 4.2 C 94 % 3.32 C
2029 20-01-2014 03:40:00 4.2 C 94 % 3.32 C
2030 20-01-2014 03:45:00 4.2 C 94 % 3.32 C
2031 20-01-2014 03:50:00 4.2 C 94 % 3.32 C
2032 20-01-2014 03:55:00 4.2 C 94 % 3.32 C
2033 20-01-2014 04:00:00 4.2 C 94 % 3.32 C
2034 20-01-2014 04:05:00 4.2 C 95 % 3.47 C
2035 20-01-2014 04:10:00 4.2 C 95 % 3.47 C
2036 20-01-2014 04:15:00 4.3 C 95 % 3.57 C
2037 20-01-2014 04:20:00 4.3 C 95 % 3.57 C
2038 20-01-2014 04:25:00 4.3 C 95 % 3.57 C
2039 20-01-2014 04:30:00 4.3 C 95 % 3.57 C
2040 20-01-2014 04:35:00 4.3 C 95 % 3.57 C
2041 20-01-2014 04:40:00 4.3 C 95 % 3.57 C
2042 20-01-2014 04:45:00 4.3 C 95 % 3.57 C
2043 20-01-2014 04:50:00 4.3 C 95 % 3.57 C
2044 20-01-2014 04:55:00 4.3 C 94 % 3.42 C
2045 20-01-2014 05:00:00 4.3 C 94 % 3.42 C
2046 20-01-2014 05:05:00 4.3 C 94 % 3.42 C
2047 20-01-2014 05:10:00 4.3 C 94 % 3.42 C
2048 20-01-2014 05:15:00 4.3 C 94 % 3.42 C
2049 20-01-2014 05:20:00 4.3 C 94 % 3.42 C
2050 20-01-2014 05:25:00 4.3 C 94 % 3.42 C
Sensor: Nr:Datum:Temp:Feuchte:Taupunkt:
Aussen-T/F 2051 20-01-2014 05:30:00 4.3 C 94 % 3.42 C
2052 20-01-2014 05:35:00 4.3 C 94 % 3.42 C
2053 20-01-2014 05:40:00 4.3 C 94 % 3.42 C
2054 20-01-2014 05:45:00 4.3 C 94 % 3.42 C
2055 20-01-2014 05:50:00 4.3 C 94 % 3.42 C
2056 20-01-2014 05:55:00 4.3 C 94 % 3.42 C
2057 20-01-2014 06:00:00 4.3 C 94 % 3.42 C
2058 20-01-2014 06:05:00 4.3 C 94 % 3.42 C
2059 20-01-2014 06:10:00 4.3 C 94 % 3.42 C
2060 20-01-2014 06:15:00 4.3 C 94 % 3.42 C
2061 20-01-2014 06:20:00 4.3 C 94 % 3.42 C
2062 20-01-2014 06:25:00 4.3 C 94 % 3.42 C
2063 20-01-2014 06:30:00 4.3 C 94 % 3.42 C
2064 20-01-2014 06:35:00 4.3 C 94 % 3.42 C
2065 20-01-2014 06:40:00 4.3 C 94 % 3.42 C
2066 20-01-2014 06:45:00 4.3 C 94 % 3.42 C
2067 20-01-2014 06:50:00 4.3 C 94 % 3.42 C
2068 20-01-2014 06:55:00 4.3 C 94 % 3.42 C
2069 20-01-2014 07:00:00 4.3 C 94 % 3.42 C
2070 20-01-2014 07:05:00 4.3 C 95 % 3.57 C
2071 20-01-2014 07:10:00 4.3 C 95 % 3.57 C
2072 20-01-2014 07:15:00 4.3 C 95 % 3.57 C
2073 20-01-2014 07:20:00 4.3 C 95 % 3.57 C
2074 20-01-2014 07:25:00 4.3 C 95 % 3.57 C
2075 20-01-2014 07:30:00 4.3 C 95 % 3.57 C
Sensor: Nr:Datum:Temp:Feuchte:Taupunkt:
Aussen-T/F 2076 20-01-2014 07:35:00 4.3 C 95 % 3.57 C
2077 20-01-2014 07:40:00 4.3 C 95 % 3.57 C
2078 20-01-2014 07:45:00 4.3 C 95 % 3.57 C
2079 20-01-2014 07:50:00 4.3 C 95 % 3.57 C
2080 20-01-2014 07:55:00 4.2 C 95 % 3.47 C
2081 20-01-2014 08:00:00 4.2 C 95 % 3.47 C
2082 20-01-2014 08:05:00 4.2 C 95 % 3.47 C
2083 20-01-2014 08:10:00 4.2 C 95 % 3.47 C
2084 20-01-2014 09:20:00 4.2 C 96 % 3.62 C
2085 20-01-2014 09:25:00 4.2 C 96 % 3.62 C
2086 20-01-2014 09:30:00 4.2 C 96 % 3.62 C
2087 20-01-2014 09:35:00 4.3 C 96 % 3.72 C
2088 20-01-2014 09:40:00 4.3 C 96 % 3.72 C
2089 20-01-2014 09:45:00 4.3 C 96 % 3.72 C
2090 20-01-2014 09:50:00 4.3 C 96 % 3.72 C
2091 20-01-2014 09:55:00 4.3 C 96 % 3.72 C
2092 20-01-2014 10:00:00 4.3 C 96 % 3.72 C
2093 20-01-2014 10:05:00 4.3 C 97 % 3.87 C
2094 20-01-2014 10:10:00 4.3 C 97 % 3.87 C
2095 20-01-2014 10:15:00 4.3 C 96 % 3.72 C
2096 20-01-2014 10:20:00 4.4 C 96 % 3.82 C
2097 20-01-2014 10:25:00 4.4 C 97 % 3.97 C
2098 20-01-2014 10:30:00 4.4 C 97 % 3.97 C
2099 20-01-2014 10:35:00 4.4 C 97 % 3.97 C
2100 20-01-2014 10:40:00 4.4 C 97 % 3.97 C
Sensor: Nr:Datum:Temp:Feuchte:Taupunkt:
Aussen-T/F 2101 20-01-2014 10:45:00 4.4 C 97 % 3.97 C
2102 20-01-2014 10:50:00 4.4 C 97 % 3.97 C
2103 20-01-2014 10:55:00 4.4 C 97 % 3.97 C
2104 20-01-2014 11:00:00 4.4 C 97 % 3.97 C
2105 20-01-2014 11:05:00 4.4 C 97 % 3.97 C
2106 20-01-2014 11:10:00 4.5 C 97 % 4.07 C
2107 20-01-2014 11:15:00 4.6 C 97 % 4.17 C
2108 20-01-2014 11:20:00 4.7 C 97 % 4.27 C
2109 20-01-2014 11:25:00 4.7 C 97 % 4.27 C
2110 20-01-2014 11:30:00 4.7 C 97 % 4.27 C
2111 20-01-2014 11:35:00 4.7 C 97 % 4.27 C
2112 20-01-2014 11:40:00 4.7 C 97 % 4.27 C
2113 20-01-2014 11:45:00 4.7 C 97 % 4.27 C
2114 20-01-2014 12:25:00 4.8 C 96 % 4.22 C
2115 20-01-2014 12:30:00 4.8 C 96 % 4.22 C
2116 20-01-2014 12:35:00 4.8 C 96 % 4.22 C
2117 20-01-2014 12:40:00 4.8 C 96 % 4.22 C
2118 20-01-2014 12:45:00 4.8 C 96 % 4.22 C
2119 20-01-2014 12:50:00 4.8 C 96 % 4.22 C
2120 20-01-2014 12:55:00 4.8 C 96 % 4.22 C
2121 20-01-2014 13:00:00 4.8 C 96 % 4.22 C
2122 20-01-2014 13:05:00 4.8 C 96 % 4.22 C
2123 20-01-2014 13:10:00 4.8 C 96 % 4.22 C
2124 20-01-2014 13:15:00 4.8 C 96 % 4.22 C
2125 20-01-2014 13:20:00 4.8 C 96 % 4.22 C
Sensor: Nr:Datum:Temp:Feuchte:Taupunkt:
Aussen-T/F 2126 20-01-2014 13:25:00 4.8 C 96 % 4.22 C
2127 20-01-2014 13:30:00 4.8 C 96 % 4.22 C
2128 20-01-2014 13:35:00 4.8 C 96 % 4.22 C
2129 20-01-2014 13:40:00 4.8 C 96 % 4.22 C
2130 20-01-2014 13:45:00 4.8 C 96 % 4.22 C
2131 20-01-2014 13:50:00 4.8 C 96 % 4.22 C
2132 20-01-2014 13:55:00 4.7 C 96 % 4.12 C
2133 20-01-2014 14:00:00 4.7 C 96 % 4.12 C
2134 20-01-2014 14:05:00 4.7 C 95 % 3.97 C
2135 20-01-2014 14:10:00 4.7 C 95 % 3.97 C
2136 20-01-2014 14:15:00 4.7 C 95 % 3.97 C
2137 20-01-2014 14:20:00 4.7 C 95 % 3.97 C
2138 20-01-2014 14:25:00 4.7 C 95 % 3.97 C
2139 20-01-2014 14:30:00 4.7 C 95 % 3.97 C
2140 20-01-2014 14:35:00 4.7 C 95 % 3.97 C
2141 20-01-2014 14:40:00 4.7 C 95 % 3.97 C
2142 20-01-2014 14:45:00 4.7 C 94 % 3.82 C
2143 20-01-2014 14:50:00 4.7 C 94 % 3.82 C
2144 20-01-2014 14:55:00 4.7 C 94 % 3.82 C
2145 20-01-2014 15:00:00 4.7 C 94 % 3.82 C
2146 20-01-2014 15:05:00 4.7 C 94 % 3.82 C
2147 20-01-2014 15:10:00 4.6 C 94 % 3.72 C
2148 20-01-2014 15:15:00 4.6 C 94 % 3.72 C
2149 20-01-2014 15:20:00 4.6 C 94 % 3.72 C
2150 20-01-2014 15:25:00 4.6 C 94 % 3.72 C
Sensor: Nr:Datum:Temp:Feuchte:Taupunkt:
Aussen-T/F 2151 20-01-2014 15:30:00 4.6 C 94 % 3.72 C
2152 20-01-2014 15:35:00 4.6 C 94 % 3.72 C
2153 20-01-2014 15:40:00 4.6 C 94 % 3.72 C
2154 20-01-2014 15:45:00 4.6 C 94 % 3.72 C
2155 20-01-2014 15:50:00 4.6 C 94 % 3.72 C
2156 20-01-2014 15:55:00 4.6 C 94 % 3.72 C
2157 20-01-2014 16:00:00 4.6 C 94 % 3.72 C
2158 20-01-2014 16:05:00 4.6 C 94 % 3.72 C
2159 20-01-2014 16:10:00 4.6 C 94 % 3.72 C
2160 20-01-2014 16:15:00 4.6 C 94 % 3.72 C
2161 20-01-2014 16:20:00 4.6 C 94 % 3.72 C
2162 20-01-2014 16:25:00 4.6 C 94 % 3.72 C
2163 20-01-2014 16:30:00 4.6 C 94 % 3.72 C
2164 20-01-2014 16:35:00 4.6 C 94 % 3.72 C
2165 20-01-2014 16:40:00 4.6 C 94 % 3.72 C
2166 20-01-2014 16:45:00 4.6 C 94 % 3.72 C
2167 20-01-2014 16:50:00 4.5 C 94 % 3.62 C
2168 20-01-2014 16:55:00 4.5 C 94 % 3.62 C
2169 20-01-2014 17:00:00 4.5 C 94 % 3.62 C
2170 20-01-2014 17:05:00 4.5 C 94 % 3.62 C
2171 20-01-2014 17:10:00 4.5 C 95 % 3.77 C
2172 20-01-2014 17:15:00 4.5 C 94 % 3.62 C
2173 20-01-2014 17:20:00 4.5 C 94 % 3.62 C
2174 20-01-2014 17:25:00 4.5 C 93 % 3.47 C
2175 20-01-2014 17:30:00 4.6 C 93 % 3.57 C
Sensor: Nr:Datum:Temp:Feuchte:Taupunkt:
Aussen-T/F 2176 20-01-2014 17:35:00 4.6 C 93 % 3.57 C
2177 20-01-2014 17:40:00 4.6 C 93 % 3.57 C
2178 20-01-2014 17:45:00 4.6 C 93 % 3.57 C
2179 20-01-2014 17:50:00 4.6 C 92 % 3.42 C
2180 20-01-2014 17:55:00 4.6 C 93 % 3.57 C
2181 20-01-2014 18:00:00 4.7 C 93 % 3.67 C
2182 20-01-2014 18:05:00 4.6 C 93 % 3.57 C
2183 20-01-2014 18:10:00 4.7 C 93 % 3.67 C
2184 20-01-2014 18:15:00 4.6 C 93 % 3.57 C
2185 20-01-2014 18:20:00 4.6 C 93 % 3.57 C
2186 20-01-2014 18:25:00 4.6 C 93 % 3.57 C
2187 20-01-2014 18:30:00 4.6 C 93 % 3.57 C
2188 20-01-2014 18:35:00 4.6 C 92 % 3.42 C
2189 20-01-2014 18:40:00 4.6 C 92 % 3.42 C
2190 20-01-2014 18:45:00 4.6 C 92 % 3.42 C
2191 20-01-2014 18:50:00 4.6 C 92 % 3.42 C
2192 20-01-2014 18:55:00 4.6 C 92 % 3.42 C
2193 20-01-2014 19:00:00 4.6 C 92 % 3.42 C
2194 20-01-2014 19:05:00 4.6 C 92 % 3.42 C
2195 20-01-2014 19:10:00 4.6 C 92 % 3.42 C
2196 20-01-2014 19:15:00 4.5 C 92 % 3.32 C
2197 20-01-2014 19:20:00 4.5 C 92 % 3.32 C
2198 20-01-2014 19:25:00 4.4 C 92 % 3.22 C
2199 20-01-2014 19:30:00 4.4 C 92 % 3.22 C
2200 20-01-2014 19:35:00 4.4 C 92 % 3.22 C
Sensor: Nr:Datum:Temp:Feuchte:Taupunkt:
Aussen-T/F 2201 20-01-2014 19:40:00 4.3 C 93 % 3.27 C
2202 20-01-2014 19:45:00 4.3 C 93 % 3.27 C
2203 20-01-2014 19:50:00 4.3 C 93 % 3.27 C
2204 20-01-2014 19:55:00 4.2 C 93 % 3.17 C
2205 20-01-2014 20:00:00 4.2 C 93 % 3.17 C
2206 20-01-2014 20:05:00 4.2 C 93 % 3.17 C
2207 20-01-2014 20:10:00 4.2 C 93 % 3.17 C
2208 20-01-2014 20:15:00 4.2 C 93 % 3.17 C
2209 20-01-2014 20:20:00 4.1 C 93 % 3.07 C
2210 20-01-2014 20:25:00 4.1 C 93 % 3.07 C
2211 20-01-2014 20:30:00 4.1 C 94 % 3.22 C
2212 20-01-2014 20:35:00 4.1 C 94 % 3.22 C
2213 20-01-2014 20:40:00 4.1 C 94 % 3.22 C
2214 20-01-2014 20:45:00 4.1 C 94 % 3.22 C
2215 20-01-2014 20:50:00 4.1 C 94 % 3.22 C
2216 20-01-2014 20:55:00 4 C 94 % 3.12 C
2217 20-01-2014 21:00:00 4 C 94 % 3.12 C
2218 20-01-2014 21:05:00 4 C 94 % 3.12 C
2219 20-01-2014 21:10:00 4 C 94 % 3.12 C
2220 20-01-2014 21:15:00 4 C 94 % 3.12 C
2221 20-01-2014 21:20:00 4 C 94 % 3.12 C
2222 20-01-2014 21:25:00 4 C 94 % 3.12 C
2223 20-01-2014 21:30:00 3.9 C 95 % 3.17 C
2224 20-01-2014 21:35:00 3.9 C 95 % 3.17 C
2225 20-01-2014 21:40:00 3.9 C 95 % 3.17 C
Sensor: Nr:Datum:Temp:Feuchte:Taupunkt:
Aussen-T/F 2226 20-01-2014 21:45:00 3.9 C 95 % 3.17 C
2227 20-01-2014 21:50:00 3.9 C 95 % 3.17 C
2228 20-01-2014 21:55:00 3.9 C 95 % 3.17 C
2229 20-01-2014 22:00:00 3.8 C 95 % 3.07 C
2230 20-01-2014 22:05:00 3.8 C 95 % 3.07 C
2231 20-01-2014 22:10:00 3.8 C 96 % 3.22 C
2232 20-01-2014 22:15:00 3.8 C 96 % 3.22 C
2233 20-01-2014 22:20:00 3.8 C 96 % 3.22 C
2234 20-01-2014 22:25:00 3.8 C 96 % 3.22 C
2235 20-01-2014 22:30:00 3.8 C 96 % 3.22 C
2236 20-01-2014 22:35:00 3.8 C 96 % 3.22 C
2237 20-01-2014 22:40:00 3.9 C 96 % 3.32 C
2238 20-01-2014 22:45:00 3.8 C 96 % 3.22 C
2239 20-01-2014 22:50:00 3.8 C 96 % 3.22 C
2240 20-01-2014 22:55:00 3.8 C 96 % 3.22 C
2241 20-01-2014 23:00:00 3.8 C 96 % 3.22 C
2242 20-01-2014 23:05:00 3.8 C 96 % 3.22 C
2243 20-01-2014 23:10:00 3.8 C 96 % 3.22 C
2244 20-01-2014 23:15:00 3.8 C 96 % 3.22 C
2245 20-01-2014 23:20:00 3.8 C 96 % 3.22 C
2246 20-01-2014 23:25:00 3.8 C 96 % 3.22 C
2247 20-01-2014 23:30:00 3.8 C 96 % 3.22 C
2248 20-01-2014 23:35:00 3.8 C 96 % 3.22 C
2249 20-01-2014 23:40:00 3.7 C 96 % 3.12 C
2250 20-01-2014 23:45:00 3.7 C 96 % 3.12 C
Sensor: Nr:Datum:Temp:Feuchte:Taupunkt:
Aussen-T/F 2251 20-01-2014 23:50:00 3.7 C 96 % 3.12 C
2252 20-01-2014 23:55:00 3.7 C 96 % 3.12 C
2253 21-01-2014 00:00:00 3.7 C 96 % 3.12 C
2254 21-01-2014 00:05:00 3.7 C 96 % 3.12 C
2255 21-01-2014 00:10:00 3.6 C 96 % 3.02 C
2256 21-01-2014 00:15:00 3.6 C 96 % 3.02 C
2257 21-01-2014 00:20:00 3.6 C 96 % 3.02 C
2258 21-01-2014 00:25:00 3.6 C 96 % 3.02 C
2259 21-01-2014 00:30:00 3.6 C 96 % 3.02 C
2260 21-01-2014 00:35:00 3.6 C 96 % 3.02 C
2261 21-01-2014 00:40:00 3.6 C 96 % 3.02 C
2262 21-01-2014 00:45:00 3.6 C 96 % 3.02 C
2263 21-01-2014 00:50:00 3.6 C 96 % 3.02 C
2264 21-01-2014 00:55:00 3.6 C 96 % 3.02 C
2265 21-01-2014 01:00:00 3.5 C 96 % 2.92 C
2266 21-01-2014 01:05:00 3.6 C 96 % 3.02 C
2267 21-01-2014 01:10:00 3.5 C 96 % 2.92 C
2268 21-01-2014 01:15:00 3.5 C 96 % 2.92 C
2269 21-01-2014 01:20:00 3.5 C 96 % 2.92 C
2270 21-01-2014 01:25:00 3.4 C 96 % 2.82 C
2271 21-01-2014 01:30:00 3.4 C 96 % 2.82 C
2272 21-01-2014 01:35:00 3.5 C 96 % 2.92 C
2273 21-01-2014 01:40:00 3.5 C 95 % 2.78 C
2274 21-01-2014 01:45:00 3.5 C 95 % 2.78 C
2275 21-01-2014 01:50:00 3.5 C 95 % 2.78 C
Sensor: Nr:Datum:Temp:Feuchte:Taupunkt:
Aussen-T/F 2276 21-01-2014 01:55:00 3.5 C 95 % 2.78 C
2277 21-01-2014 02:00:00 3.5 C 95 % 2.78 C
2278 21-01-2014 02:05:00 3.5 C 95 % 2.78 C
2279 21-01-2014 02:10:00 3.4 C 94 % 2.53 C
2280 21-01-2014 02:15:00 3.4 C 93 % 2.38 C
2281 21-01-2014 02:20:00 3.5 C 93 % 2.48 C
2282 21-01-2014 02:25:00 3.5 C 93 % 2.48 C
2283 21-01-2014 02:30:00 3.4 C 92 % 2.23 C
2284 21-01-2014 02:35:00 3.4 C 92 % 2.23 C
2285 21-01-2014 02:40:00 3.3 C 92 % 2.13 C
2286 21-01-2014 02:45:00 3.3 C 92 % 2.13 C
2287 21-01-2014 02:50:00 3.3 C 92 % 2.13 C
2288 21-01-2014 02:55:00 3.3 C 92 % 2.13 C
2289 21-01-2014 03:00:00 3.3 C 92 % 2.13 C
2290 21-01-2014 03:05:00 3.3 C 92 % 2.13 C
2291 21-01-2014 03:10:00 3.2 C 92 % 2.03 C
2292 21-01-2014 03:15:00 3.2 C 93 % 2.18 C
2293 21-01-2014 03:20:00 3.2 C 93 % 2.18 C
2294 21-01-2014 03:25:00 3.2 C 93 % 2.18 C
2295 21-01-2014 03:30:00 3.2 C 93 % 2.18 C
2296 21-01-2014 03:35:00 3.1 C 93 % 2.08 C
2297 21-01-2014 03:40:00 3.1 C 93 % 2.08 C
2298 21-01-2014 03:45:00 3.1 C 93 % 2.08 C
2299 21-01-2014 03:50:00 3 C 93 % 1.98 C
2300 21-01-2014 03:55:00 3.1 C 93 % 2.08 C
Sensor: Nr:Datum:Temp:Feuchte:Taupunkt:
Aussen-T/F 2301 21-01-2014 04:00:00 3 C 93 % 1.98 C
2302 21-01-2014 04:05:00 3 C 93 % 1.98 C
2303 21-01-2014 04:10:00 3 C 93 % 1.98 C
2304 21-01-2014 04:15:00 3 C 93 % 1.98 C
2305 21-01-2014 04:20:00 3 C 93 % 1.98 C
2306 21-01-2014 04:25:00 2.9 C 93 % 1.88 C
2307 21-01-2014 04:30:00 2.9 C 93 % 1.88 C
2308 21-01-2014 04:35:00 2.9 C 93 % 1.88 C
2309 21-01-2014 04:40:00 2.9 C 93 % 1.88 C
2310 21-01-2014 04:45:00 2.9 C 93 % 1.88 C
2311 21-01-2014 04:50:00 2.9 C 93 % 1.88 C
2312 21-01-2014 04:55:00 2.9 C 93 % 1.88 C
2313 21-01-2014 05:00:00 2.9 C 93 % 1.88 C
2314 21-01-2014 05:05:00 2.9 C 93 % 1.88 C
2315 21-01-2014 05:10:00 2.9 C 93 % 1.88 C
2316 21-01-2014 05:15:00 2.9 C 93 % 1.88 C
2317 21-01-2014 05:20:00 2.9 C 93 % 1.88 C
2318 21-01-2014 05:25:00 2.9 C 93 % 1.88 C
2319 21-01-2014 05:30:00 2.9 C 92 % 1.73 C
2320 21-01-2014 05:35:00 2.9 C 93 % 1.88 C
2321 21-01-2014 05:40:00 2.8 C 92 % 1.63 C
2322 21-01-2014 05:45:00 2.8 C 92 % 1.63 C
2323 21-01-2014 05:50:00 2.9 C 92 % 1.73 C
2324 21-01-2014 05:55:00 2.9 C 92 % 1.73 C
2325 21-01-2014 06:00:00 2.8 C 92 % 1.63 C
Sensor: Nr:Datum:Temp:Feuchte:Taupunkt:
Aussen-T/F 2326 21-01-2014 06:05:00 2.9 C 92 % 1.73 C
2327 21-01-2014 06:10:00 2.9 C 92 % 1.73 C
2328 21-01-2014 06:15:00 2.8 C 92 % 1.63 C
2329 21-01-2014 06:20:00 2.9 C 92 % 1.73 C
2330 21-01-2014 06:25:00 2.9 C 92 % 1.73 C
2331 21-01-2014 06:30:00 2.9 C 91 % 1.58 C
2332 21-01-2014 06:35:00 2.9 C 91 % 1.58 C
2333 21-01-2014 06:40:00 2.9 C 91 % 1.58 C
2334 21-01-2014 06:45:00 2.9 C 91 % 1.58 C
2335 21-01-2014 06:50:00 2.9 C 91 % 1.58 C
2336 21-01-2014 06:55:00 2.9 C 91 % 1.58 C
2337 21-01-2014 07:00:00 2.9 C 91 % 1.58 C
2338 21-01-2014 07:05:00 2.9 C 91 % 1.58 C
2339 21-01-2014 07:10:00 2.9 C 91 % 1.58 C
2340 21-01-2014 07:15:00 2.9 C 91 % 1.58 C
2341 21-01-2014 07:20:00 2.9 C 91 % 1.58 C
2342 21-01-2014 07:25:00 2.9 C 91 % 1.58 C
2343 21-01-2014 07:30:00 2.8 C 92 % 1.63 C
2344 21-01-2014 07:35:00 2.8 C 92 % 1.63 C
2345 21-01-2014 07:40:00 2.8 C 92 % 1.63 C
2346 21-01-2014 07:45:00 2.8 C 92 % 1.63 C
2347 21-01-2014 07:50:00 2.7 C 93 % 1.68 C
2348 21-01-2014 07:55:00 2.7 C 93 % 1.68 C
2349 21-01-2014 08:00:00 2.7 C 93 % 1.68 C
2350 21-01-2014 08:05:00 2.7 C 93 % 1.68 C
Sensor: Nr:Datum:Temp:Feuchte:Taupunkt:
Aussen-T/F 2351 21-01-2014 08:10:00 2.7 C 93 % 1.68 C
2352 21-01-2014 08:15:00 2.7 C 93 % 1.68 C
2353 21-01-2014 08:20:00 2.7 C 93 % 1.68 C
2354 21-01-2014 08:25:00 2.7 C 93 % 1.68 C
2355 21-01-2014 08:30:00 2.7 C 93 % 1.68 C
2356 21-01-2014 08:35:00 2.7 C 93 % 1.68 C
2357 21-01-2014 08:40:00 2.7 C 93 % 1.68 C
2358 21-01-2014 08:45:00 2.7 C 93 % 1.68 C
2359 21-01-2014 08:50:00 2.7 C 93 % 1.68 C
2360 21-01-2014 08:55:00 2.7 C 93 % 1.68 C
2361 21-01-2014 09:00:00 2.7 C 94 % 1.83 C
2362 21-01-2014 09:05:00 2.7 C 94 % 1.83 C
2363 21-01-2014 09:10:00 2.8 C 94 % 1.93 C
2364 21-01-2014 09:15:00 2.8 C 94 % 1.93 C
2365 21-01-2014 09:20:00 2.8 C 94 % 1.93 C
2366 21-01-2014 09:25:00 2.8 C 94 % 1.93 C
2367 21-01-2014 09:30:00 2.8 C 94 % 1.93 C
2368 21-01-2014 09:35:00 2.8 C 94 % 1.93 C
2369 21-01-2014 09:40:00 2.8 C 94 % 1.93 C
2370 21-01-2014 09:45:00 2.9 C 94 % 2.03 C
2371 21-01-2014 09:50:00 2.9 C 94 % 2.03 C
2372 21-01-2014 09:55:00 2.9 C 94 % 2.03 C
2373 21-01-2014 10:00:00 2.9 C 93 % 1.88 C
2374 21-01-2014 10:05:00 3 C 93 % 1.98 C
2375 21-01-2014 10:10:00 3 C 93 % 1.98 C
Sensor: Nr:Datum:Temp:Feuchte:Taupunkt:
Aussen-T/F 2376 21-01-2014 10:15:00 3.1 C 93 % 2.08 C
2377 21-01-2014 10:20:00 3.1 C 93 % 2.08 C
2378 21-01-2014 10:25:00 3.1 C 93 % 2.08 C
2379 21-01-2014 10:30:00 3.2 C 93 % 2.18 C
2380 21-01-2014 10:35:00 3.2 C 93 % 2.18 C
2381 21-01-2014 10:40:00 3.2 C 92 % 2.03 C
2382 21-01-2014 10:45:00 3.2 C 92 % 2.03 C
2383 21-01-2014 10:50:00 3.2 C 92 % 2.03 C
2384 21-01-2014 10:55:00 3.2 C 92 % 2.03 C
2385 21-01-2014 11:00:00 3.3 C 92 % 2.13 C
2386 21-01-2014 11:05:00 3.3 C 93 % 2.28 C
2387 21-01-2014 11:10:00 3.3 C 92 % 2.13 C
2388 21-01-2014 11:15:00 3.3 C 92 % 2.13 C
2389 21-01-2014 11:20:00 3.3 C 93 % 2.28 C
2390 21-01-2014 11:25:00 3.3 C 93 % 2.28 C
2391 21-01-2014 11:30:00 3.3 C 93 % 2.28 C
2392 21-01-2014 11:35:00 3.3 C 93 % 2.28 C
2393 21-01-2014 11:40:00 3.3 C 93 % 2.28 C
2394 21-01-2014 11:45:00 3.3 C 93 % 2.28 C
2395 21-01-2014 11:50:00 3.3 C 93 % 2.28 C
2396 21-01-2014 11:55:00 3.3 C 93 % 2.28 C
2397 21-01-2014 12:00:00 3.3 C 94 % 2.43 C
2398 21-01-2014 12:05:00 3.3 C 94 % 2.43 C
2399 21-01-2014 12:10:00 3.3 C 93 % 2.28 C
2400 21-01-2014 12:15:00 3.3 C 93 % 2.28 C
Sensor: Nr:Datum:Temp:Feuchte:Taupunkt:
Aussen-T/F 2401 21-01-2014 12:20:00 3.3 C 93 % 2.28 C
2402 21-01-2014 12:25:00 3.3 C 93 % 2.28 C
2403 21-01-2014 12:30:00 3.4 C 93 % 2.38 C
2404 21-01-2014 12:35:00 3.4 C 93 % 2.38 C
2405 21-01-2014 12:40:00 3.4 C 93 % 2.38 C
2406 21-01-2014 12:45:00 3.5 C 93 % 2.48 C
2407 21-01-2014 12:50:00 3.5 C 93 % 2.48 C
2408 21-01-2014 12:55:00 3.6 C 93 % 2.58 C
2409 21-01-2014 13:00:00 3.6 C 92 % 2.42 C
2410 21-01-2014 13:05:00 3.7 C 92 % 2.52 C
2411 21-01-2014 13:10:00 3.7 C 92 % 2.52 C
2412 21-01-2014 13:15:00 3.8 C 91 % 2.47 C
2413 21-01-2014 13:20:00 3.8 C 91 % 2.47 C
2414 21-01-2014 13:25:00 3.9 C 91 % 2.57 C
2415 21-01-2014 13:30:00 3.9 C 91 % 2.57 C
2416 21-01-2014 13:35:00 3.9 C 91 % 2.57 C
2417 21-01-2014 13:40:00 4 C 92 % 2.82 C
2418 21-01-2014 13:45:00 4 C 91 % 2.67 C
2419 21-01-2014 13:50:00 4.1 C 91 % 2.77 C
2420 21-01-2014 13:55:00 4.1 C 91 % 2.77 C
2421 21-01-2014 14:00:00 4.1 C 91 % 2.77 C
2422 21-01-2014 14:05:00 4.1 C 91 % 2.77 C
2423 21-01-2014 14:10:00 4.1 C 91 % 2.77 C
2424 21-01-2014 14:15:00 4.2 C 91 % 2.87 C
2425 21-01-2014 14:20:00 4.2 C 91 % 2.87 C
Sensor: Nr:Datum:Temp:Feuchte:Taupunkt:
Aussen-T/F 2426 21-01-2014 14:25:00 4.2 C 91 % 2.87 C
2427 21-01-2014 14:30:00 4.2 C 91 % 2.87 C
2428 21-01-2014 14:35:00 4.2 C 91 % 2.87 C
2429 21-01-2014 14:40:00 4.2 C 91 % 2.87 C
2430 21-01-2014 14:45:00 4.2 C 91 % 2.87 C
2431 21-01-2014 14:50:00 4.2 C 91 % 2.87 C
2432 21-01-2014 14:55:00 4.2 C 91 % 2.87 C
2433 21-01-2014 15:00:00 4.2 C 91 % 2.87 C
2434 21-01-2014 15:05:00 4.3 C 91 % 2.96 C
2435 21-01-2014 15:10:00 4.3 C 91 % 2.96 C
2436 21-01-2014 15:15:00 4.3 C 91 % 2.96 C
2437 21-01-2014 15:20:00 4.3 C 91 % 2.96 C
2438 21-01-2014 15:25:00 4.3 C 91 % 2.96 C
2439 21-01-2014 15:30:00 4.3 C 91 % 2.96 C
2440 21-01-2014 15:35:00 4.2 C 90 % 2.71 C
2441 21-01-2014 15:40:00 4.2 C 91 % 2.87 C
2442 21-01-2014 15:45:00 4.2 C 91 % 2.87 C
2443 21-01-2014 15:50:00 4.1 C 91 % 2.77 C
2444 21-01-2014 15:55:00 4.1 C 91 % 2.77 C
2445 21-01-2014 16:00:00 4.1 C 91 % 2.77 C
2446 21-01-2014 16:05:00 4.1 C 92 % 2.92 C
2447 21-01-2014 16:10:00 4.1 C 92 % 2.92 C
2448 21-01-2014 16:15:00 4.1 C 92 % 2.92 C
2449 21-01-2014 16:20:00 4.1 C 93 % 3.07 C
2450 21-01-2014 16:25:00 4.1 C 93 % 3.07 C
Sensor: Nr:Datum:Temp:Feuchte:Taupunkt:
Aussen-T/F 2451 21-01-2014 16:30:00 4 C 93 % 2.97 C
2452 21-01-2014 16:35:00 4 C 93 % 2.97 C
2453 21-01-2014 16:40:00 3.9 C 93 % 2.87 C
2454 21-01-2014 16:45:00 3.9 C 93 % 2.87 C
2455 21-01-2014 16:50:00 3.9 C 94 % 3.02 C
2456 21-01-2014 16:55:00 3.9 C 94 % 3.02 C
2457 21-01-2014 17:00:00 3.9 C 94 % 3.02 C
2458 21-01-2014 17:05:00 3.9 C 94 % 3.02 C
2459 21-01-2014 17:10:00 3.9 C 94 % 3.02 C
2460 21-01-2014 17:15:00 3.9 C 94 % 3.02 C
2461 21-01-2014 17:20:00 3.8 C 94 % 2.93 C
2462 21-01-2014 17:25:00 3.8 C 94 % 2.93 C
2463 21-01-2014 17:30:00 3.8 C 95 % 3.07 C
2464 21-01-2014 17:35:00 3.8 C 95 % 3.07 C
2465 21-01-2014 17:40:00 3.8 C 95 % 3.07 C
2466 21-01-2014 17:45:00 3.8 C 95 % 3.07 C
2467 21-01-2014 17:50:00 3.8 C 95 % 3.07 C
2468 21-01-2014 17:55:00 3.8 C 95 % 3.07 C
2469 21-01-2014 18:00:00 3.8 C 95 % 3.07 C
2470 21-01-2014 18:05:00 3.8 C 95 % 3.07 C
2471 21-01-2014 18:10:00 3.8 C 95 % 3.07 C
2472 21-01-2014 18:15:00 3.8 C 96 % 3.22 C
2473 21-01-2014 18:20:00 3.8 C 96 % 3.22 C
2474 21-01-2014 18:25:00 3.8 C 96 % 3.22 C
2475 21-01-2014 18:30:00 3.8 C 96 % 3.22 C
Sensor: Nr:Datum:Temp:Feuchte:Taupunkt:
Aussen-T/F 2476 21-01-2014 18:35:00 3.8 C 96 % 3.22 C
2477 21-01-2014 18:40:00 3.8 C 96 % 3.22 C
2478 21-01-2014 18:45:00 3.8 C 96 % 3.22 C
2479 21-01-2014 18:50:00 3.8 C 96 % 3.22 C
2480 21-01-2014 18:55:00 3.8 C 96 % 3.22 C
2481 21-01-2014 19:00:00 3.8 C 96 % 3.22 C
2482 21-01-2014 19:05:00 3.8 C 96 % 3.22 C
2483 21-01-2014 19:10:00 3.9 C 96 % 3.32 C
2484 21-01-2014 19:15:00 3.9 C 96 % 3.32 C
2485 21-01-2014 19:20:00 3.9 C 96 % 3.32 C
2486 21-01-2014 19:25:00 3.9 C 96 % 3.32 C
2487 21-01-2014 19:30:00 3.9 C 96 % 3.32 C
2488 21-01-2014 19:35:00 3.9 C 96 % 3.32 C
2489 21-01-2014 19:40:00 4 C 96 % 3.42 C
2490 21-01-2014 19:45:00 3.9 C 96 % 3.32 C
2491 21-01-2014 19:50:00 3.9 C 96 % 3.32 C
2492 21-01-2014 19:55:00 4 C 96 % 3.42 C
2493 21-01-2014 20:00:00 4 C 96 % 3.42 C
2494 21-01-2014 20:05:00 4 C 96 % 3.42 C
2495 21-01-2014 20:10:00 4 C 96 % 3.42 C
2496 21-01-2014 20:15:00 4 C 96 % 3.42 C
2497 21-01-2014 20:20:00 4 C 96 % 3.42 C
2498 21-01-2014 20:25:00 4 C 96 % 3.42 C
2499 21-01-2014 20:30:00 3.9 C 96 % 3.32 C
2500 21-01-2014 20:35:00 4 C 96 % 3.42 C
Sensor: Nr:Datum:Temp:Feuchte:Taupunkt:
Aussen-T/F 2501 21-01-2014 20:40:00 4 C 96 % 3.42 C
2502 21-01-2014 20:45:00 4 C 96 % 3.42 C
2503 21-01-2014 20:50:00 3.9 C 96 % 3.32 C
2504 21-01-2014 20:55:00 3.9 C 96 % 3.32 C
2505 21-01-2014 21:00:00 3.9 C 96 % 3.32 C
2506 21-01-2014 21:05:00 3.9 C 96 % 3.32 C
2507 21-01-2014 21:10:00 3.9 C 96 % 3.32 C
2508 21-01-2014 21:15:00 3.9 C 96 % 3.32 C
2509 21-01-2014 21:20:00 3.9 C 96 % 3.32 C
2510 21-01-2014 21:25:00 3.9 C 96 % 3.32 C
2511 21-01-2014 21:30:00 3.9 C 96 % 3.32 C
2512 21-01-2014 21:35:00 3.9 C 96 % 3.32 C
2513 21-01-2014 21:40:00 3.9 C 96 % 3.32 C
2514 21-01-2014 21:45:00 3.9 C 96 % 3.32 C
2515 21-01-2014 21:50:00 3.9 C 96 % 3.32 C
2516 21-01-2014 21:55:00 3.9 C 96 % 3.32 C
2517 21-01-2014 22:00:00 3.9 C 96 % 3.32 C
2518 21-01-2014 22:05:00 3.9 C 96 % 3.32 C
2519 21-01-2014 22:10:00 3.9 C 96 % 3.32 C
2520 21-01-2014 22:15:00 3.9 C 96 % 3.32 C
2521 21-01-2014 22:20:00 3.9 C 96 % 3.32 C
2522 21-01-2014 22:25:00 3.9 C 96 % 3.32 C
2523 21-01-2014 22:30:00 3.9 C 96 % 3.32 C
2524 21-01-2014 22:35:00 3.9 C 96 % 3.32 C
2525 21-01-2014 22:40:00 3.9 C 96 % 3.32 C
Sensor: Nr:Datum:Temp:Feuchte:Taupunkt:
Aussen-T/F 2526 21-01-2014 22:45:00 3.9 C 96 % 3.32 C
2527 21-01-2014 22:50:00 3.9 C 96 % 3.32 C
2528 21-01-2014 22:55:00 3.9 C 96 % 3.32 C
2529 21-01-2014 23:00:00 3.9 C 96 % 3.32 C
2530 21-01-2014 23:05:00 3.9 C 96 % 3.32 C
2531 21-01-2014 23:10:00 3.8 C 96 % 3.22 C
2532 21-01-2014 23:15:00 3.8 C 96 % 3.22 C
2533 21-01-2014 23:20:00 3.8 C 96 % 3.22 C
2534 21-01-2014 23:25:00 3.8 C 96 % 3.22 C
2535 21-01-2014 23:30:00 3.8 C 96 % 3.22 C
2536 21-01-2014 23:35:00 3.8 C 96 % 3.22 C
2537 21-01-2014 23:40:00 3.8 C 96 % 3.22 C
2538 21-01-2014 23:45:00 3.8 C 96 % 3.22 C
2539 21-01-2014 23:50:00 3.8 C 96 % 3.22 C
2540 21-01-2014 23:55:00 3.8 C 96 % 3.22 C
2541 22-01-2014 00:00:00 3.8 C 96 % 3.22 C
2542 22-01-2014 00:05:00 3.8 C 96 % 3.22 C
2543 22-01-2014 00:10:00 3.8 C 96 % 3.22 C
2544 22-01-2014 00:15:00 3.8 C 96 % 3.22 C
2545 22-01-2014 00:20:00 3.8 C 96 % 3.22 C
2546 22-01-2014 00:25:00 3.8 C 96 % 3.22 C
2547 22-01-2014 00:30:00 3.8 C 96 % 3.22 C
2548 22-01-2014 00:35:00 3.8 C 97 % 3.37 C
2549 22-01-2014 00:40:00 3.8 C 97 % 3.37 C
2550 22-01-2014 00:45:00 3.9 C 96 % 3.32 C
Sensor: Nr:Datum:Temp:Feuchte:Taupunkt:
Aussen-T/F 2551 22-01-2014 00:50:00 3.9 C 96 % 3.32 C
2552 22-01-2014 00:55:00 3.9 C 96 % 3.32 C
2553 22-01-2014 01:00:00 3.9 C 96 % 3.32 C
2554 22-01-2014 01:05:00 3.9 C 96 % 3.32 C
2555 22-01-2014 01:10:00 3.9 C 96 % 3.32 C
2556 22-01-2014 01:15:00 3.9 C 96 % 3.32 C
2557 22-01-2014 01:20:00 3.9 C 96 % 3.32 C
2558 22-01-2014 01:25:00 3.9 C 96 % 3.32 C
2559 22-01-2014 01:30:00 3.9 C 96 % 3.32 C
2560 22-01-2014 01:35:00 3.9 C 96 % 3.32 C
2561 22-01-2014 01:40:00 3.9 C 96 % 3.32 C
2562 22-01-2014 01:45:00 3.9 C 96 % 3.32 C
2563 22-01-2014 01:50:00 4 C 96 % 3.42 C
2564 22-01-2014 01:55:00 4 C 96 % 3.42 C
2565 22-01-2014 02:00:00 4 C 97 % 3.57 C
2566 22-01-2014 02:05:00 4 C 97 % 3.57 C
2567 22-01-2014 02:10:00 4 C 97 % 3.57 C
2568 22-01-2014 02:15:00 4 C 97 % 3.57 C
2569 22-01-2014 02:20:00 4 C 97 % 3.57 C
2570 22-01-2014 02:25:00 4 C 97 % 3.57 C
2571 22-01-2014 02:30:00 4 C 97 % 3.57 C
2572 22-01-2014 02:35:00 4 C 97 % 3.57 C
2573 22-01-2014 02:40:00 4 C 97 % 3.57 C
2574 22-01-2014 02:45:00 4 C 97 % 3.57 C
2575 22-01-2014 02:50:00 4 C 97 % 3.57 C
Sensor: Nr:Datum:Temp:Feuchte:Taupunkt:
Aussen-T/F 2576 22-01-2014 02:55:00 4 C 97 % 3.57 C
2577 22-01-2014 03:00:00 4 C 97 % 3.57 C
2578 22-01-2014 03:05:00 4 C 97 % 3.57 C
2579 22-01-2014 03:10:00 4 C 97 % 3.57 C
2580 22-01-2014 03:15:00 4 C 97 % 3.57 C
2581 22-01-2014 03:20:00 4 C 97 % 3.57 C
2582 22-01-2014 03:25:00 4 C 97 % 3.57 C
2583 22-01-2014 03:30:00 4.1 C 97 % 3.67 C
2584 22-01-2014 03:35:00 4 C 97 % 3.57 C
2585 22-01-2014 03:40:00 4 C 97 % 3.57 C
2586 22-01-2014 03:45:00 4 C 97 % 3.57 C
2587 22-01-2014 03:50:00 4.1 C 97 % 3.67 C
2588 22-01-2014 03:55:00 4.1 C 97 % 3.67 C
2589 22-01-2014 04:00:00 4.1 C 97 % 3.67 C
2590 22-01-2014 04:05:00 4.1 C 97 % 3.67 C
2591 22-01-2014 04:10:00 4.1 C 97 % 3.67 C
2592 22-01-2014 04:15:00 4.1 C 97 % 3.67 C
2593 22-01-2014 04:20:00 4.1 C 97 % 3.67 C
2594 22-01-2014 04:25:00 4.1 C 97 % 3.67 C
2595 22-01-2014 04:30:00 4.1 C 97 % 3.67 C
2596 22-01-2014 04:35:00 4.1 C 97 % 3.67 C
2597 22-01-2014 04:40:00 4 C 97 % 3.57 C
2598 22-01-2014 04:45:00 4 C 96 % 3.42 C
2599 22-01-2014 04:50:00 4 C 96 % 3.42 C
2600 22-01-2014 04:55:00 3.9 C 96 % 3.32 C
Sensor: Nr:Datum:Temp:Feuchte:Taupunkt:
Aussen-T/F 2601 22-01-2014 05:00:00 3.9 C 96 % 3.32 C
2602 22-01-2014 05:05:00 3.9 C 96 % 3.32 C
2603 22-01-2014 05:10:00 3.9 C 96 % 3.32 C
2604 22-01-2014 05:15:00 3.8 C 96 % 3.22 C
2605 22-01-2014 05:20:00 3.8 C 96 % 3.22 C
2606 22-01-2014 05:25:00 3.8 C 96 % 3.22 C
2607 22-01-2014 05:30:00 3.8 C 96 % 3.22 C
2608 22-01-2014 05:35:00 3.8 C 96 % 3.22 C
2609 22-01-2014 05:40:00 3.8 C 96 % 3.22 C
2610 22-01-2014 05:45:00 3.8 C 95 % 3.07 C
2611 22-01-2014 05:50:00 3.8 C 95 % 3.07 C
2612 22-01-2014 05:55:00 3.8 C 95 % 3.07 C
2613 22-01-2014 06:00:00 3.8 C 94 % 2.93 C
2614 22-01-2014 06:05:00 3.7 C 94 % 2.83 C
2615 22-01-2014 06:10:00 3.7 C 94 % 2.83 C
2616 22-01-2014 06:15:00 3.7 C 93 % 2.68 C
2617 22-01-2014 06:20:00 3.6 C 93 % 2.58 C
2618 22-01-2014 06:25:00 3.6 C 93 % 2.58 C
2619 22-01-2014 06:30:00 3.5 C 93 % 2.48 C
2620 22-01-2014 06:35:00 3.5 C 93 % 2.48 C
2621 22-01-2014 06:40:00 3.5 C 93 % 2.48 C
2622 22-01-2014 06:45:00 3.5 C 93 % 2.48 C
2623 22-01-2014 06:50:00 3.5 C 93 % 2.48 C
2624 22-01-2014 06:55:00 3.4 C 93 % 2.38 C
2625 22-01-2014 07:00:00 3.4 C 93 % 2.38 C
Sensor: Nr:Datum:Temp:Feuchte:Taupunkt:
Aussen-T/F 2626 22-01-2014 07:05:00 3.5 C 92 % 2.33 C
2627 22-01-2014 07:10:00 3.5 C 93 % 2.48 C
2628 22-01-2014 07:15:00 3.4 C 92 % 2.23 C
2629 22-01-2014 07:20:00 3.4 C 92 % 2.23 C
2630 22-01-2014 07:25:00 3.4 C 92 % 2.23 C
2631 22-01-2014 07:30:00 3.4 C 92 % 2.23 C
2632 22-01-2014 07:35:00 3.4 C 92 % 2.23 C
2633 22-01-2014 07:40:00 3.4 C 92 % 2.23 C
2634 22-01-2014 07:45:00 3.4 C 92 % 2.23 C
2635 22-01-2014 07:50:00 3.4 C 92 % 2.23 C
2636 22-01-2014 07:55:00 3.4 C 92 % 2.23 C
2637 22-01-2014 08:00:00 3.4 C 92 % 2.23 C
2638 22-01-2014 08:05:00 3.4 C 92 % 2.23 C
2639 22-01-2014 08:10:00 3.4 C 92 % 2.23 C
2640 22-01-2014 08:15:00 3.3 C 92 % 2.13 C
2641 22-01-2014 08:20:00 3.3 C 93 % 2.28 C
2642 22-01-2014 08:25:00 3.3 C 93 % 2.28 C
2643 22-01-2014 08:30:00 3.3 C 93 % 2.28 C
2644 22-01-2014 08:35:00 3.3 C 93 % 2.28 C
2645 22-01-2014 08:40:00 3.3 C 93 % 2.28 C
2646 22-01-2014 08:45:00 3.4 C 93 % 2.38 C
2647 22-01-2014 08:50:00 3.4 C 93 % 2.38 C
2648 22-01-2014 08:55:00 3.4 C 93 % 2.38 C
2649 22-01-2014 12:20:00 4.8 C 88 % 2.99 C
2650 22-01-2014 12:25:00 4.8 C 88 % 2.99 C
Sensor: Nr:Datum:Temp:Feuchte:Taupunkt:
Aussen-T/F 2651 22-01-2014 12:30:00 4.8 C 88 % 2.99 C
2652 22-01-2014 16:50:00 3.4 C 95 % 2.68 C
2653 22-01-2014 16:55:00 3.4 C 95 % 2.68 C
2654 22-01-2014 17:00:00 3.3 C 95 % 2.58 C
2655 22-01-2014 17:05:00 3.2 C 95 % 2.48 C
2656 22-01-2014 17:10:00 3.2 C 95 % 2.48 C
2657 22-01-2014 17:15:00 3.1 C 94 % 2.23 C
2658 22-01-2014 17:20:00 3.1 C 95 % 2.38 C
2659 22-01-2014 17:25:00 3 C 95 % 2.28 C
2660 22-01-2014 17:30:00 2.9 C 94 % 2.03 C
2661 22-01-2014 17:35:00 2.8 C 95 % 2.08 C
2662 22-01-2014 17:40:00 2.8 C 95 % 2.08 C
2663 22-01-2014 17:45:00 2.8 C 95 % 2.08 C
2664 22-01-2014 17:50:00 2.8 C 95 % 2.08 C
2665 22-01-2014 17:55:00 2.7 C 95 % 1.98 C
2666 22-01-2014 18:00:00 2.8 C 95 % 2.08 C
2667 22-01-2014 18:05:00 2.8 C 95 % 2.08 C
2668 22-01-2014 18:10:00 2.8 C 95 % 2.08 C
2669 22-01-2014 18:15:00 2.8 C 95 % 2.08 C
2670 22-01-2014 18:20:00 2.8 C 95 % 2.08 C
2671 22-01-2014 18:25:00 2.7 C 95 % 1.98 C
2672 22-01-2014 18:30:00 2.7 C 95 % 1.98 C
2673 22-01-2014 18:35:00 2.7 C 95 % 1.98 C
2674 22-01-2014 18:40:00 2.6 C 95 % 1.88 C
2675 22-01-2014 18:45:00 2.5 C 95 % 1.78 C
Sensor: Nr:Datum:Temp:Feuchte:Taupunkt:
Aussen-T/F 2676 22-01-2014 18:50:00 2.4 C 95 % 1.68 C
2677 22-01-2014 18:55:00 2.4 C 95 % 1.68 C
2678 22-01-2014 19:00:00 2.4 C 95 % 1.68 C
2679 22-01-2014 19:05:00 2.4 C 95 % 1.68 C
2680 22-01-2014 19:10:00 2.3 C 95 % 1.58 C
2681 22-01-2014 19:15:00 2.3 C 95 % 1.58 C
2682 22-01-2014 19:20:00 2.3 C 96 % 1.73 C
2683 22-01-2014 19:25:00 2.3 C 96 % 1.73 C
2684 22-01-2014 19:30:00 2.3 C 96 % 1.73 C
2685 22-01-2014 19:35:00 2.2 C 96 % 1.63 C
2686 22-01-2014 19:40:00 2.2 C 96 % 1.63 C
2687 22-01-2014 19:45:00 2.2 C 96 % 1.63 C
2688 22-01-2014 19:50:00 2.1 C 96 % 1.53 C
2689 22-01-2014 19:55:00 2 C 96 % 1.43 C
2690 22-01-2014 20:00:00 1.9 C 96 % 1.33 C
2691 22-01-2014 20:05:00 1.9 C 96 % 1.33 C
2692 22-01-2014 20:10:00 1.8 C 96 % 1.23 C
2693 22-01-2014 20:15:00 1.8 C 96 % 1.23 C
2694 22-01-2014 20:20:00 1.8 C 96 % 1.23 C
2695 22-01-2014 20:25:00 1.7 C 96 % 1.13 C
2696 22-01-2014 20:30:00 1.7 C 96 % 1.13 C
2697 22-01-2014 20:35:00 1.7 C 96 % 1.13 C
2698 22-01-2014 20:40:00 1.7 C 96 % 1.13 C
2699 22-01-2014 20:45:00 1.6 C 96 % 1.03 C
2700 22-01-2014 20:50:00 1.6 C 96 % 1.03 C
Sensor: Nr:Datum:Temp:Feuchte:Taupunkt:
Aussen-T/F 2701 22-01-2014 20:55:00 1.6 C 96 % 1.03 C
2702 22-01-2014 21:00:00 1.6 C 96 % 1.03 C
2703 22-01-2014 21:05:00 1.5 C 96 % 0.93 C
2704 22-01-2014 21:10:00 1.5 C 96 % 0.93 C
2705 22-01-2014 21:15:00 1.5 C 96 % 0.93 C
2706 22-01-2014 21:20:00 1.5 C 97 % 1.08 C
2707 22-01-2014 21:25:00 1.6 C 97 % 1.18 C
2708 22-01-2014 21:30:00 1.6 C 97 % 1.18 C
2709 22-01-2014 21:35:00 1.5 C 97 % 1.08 C
2710 22-01-2014 21:40:00 1.6 C 96 % 1.03 C
2711 22-01-2014 21:45:00 1.6 C 97 % 1.18 C
2712 22-01-2014 21:50:00 1.6 C 97 % 1.18 C
2713 22-01-2014 21:55:00 1.6 C 97 % 1.18 C
2714 22-01-2014 22:00:00 1.7 C 97 % 1.28 C
2715 22-01-2014 22:05:00 1.7 C 97 % 1.28 C
2716 22-01-2014 22:10:00 1.8 C 97 % 1.38 C
2717 22-01-2014 22:15:00 1.8 C 97 % 1.38 C
2718 22-01-2014 22:20:00 1.8 C 97 % 1.38 C
2719 22-01-2014 22:25:00 1.9 C 97 % 1.48 C
2720 22-01-2014 22:30:00 1.9 C 97 % 1.48 C
2721 22-01-2014 22:35:00 1.9 C 97 % 1.48 C
2722 22-01-2014 22:40:00 1.9 C 97 % 1.48 C
2723 23-01-2014 09:35:00 3.4 C 93 % 2.38 C
2724 23-01-2014 09:40:00 3.5 C 93 % 2.48 C
2725 23-01-2014 09:45:00 3.5 C 93 % 2.48 C
Sensor: Nr:Datum:Temp:Feuchte:Taupunkt:
Aussen-T/F 2726 23-01-2014 09:50:00 3.5 C 93 % 2.48 C
2727 23-01-2014 09:55:00 3.5 C 93 % 2.48 C
2728 23-01-2014 10:00:00 3.6 C 93 % 2.58 C
2729 23-01-2014 10:05:00 3.6 C 93 % 2.58 C
2730 23-01-2014 10:10:00 3.6 C 93 % 2.58 C
2731 23-01-2014 10:40:00 3.7 C 92 % 2.52 C
2732 23-01-2014 10:45:00 3.7 C 91 % 2.37 C
2733 23-01-2014 10:50:00 3.7 C 91 % 2.37 C
2734 23-01-2014 10:55:00 3.7 C 91 % 2.37 C
2735 23-01-2014 11:00:00 3.7 C 91 % 2.37 C
2736 23-01-2014 11:05:00 3.7 C 91 % 2.37 C
2737 23-01-2014 11:10:00 3.8 C 90 % 2.31 C
2738 23-01-2014 11:15:00 3.7 C 90 % 2.22 C
2739 23-01-2014 11:20:00 3.8 C 90 % 2.31 C
2740 23-01-2014 11:25:00 3.8 C 90 % 2.31 C
2741 23-01-2014 11:30:00 3.8 C 90 % 2.31 C
2742 23-01-2014 11:55:00 4.1 C 88 % 2.3 C
2743 23-01-2014 12:00:00 4.2 C 88 % 2.39 C
2744 23-01-2014 12:05:00 4.2 C 88 % 2.39 C
2745 23-01-2014 12:10:00 4.3 C 87 % 2.33 C
2746 23-01-2014 12:15:00 4.3 C 87 % 2.33 C
2747 23-01-2014 12:20:00 4.3 C 87 % 2.33 C
2748 23-01-2014 12:25:00 4.3 C 87 % 2.33 C
2749 23-01-2014 12:30:00 4.3 C 87 % 2.33 C
2750 23-01-2014 12:35:00 4.3 C 87 % 2.33 C
Sensor: Nr:Datum:Temp:Feuchte:Taupunkt:
Aussen-T/F 2751 23-01-2014 12:40:00 4.3 C 87 % 2.33 C
2752 23-01-2014 12:45:00 4.2 C 87 % 2.23 C
2753 23-01-2014 12:50:00 4.2 C 88 % 2.39 C
2754 23-01-2014 12:55:00 4.3 C 87 % 2.33 C
2755 23-01-2014 13:00:00 4.3 C 87 % 2.33 C
2756 23-01-2014 13:05:00 4.2 C 87 % 2.23 C
2757 23-01-2014 13:10:00 4.3 C 86 % 2.17 C
2758 23-01-2014 13:15:00 4.3 C 86 % 2.17 C
2759 23-01-2014 13:20:00 4.3 C 87 % 2.33 C
2760 23-01-2014 13:25:00 4.4 C 86 % 2.27 C
2761 23-01-2014 13:30:00 4.4 C 86 % 2.27 C
2762 23-01-2014 13:35:00 4.5 C 86 % 2.37 C
2763 23-01-2014 13:40:00 4.5 C 86 % 2.37 C
2764 23-01-2014 13:45:00 4.5 C 86 % 2.37 C
2765 23-01-2014 13:50:00 4.5 C 86 % 2.37 C
2766 23-01-2014 13:55:00 4.4 C 85 % 2.11 C
2767 23-01-2014 14:00:00 4.4 C 86 % 2.27 C
2768 23-01-2014 14:05:00 4.3 C 86 % 2.17 C
2769 23-01-2014 14:10:00 4.3 C 86 % 2.17 C
2770 23-01-2014 14:15:00 4.3 C 85 % 2.01 C
2771 23-01-2014 14:20:00 4.3 C 85 % 2.01 C
2772 23-01-2014 14:25:00 4.3 C 86 % 2.17 C
2773 23-01-2014 14:30:00 4.3 C 85 % 2.01 C
2774 23-01-2014 14:35:00 4.3 C 86 % 2.17 C
2775 23-01-2014 14:40:00 4.3 C 85 % 2.01 C
Sensor: Nr:Datum:Temp:Feuchte:Taupunkt:
Aussen-T/F 2776 23-01-2014 14:45:00 4.3 C 85 % 2.01 C
2777 23-01-2014 14:50:00 4.4 C 85 % 2.11 C
2778 23-01-2014 14:55:00 4.4 C 85 % 2.11 C
2779 23-01-2014 15:00:00 4.4 C 86 % 2.27 C
2780 23-01-2014 15:05:00 4.4 C 86 % 2.27 C
2781 23-01-2014 15:10:00 4.5 C 85 % 2.2 C
2782 23-01-2014 15:15:00 4.5 C 86 % 2.37 C
2783 23-01-2014 15:20:00 4.6 C 86 % 2.47 C
2784 23-01-2014 15:25:00 4.6 C 86 % 2.47 C
2785 23-01-2014 15:30:00 4.6 C 86 % 2.47 C
2786 23-01-2014 15:35:00 4.7 C 86 % 2.56 C
2787 23-01-2014 15:40:00 4.7 C 86 % 2.56 C
2788 23-01-2014 15:45:00 4.7 C 86 % 2.56 C
2789 23-01-2014 15:50:00 4.7 C 86 % 2.56 C
2790 23-01-2014 15:55:00 4.7 C 87 % 2.73 C
2791 23-01-2014 16:00:00 4.7 C 87 % 2.73 C
2792 23-01-2014 16:05:00 4.7 C 88 % 2.89 C
2793 23-01-2014 16:10:00 4.6 C 88 % 2.79 C
2794 23-01-2014 16:15:00 4.5 C 89 % 2.85 C
2795 23-01-2014 16:20:00 4.4 C 90 % 2.91 C
2796 23-01-2014 16:25:00 4.3 C 91 % 2.96 C
2797 23-01-2014 16:30:00 4.2 C 91 % 2.87 C
2798 23-01-2014 16:35:00 4.1 C 92 % 2.92 C
2799 23-01-2014 16:40:00 3.9 C 92 % 2.72 C
2800 23-01-2014 16:45:00 3.9 C 93 % 2.87 C
Sensor: Nr:Datum:Temp:Feuchte:Taupunkt:
Aussen-T/F 2801 23-01-2014 16:50:00 3.8 C 93 % 2.77 C
2802 23-01-2014 16:55:00 3.8 C 93 % 2.77 C
2803 23-01-2014 17:00:00 3.7 C 93 % 2.68 C
2804 23-01-2014 17:05:00 3.6 C 93 % 2.58 C
2805 23-01-2014 17:10:00 3.5 C 93 % 2.48 C
2806 23-01-2014 17:15:00 3.4 C 93 % 2.38 C
2807 23-01-2014 17:20:00 3.3 C 93 % 2.28 C
2808 23-01-2014 17:25:00 3.3 C 93 % 2.28 C
2809 23-01-2014 17:30:00 3.2 C 94 % 2.33 C
2810 23-01-2014 17:35:00 3.2 C 94 % 2.33 C
2811 23-01-2014 17:40:00 3.1 C 94 % 2.23 C
2812 23-01-2014 17:45:00 3.1 C 94 % 2.23 C
2813 23-01-2014 17:50:00 3 C 95 % 2.28 C
2814 23-01-2014 17:55:00 3 C 95 % 2.28 C
2815 23-01-2014 18:00:00 2.9 C 95 % 2.18 C
2816 23-01-2014 18:05:00 2.9 C 95 % 2.18 C
2817 23-01-2014 18:10:00 2.8 C 95 % 2.08 C
2818 23-01-2014 18:15:00 2.8 C 95 % 2.08 C
2819 23-01-2014 18:20:00 2.8 C 95 % 2.08 C
2820 23-01-2014 18:25:00 2.8 C 95 % 2.08 C
2821 23-01-2014 18:30:00 2.8 C 96 % 2.23 C
2822 23-01-2014 18:35:00 2.8 C 96 % 2.23 C
2823 23-01-2014 18:40:00 2.8 C 96 % 2.23 C
2824 23-01-2014 18:45:00 2.8 C 96 % 2.23 C
2825 23-01-2014 18:50:00 2.9 C 96 % 2.33 C
Sensor: Nr:Datum:Temp:Feuchte:Taupunkt:
Aussen-T/F 2826 23-01-2014 18:55:00 2.9 C 96 % 2.33 C
2827 23-01-2014 19:00:00 3 C 96 % 2.43 C
2828 23-01-2014 19:05:00 3.1 C 96 % 2.53 C
2829 23-01-2014 19:10:00 3.1 C 96 % 2.53 C
2830 23-01-2014 19:15:00 3.1 C 96 % 2.53 C
2831 23-01-2014 19:20:00 3.1 C 96 % 2.53 C
2832 23-01-2014 19:25:00 3.1 C 96 % 2.53 C
2833 23-01-2014 19:30:00 3.2 C 97 % 2.77 C
2834 23-01-2014 19:35:00 3.2 C 97 % 2.77 C
2835 23-01-2014 19:40:00 3.2 C 97 % 2.77 C
2836 23-01-2014 19:45:00 3.2 C 97 % 2.77 C
2837 23-01-2014 19:50:00 3.2 C 97 % 2.77 C
2838 23-01-2014 19:55:00 3.2 C 97 % 2.77 C
2839 23-01-2014 20:00:00 3.3 C 97 % 2.87 C
2840 23-01-2014 20:05:00 3.3 C 97 % 2.87 C
2841 23-01-2014 20:10:00 3.3 C 97 % 2.87 C
2842 23-01-2014 20:15:00 3.3 C 97 % 2.87 C
2843 23-01-2014 20:20:00 3.3 C 97 % 2.87 C
2844 23-01-2014 20:25:00 3.3 C 97 % 2.87 C
2845 23-01-2014 20:30:00 3.3 C 97 % 2.87 C
2846 23-01-2014 20:35:00 3.3 C 97 % 2.87 C
2847 23-01-2014 20:40:00 3.3 C 97 % 2.87 C
2848 23-01-2014 20:45:00 3.3 C 97 % 2.87 C
2849 23-01-2014 20:50:00 3.3 C 97 % 2.87 C
2850 23-01-2014 20:55:00 3.3 C 97 % 2.87 C
Sensor: Nr:Datum:Temp:Feuchte:Taupunkt:
Aussen-T/F 2851 23-01-2014 21:00:00 3.3 C 97 % 2.87 C
2852 23-01-2014 21:05:00 3.3 C 97 % 2.87 C
2853 23-01-2014 21:10:00 3.3 C 97 % 2.87 C
2854 23-01-2014 21:15:00 3.3 C 97 % 2.87 C
2855 23-01-2014 21:20:00 3.3 C 97 % 2.87 C
2856 23-01-2014 21:25:00 3.3 C 97 % 2.87 C
2857 23-01-2014 21:30:00 3.4 C 97 % 2.97 C
2858 23-01-2014 21:35:00 3.4 C 97 % 2.97 C
2859 23-01-2014 21:40:00 3.4 C 97 % 2.97 C
2860 23-01-2014 21:45:00 3.4 C 97 % 2.97 C
2861 23-01-2014 21:50:00 3.4 C 97 % 2.97 C
2862 23-01-2014 21:55:00 3.4 C 97 % 2.97 C
2863 23-01-2014 22:00:00 3.4 C 97 % 2.97 C
2864 23-01-2014 22:05:00 3.5 C 97 % 3.07 C
2865 23-01-2014 22:10:00 3.5 C 97 % 3.07 C
2866 23-01-2014 22:15:00 3.5 C 97 % 3.07 C
2867 23-01-2014 22:20:00 3.5 C 97 % 3.07 C
2868 23-01-2014 22:25:00 3.5 C 97 % 3.07 C
2869 23-01-2014 22:30:00 3.6 C 97 % 3.17 C
2870 23-01-2014 22:35:00 3.6 C 97 % 3.17 C
2871 23-01-2014 22:40:00 3.6 C 97 % 3.17 C
2872 23-01-2014 22:45:00 3.6 C 97 % 3.17 C
2873 23-01-2014 22:50:00 3.6 C 97 % 3.17 C
2874 23-01-2014 22:55:00 3.6 C 97 % 3.17 C
2875 23-01-2014 23:00:00 3.6 C 97 % 3.17 C
Sensor: Nr:Datum:Temp:Feuchte:Taupunkt:
Aussen-T/F 2876 23-01-2014 23:05:00 3.6 C 97 % 3.17 C
2877 23-01-2014 23:10:00 3.6 C 97 % 3.17 C
2878 23-01-2014 23:15:00 3.6 C 97 % 3.17 C
2879 23-01-2014 23:20:00 3.6 C 97 % 3.17 C
2880 23-01-2014 23:25:00 3.6 C 97 % 3.17 C
2881 23-01-2014 23:30:00 3.6 C 97 % 3.17 C
2882 23-01-2014 23:35:00 3.6 C 97 % 3.17 C
2883 23-01-2014 23:40:00 3.6 C 97 % 3.17 C
2884 23-01-2014 23:45:00 3.6 C 97 % 3.17 C
2885 23-01-2014 23:50:00 3.6 C 97 % 3.17 C
2886 23-01-2014 23:55:00 3.5 C 97 % 3.07 C
2887 24-01-2014 00:00:00 3.4 C 97 % 2.97 C
2888 24-01-2014 00:05:00 3.3 C 97 % 2.87 C
2889 24-01-2014 00:10:00 3.3 C 97 % 2.87 C
2890 24-01-2014 00:15:00 3.2 C 96 % 2.63 C
2891 24-01-2014 00:20:00 3.1 C 96 % 2.53 C
2892 24-01-2014 00:25:00 3.1 C 96 % 2.53 C
2893 24-01-2014 00:30:00 3 C 96 % 2.43 C
2894 24-01-2014 00:35:00 2.9 C 96 % 2.33 C
2895 24-01-2014 00:40:00 2.8 C 96 % 2.23 C
2896 24-01-2014 00:45:00 2.8 C 96 % 2.23 C
2897 24-01-2014 00:50:00 2.9 C 96 % 2.33 C
2898 24-01-2014 00:55:00 2.9 C 96 % 2.33 C
2899 24-01-2014 01:00:00 2.9 C 96 % 2.33 C
2900 24-01-2014 01:05:00 2.9 C 96 % 2.33 C
Sensor: Nr:Datum:Temp:Feuchte:Taupunkt:
Aussen-T/F 2901 24-01-2014 01:10:00 2.9 C 96 % 2.33 C
2902 24-01-2014 01:15:00 2.9 C 96 % 2.33 C
2903 24-01-2014 01:20:00 2.9 C 96 % 2.33 C
2904 24-01-2014 01:25:00 2.9 C 96 % 2.33 C
2905 24-01-2014 01:30:00 3 C 96 % 2.43 C
2906 24-01-2014 01:35:00 3.1 C 96 % 2.53 C
2907 24-01-2014 01:40:00 3.1 C 96 % 2.53 C
2908 24-01-2014 01:45:00 3.2 C 96 % 2.63 C
2909 24-01-2014 01:50:00 3.2 C 96 % 2.63 C
2910 24-01-2014 01:55:00 3.3 C 96 % 2.72 C
2911 24-01-2014 02:00:00 3.3 C 96 % 2.72 C
2912 24-01-2014 02:05:00 3.4 C 96 % 2.82 C
2913 24-01-2014 02:10:00 3.5 C 96 % 2.92 C
2914 24-01-2014 02:15:00 3.6 C 96 % 3.02 C
2915 24-01-2014 02:20:00 3.7 C 96 % 3.12 C
2916 24-01-2014 02:25:00 3.8 C 95 % 3.07 C
2917 24-01-2014 02:30:00 3.9 C 95 % 3.17 C
2918 24-01-2014 02:35:00 4 C 94 % 3.12 C
2919 24-01-2014 02:40:00 4.2 C 94 % 3.32 C
2920 24-01-2014 02:45:00 4.2 C 93 % 3.17 C
2921 24-01-2014 02:50:00 4.3 C 92 % 3.12 C
2922 24-01-2014 02:55:00 4.3 C 92 % 3.12 C
2923 24-01-2014 03:00:00 4.3 C 93 % 3.27 C
2924 24-01-2014 03:05:00 4.3 C 93 % 3.27 C
2925 24-01-2014 03:10:00 4.3 C 92 % 3.12 C
Sensor: Nr:Datum:Temp:Feuchte:Taupunkt:
Aussen-T/F 2926 24-01-2014 03:15:00 4.3 C 93 % 3.27 C
2927 24-01-2014 03:20:00 4.2 C 93 % 3.17 C
2928 24-01-2014 03:25:00 4.2 C 93 % 3.17 C
2929 24-01-2014 03:30:00 4.2 C 93 % 3.17 C
2930 24-01-2014 03:35:00 4.2 C 93 % 3.17 C
2931 24-01-2014 03:40:00 4.2 C 92 % 3.02 C
2932 24-01-2014 03:45:00 4.2 C 92 % 3.02 C
2933 24-01-2014 03:50:00 4.3 C 92 % 3.12 C
2934 24-01-2014 03:55:00 4.3 C 92 % 3.12 C
2935 24-01-2014 04:00:00 4.3 C 92 % 3.12 C
2936 24-01-2014 04:05:00 4.3 C 92 % 3.12 C
2937 24-01-2014 04:10:00 4.3 C 92 % 3.12 C
2938 24-01-2014 04:15:00 4.3 C 93 % 3.27 C
2939 24-01-2014 04:20:00 4.3 C 93 % 3.27 C
2940 24-01-2014 04:25:00 4.3 C 92 % 3.12 C
2941 24-01-2014 04:30:00 4.3 C 92 % 3.12 C
2942 24-01-2014 04:35:00 4.3 C 92 % 3.12 C
2943 24-01-2014 04:40:00 4.3 C 92 % 3.12 C
2944 24-01-2014 04:45:00 4.3 C 91 % 2.96 C
2945 24-01-2014 04:50:00 4.3 C 91 % 2.96 C
2946 24-01-2014 04:55:00 4.3 C 91 % 2.96 C
2947 24-01-2014 05:00:00 4.3 C 91 % 2.96 C
2948 24-01-2014 05:05:00 4.4 C 91 % 3.06 C
2949 24-01-2014 05:10:00 4.4 C 91 % 3.06 C
2950 24-01-2014 05:15:00 4.3 C 91 % 2.96 C
Sensor: Nr:Datum:Temp:Feuchte:Taupunkt:
Aussen-T/F 2951 24-01-2014 05:20:00 4.3 C 91 % 2.96 C
2952 24-01-2014 05:25:00 4.3 C 91 % 2.96 C
2953 24-01-2014 05:30:00 4.3 C 92 % 3.12 C
2954 24-01-2014 05:35:00 4.2 C 92 % 3.02 C
2955 24-01-2014 05:40:00 4.2 C 92 % 3.02 C
2956 24-01-2014 05:45:00 4.2 C 92 % 3.02 C
2957 24-01-2014 05:50:00 4.3 C 91 % 2.96 C
2958 24-01-2014 05:55:00 4.3 C 91 % 2.96 C
2959 24-01-2014 06:00:00 4.3 C 91 % 2.96 C
2960 24-01-2014 06:05:00 4.3 C 91 % 2.96 C
2961 24-01-2014 06:10:00 4.3 C 91 % 2.96 C
2962 24-01-2014 06:15:00 4.4 C 91 % 3.06 C
2963 24-01-2014 06:20:00 4.4 C 91 % 3.06 C
2964 24-01-2014 06:25:00 4.3 C 91 % 2.96 C
2965 24-01-2014 06:30:00 4.3 C 91 % 2.96 C
2966 24-01-2014 06:35:00 4.2 C 91 % 2.87 C
2967 24-01-2014 06:40:00 4.2 C 91 % 2.87 C
2968 24-01-2014 06:45:00 4.2 C 91 % 2.87 C
2969 24-01-2014 06:50:00 4.2 C 91 % 2.87 C
2970 24-01-2014 06:55:00 4.2 C 92 % 3.02 C
2971 24-01-2014 07:00:00 4.2 C 92 % 3.02 C
2972 24-01-2014 07:05:00 4.1 C 92 % 2.92 C
2973 24-01-2014 07:10:00 4 C 92 % 2.82 C
2974 24-01-2014 07:15:00 3.9 C 92 % 2.72 C
2975 24-01-2014 07:20:00 3.8 C 92 % 2.62 C
Sensor: Nr:Datum:Temp:Feuchte:Taupunkt:
Aussen-T/F 2976 24-01-2014 07:25:00 3.7 C 92 % 2.52 C
2977 24-01-2014 07:30:00 3.7 C 92 % 2.52 C
2978 24-01-2014 07:35:00 3.7 C 92 % 2.52 C
2979 24-01-2014 07:40:00 3.7 C 93 % 2.68 C
2980 24-01-2014 07:45:00 3.7 C 93 % 2.68 C
2981 24-01-2014 07:50:00 3.7 C 93 % 2.68 C
2982 24-01-2014 07:55:00 3.7 C 93 % 2.68 C
2983 24-01-2014 08:00:00 3.7 C 93 % 2.68 C
2984 24-01-2014 08:05:00 3.7 C 92 % 2.52 C
2985 24-01-2014 08:10:00 3.8 C 92 % 2.62 C
2986 24-01-2014 08:15:00 3.8 C 92 % 2.62 C
2987 24-01-2014 08:20:00 3.8 C 92 % 2.62 C
2988 24-01-2014 08:25:00 3.8 C 92 % 2.62 C
2989 24-01-2014 08:30:00 3.8 C 92 % 2.62 C
2990 24-01-2014 08:35:00 3.8 C 92 % 2.62 C
2991 24-01-2014 08:40:00 3.9 C 91 % 2.57 C
2992 24-01-2014 08:45:00 3.9 C 91 % 2.57 C
2993 24-01-2014 08:50:00 4 C 90 % 2.51 C
2994 24-01-2014 08:55:00 4 C 90 % 2.51 C
2995 24-01-2014 09:00:00 4 C 91 % 2.67 C
2996 24-01-2014 09:05:00 4 C 90 % 2.51 C
2997 24-01-2014 09:10:00 4 C 91 % 2.67 C
2998 24-01-2014 09:15:00 3.9 C 91 % 2.57 C
2999 24-01-2014 09:20:00 3.9 C 91 % 2.57 C
3000 24-01-2014 09:25:00 3.9 C 93 % 2.87 C
Sensor: Nr:Datum:Temp:Feuchte:Taupunkt:
Aussen-T/F 3001 24-01-2014 09:30:00 3.9 C 93 % 2.87 C
3002 24-01-2014 09:35:00 3.9 C 93 % 2.87 C
3003 24-01-2014 09:40:00 3.9 C 93 % 2.87 C
3004 24-01-2014 09:45:00 3.9 C 93 % 2.87 C
3005 24-01-2014 09:50:00 4 C 93 % 2.97 C
3006 24-01-2014 09:55:00 4.1 C 93 % 3.07 C
3007 24-01-2014 10:00:00 4.1 C 93 % 3.07 C
3008 24-01-2014 10:05:00 4.1 C 93 % 3.07 C
3009 24-01-2014 10:10:00 4.1 C 93 % 3.07 C
3010 24-01-2014 10:15:00 4.2 C 91 % 2.87 C
3011 24-01-2014 10:20:00 4.3 C 91 % 2.96 C
3012 24-01-2014 10:25:00 4.3 C 91 % 2.96 C
3013 24-01-2014 10:30:00 4.3 C 92 % 3.12 C
3014 24-01-2014 10:35:00 4.3 C 92 % 3.12 C
3015 24-01-2014 10:40:00 4.3 C 93 % 3.27 C
3016 24-01-2014 10:45:00 4.3 C 93 % 3.27 C
3017 24-01-2014 10:50:00 4.3 C 93 % 3.27 C
3018 24-01-2014 12:40:00 4.8 C 89 % 3.14 C
3019 24-01-2014 12:45:00 4.8 C 89 % 3.14 C
3020 24-01-2014 12:50:00 4.8 C 89 % 3.14 C
3021 24-01-2014 12:55:00 4.8 C 90 % 3.3 C
3022 24-01-2014 13:00:00 4.8 C 90 % 3.3 C
3023 24-01-2014 13:05:00 4.8 C 90 % 3.3 C
3024 24-01-2014 13:10:00 4.8 C 90 % 3.3 C
3025 24-01-2014 14:40:00 4.7 C 90 % 3.2 C
Sensor: Nr:Datum:Temp:Feuchte:Taupunkt:
Aussen-T/F 3026 24-01-2014 14:45:00 4.7 C 90 % 3.2 C
3027 24-01-2014 14:50:00 4.7 C 90 % 3.2 C
3028 24-01-2014 14:55:00 4.7 C 90 % 3.2 C
3029 24-01-2014 15:00:00 4.7 C 90 % 3.2 C
3030 24-01-2014 15:05:00 4.7 C 90 % 3.2 C
3031 24-01-2014 15:10:00 4.7 C 90 % 3.2 C
3032 24-01-2014 15:15:00 4.7 C 90 % 3.2 C
3033 24-01-2014 15:20:00 4.7 C 90 % 3.2 C
3034 24-01-2014 17:35:00 4.1 C 95 % 3.37 C
3035 24-01-2014 17:40:00 4.1 C 95 % 3.37 C
3036 24-01-2014 17:45:00 4.1 C 95 % 3.37 C
3037 24-01-2014 17:50:00 4.1 C 95 % 3.37 C
3038 24-01-2014 17:55:00 4.1 C 95 % 3.37 C
3039 24-01-2014 18:00:00 4.1 C 95 % 3.37 C
3040 24-01-2014 18:05:00 4.1 C 95 % 3.37 C
3041 24-01-2014 18:10:00 4.1 C 95 % 3.37 C
3042 24-01-2014 18:15:00 4.1 C 95 % 3.37 C
3043 24-01-2014 18:20:00 4.1 C 95 % 3.37 C
3044 24-01-2014 18:25:00 4.1 C 95 % 3.37 C
3045 24-01-2014 18:30:00 4.1 C 95 % 3.37 C
3046 24-01-2014 18:35:00 4.1 C 95 % 3.37 C
3047 24-01-2014 18:40:00 4.1 C 95 % 3.37 C
3048 24-01-2014 18:45:00 4.1 C 95 % 3.37 C
3049 24-01-2014 18:50:00 4.1 C 95 % 3.37 C
3050 24-01-2014 18:55:00 4.1 C 95 % 3.37 C
Sensor: Nr:Datum:Temp:Feuchte:Taupunkt:
Aussen-T/F 3051 24-01-2014 19:00:00 4 C 95 % 3.27 C
3052 24-01-2014 19:05:00 4 C 95 % 3.27 C
3053 24-01-2014 19:10:00 4 C 95 % 3.27 C
3054 24-01-2014 19:15:00 4 C 95 % 3.27 C
3055 24-01-2014 19:20:00 4 C 95 % 3.27 C
3056 24-01-2014 19:25:00 3.9 C 95 % 3.17 C
3057 24-01-2014 19:30:00 3.9 C 95 % 3.17 C
3058 24-01-2014 19:35:00 3.9 C 95 % 3.17 C
3059 24-01-2014 19:40:00 3.9 C 95 % 3.17 C
3060 24-01-2014 19:45:00 3.9 C 95 % 3.17 C
3061 24-01-2014 19:50:00 3.9 C 95 % 3.17 C
3062 24-01-2014 19:55:00 3.9 C 95 % 3.17 C
3063 24-01-2014 20:00:00 3.9 C 95 % 3.17 C
3064 24-01-2014 20:05:00 3.9 C 95 % 3.17 C
3065 24-01-2014 20:10:00 3.9 C 95 % 3.17 C
3066 24-01-2014 20:15:00 3.9 C 95 % 3.17 C
3067 24-01-2014 20:20:00 3.9 C 95 % 3.17 C
3068 24-01-2014 20:25:00 3.9 C 95 % 3.17 C
3069 24-01-2014 20:30:00 3.9 C 95 % 3.17 C
3070 24-01-2014 20:35:00 3.8 C 95 % 3.07 C
3071 24-01-2014 20:40:00 3.8 C 95 % 3.07 C
3072 24-01-2014 20:45:00 3.8 C 96 % 3.22 C
3073 24-01-2014 20:50:00 3.8 C 96 % 3.22 C
3074 24-01-2014 20:55:00 3.8 C 96 % 3.22 C
3075 24-01-2014 21:00:00 3.8 C 96 % 3.22 C
Sensor: Nr:Datum:Temp:Feuchte:Taupunkt:
Aussen-T/F 3076 24-01-2014 21:05:00 3.7 C 95 % 2.98 C
3077 24-01-2014 21:10:00 3.7 C 95 % 2.98 C
3078 24-01-2014 21:15:00 3.7 C 95 % 2.98 C
3079 24-01-2014 21:20:00 3.7 C 96 % 3.12 C
3080 24-01-2014 21:25:00 3.7 C 96 % 3.12 C
3081 24-01-2014 21:30:00 3.7 C 96 % 3.12 C
3082 24-01-2014 21:35:00 3.6 C 96 % 3.02 C
3083 24-01-2014 21:40:00 3.6 C 95 % 2.88 C
3084 24-01-2014 21:45:00 3.6 C 96 % 3.02 C
3085 24-01-2014 21:50:00 3.6 C 96 % 3.02 C
3086 24-01-2014 21:55:00 3.6 C 96 % 3.02 C
3087 24-01-2014 22:00:00 3.6 C 96 % 3.02 C
3088 24-01-2014 22:05:00 3.6 C 96 % 3.02 C
3089 24-01-2014 22:10:00 3.6 C 96 % 3.02 C
3090 24-01-2014 22:15:00 3.6 C 96 % 3.02 C
3091 24-01-2014 22:20:00 3.5 C 96 % 2.92 C
3092 24-01-2014 22:25:00 3.5 C 96 % 2.92 C
3093 24-01-2014 22:30:00 3.5 C 96 % 2.92 C
3094 24-01-2014 22:35:00 3.5 C 96 % 2.92 C
3095 24-01-2014 22:40:00 3.4 C 96 % 2.82 C
3096 24-01-2014 22:45:00 3.4 C 96 % 2.82 C
3097 24-01-2014 22:50:00 3.4 C 96 % 2.82 C
3098 24-01-2014 22:55:00 3.4 C 96 % 2.82 C
3099 24-01-2014 23:00:00 3.4 C 96 % 2.82 C
3100 24-01-2014 23:05:00 3.4 C 96 % 2.82 C
Sensor: Nr:Datum:Temp:Feuchte:Taupunkt:
Aussen-T/F 3101 24-01-2014 23:10:00 3.3 C 96 % 2.72 C
3102 24-01-2014 23:15:00 3.3 C 96 % 2.72 C
3103 24-01-2014 23:20:00 3.2 C 96 % 2.63 C
3104 24-01-2014 23:25:00 3.2 C 96 % 2.63 C
3105 24-01-2014 23:30:00 3.2 C 96 % 2.63 C
3106 24-01-2014 23:35:00 3.1 C 96 % 2.53 C
3107 24-01-2014 23:40:00 3.1 C 96 % 2.53 C
3108 24-01-2014 23:45:00 3.1 C 96 % 2.53 C
3109 24-01-2014 23:50:00 3.1 C 96 % 2.53 C
3110 24-01-2014 23:55:00 3.1 C 96 % 2.53 C
3111 25-01-2014 00:00:00 3.1 C 96 % 2.53 C
3112 25-01-2014 00:05:00 3.2 C 96 % 2.63 C
3113 25-01-2014 00:10:00 3.2 C 96 % 2.63 C
3114 25-01-2014 00:15:00 3.2 C 96 % 2.63 C
3115 25-01-2014 00:20:00 3.2 C 96 % 2.63 C
3116 25-01-2014 00:25:00 3.2 C 96 % 2.63 C
3117 25-01-2014 00:30:00 3.1 C 96 % 2.53 C
3118 25-01-2014 00:35:00 3.1 C 96 % 2.53 C
3119 25-01-2014 00:40:00 3.1 C 96 % 2.53 C
3120 25-01-2014 00:45:00 3.1 C 96 % 2.53 C
3121 25-01-2014 00:50:00 3.1 C 96 % 2.53 C
3122 25-01-2014 00:55:00 3.1 C 96 % 2.53 C
3123 25-01-2014 01:00:00 3.1 C 96 % 2.53 C
3124 25-01-2014 01:05:00 3.1 C 96 % 2.53 C
3125 25-01-2014 01:10:00 3.1 C 96 % 2.53 C
Sensor: Nr:Datum:Temp:Feuchte:Taupunkt:
Aussen-T/F 3126 25-01-2014 01:15:00 3.1 C 96 % 2.53 C
3127 25-01-2014 01:20:00 3.1 C 96 % 2.53 C
3128 25-01-2014 01:25:00 3.1 C 96 % 2.53 C
3129 25-01-2014 01:30:00 3.1 C 96 % 2.53 C
3130 25-01-2014 01:35:00 3.1 C 96 % 2.53 C
3131 25-01-2014 01:40:00 3.1 C 96 % 2.53 C
3132 25-01-2014 01:45:00 3.1 C 96 % 2.53 C
3133 25-01-2014 01:50:00 3.1 C 96 % 2.53 C
3134 25-01-2014 01:55:00 3.1 C 96 % 2.53 C
3135 25-01-2014 02:00:00 3.1 C 96 % 2.53 C
3136 25-01-2014 02:05:00 3.1 C 96 % 2.53 C
3137 25-01-2014 02:10:00 3.2 C 96 % 2.63 C
3138 25-01-2014 02:15:00 3.2 C 96 % 2.63 C
3139 25-01-2014 02:20:00 3.2 C 96 % 2.63 C
3140 25-01-2014 02:25:00 3.2 C 96 % 2.63 C
3141 25-01-2014 02:30:00 3.2 C 96 % 2.63 C
3142 25-01-2014 02:35:00 3.2 C 96 % 2.63 C
3143 25-01-2014 02:40:00 3.2 C 96 % 2.63 C
3144 25-01-2014 02:45:00 3.2 C 96 % 2.63 C
3145 25-01-2014 02:50:00 3.2 C 96 % 2.63 C
3146 25-01-2014 02:55:00 3.2 C 96 % 2.63 C
3147 25-01-2014 03:00:00 3.1 C 96 % 2.53 C
3148 25-01-2014 03:05:00 3.1 C 96 % 2.53 C
3149 25-01-2014 03:10:00 3 C 96 % 2.43 C
3150 25-01-2014 03:15:00 2.9 C 96 % 2.33 C
Sensor: Nr:Datum:Temp:Feuchte:Taupunkt:
Aussen-T/F 3151 25-01-2014 03:20:00 2.9 C 96 % 2.33 C
3152 25-01-2014 03:25:00 2.8 C 96 % 2.23 C
3153 25-01-2014 03:30:00 2.7 C 96 % 2.13 C
3154 25-01-2014 03:35:00 2.4 C 95 % 1.68 C
3155 25-01-2014 03:40:00 2.2 C 96 % 1.63 C
3156 25-01-2014 03:45:00 2.1 C 96 % 1.53 C
3157 25-01-2014 03:50:00 1.9 C 96 % 1.33 C
3158 25-01-2014 03:55:00 1.8 C 96 % 1.23 C
3159 25-01-2014 04:00:00 1.7 C 96 % 1.13 C
3160 25-01-2014 04:05:00 1.6 C 96 % 1.03 C
3161 25-01-2014 04:10:00 1.6 C 96 % 1.03 C
3162 25-01-2014 04:15:00 1.6 C 96 % 1.03 C
3163 25-01-2014 04:20:00 1.6 C 96 % 1.03 C
3164 25-01-2014 04:25:00 1.5 C 96 % 0.93 C
3165 25-01-2014 04:30:00 1.4 C 96 % 0.83 C
3166 25-01-2014 04:35:00 1.4 C 96 % 0.83 C
3167 25-01-2014 04:40:00 1.4 C 96 % 0.83 C
3168 25-01-2014 04:45:00 1.4 C 96 % 0.83 C
3169 25-01-2014 04:50:00 1.4 C 97 % 0.98 C
3170 25-01-2014 04:55:00 1.4 C 97 % 0.98 C
3171 25-01-2014 05:00:00 1.4 C 97 % 0.98 C
3172 25-01-2014 05:05:00 1.4 C 97 % 0.98 C
3173 25-01-2014 05:10:00 1.5 C 97 % 1.08 C
3174 25-01-2014 05:15:00 1.6 C 97 % 1.18 C
3175 25-01-2014 05:20:00 1.7 C 97 % 1.28 C
Sensor: Nr:Datum:Temp:Feuchte:Taupunkt:
Aussen-T/F 3176 25-01-2014 05:25:00 1.8 C 97 % 1.38 C
3177 25-01-2014 05:30:00 1.9 C 97 % 1.48 C
3178 25-01-2014 05:35:00 1.9 C 97 % 1.48 C
3179 25-01-2014 05:40:00 2 C 97 % 1.58 C
3180 25-01-2014 05:45:00 2.1 C 97 % 1.67 C
3181 25-01-2014 05:50:00 2.2 C 97 % 1.77 C
3182 25-01-2014 05:55:00 2.2 C 97 % 1.77 C
3183 25-01-2014 06:00:00 2.2 C 97 % 1.77 C
3184 25-01-2014 06:05:00 2.2 C 97 % 1.77 C
3185 25-01-2014 06:10:00 2.3 C 97 % 1.87 C
3186 25-01-2014 06:15:00 2.3 C 97 % 1.87 C
3187 25-01-2014 06:20:00 2.3 C 97 % 1.87 C
3188 25-01-2014 06:25:00 2.3 C 97 % 1.87 C
3189 25-01-2014 06:30:00 2.3 C 97 % 1.87 C
3190 25-01-2014 06:35:00 2.4 C 97 % 1.97 C
3191 25-01-2014 06:40:00 2.4 C 97 % 1.97 C
3192 25-01-2014 06:45:00 2.4 C 97 % 1.97 C
3193 25-01-2014 06:50:00 2.4 C 97 % 1.97 C
3194 25-01-2014 06:55:00 2.4 C 97 % 1.97 C
3195 25-01-2014 07:00:00 2.4 C 97 % 1.97 C
3196 25-01-2014 07:05:00 2.4 C 97 % 1.97 C
3197 25-01-2014 07:10:00 2.4 C 97 % 1.97 C
3198 25-01-2014 07:15:00 2.3 C 97 % 1.87 C
3199 25-01-2014 07:20:00 2.3 C 97 % 1.87 C
3200 25-01-2014 07:25:00 2.3 C 97 % 1.87 C
Sensor: Nr:Datum:Temp:Feuchte:Taupunkt:
Aussen-T/F 3201 25-01-2014 07:30:00 2.3 C 97 % 1.87 C
3202 25-01-2014 07:35:00 2.3 C 97 % 1.87 C
3203 25-01-2014 07:40:00 2.2 C 97 % 1.77 C
3204 25-01-2014 07:45:00 2.2 C 97 % 1.77 C
3205 25-01-2014 07:50:00 2.2 C 97 % 1.77 C
3206 25-01-2014 07:55:00 2.2 C 97 % 1.77 C
3207 25-01-2014 08:00:00 2.1 C 97 % 1.67 C
3208 25-01-2014 08:05:00 2 C 96 % 1.43 C
3209 25-01-2014 08:10:00 1.9 C 97 % 1.48 C
3210 25-01-2014 08:15:00 1.9 C 97 % 1.48 C
3211 25-01-2014 08:20:00 1.9 C 97 % 1.48 C
3212 25-01-2014 08:25:00 1.9 C 97 % 1.48 C
3213 25-01-2014 08:30:00 1.9 C 97 % 1.48 C
3214 25-01-2014 08:35:00 1.9 C 97 % 1.48 C
3215 25-01-2014 08:40:00 1.9 C 97 % 1.48 C
3216 25-01-2014 08:45:00 1.9 C 97 % 1.48 C
3217 25-01-2014 08:50:00 1.9 C 97 % 1.48 C
3218 25-01-2014 08:55:00 2 C 97 % 1.58 C
3219 25-01-2014 09:00:00 2 C 97 % 1.58 C
3220 25-01-2014 09:05:00 2.1 C 97 % 1.67 C
3221 25-01-2014 09:10:00 2.1 C 97 % 1.67 C
3222 25-01-2014 09:15:00 2.1 C 97 % 1.67 C
3223 25-01-2014 09:20:00 2.2 C 97 % 1.77 C
3224 25-01-2014 09:25:00 2.2 C 97 % 1.77 C
3225 25-01-2014 09:30:00 2.2 C 97 % 1.77 C
Sensor: Nr:Datum:Temp:Feuchte:Taupunkt:
Aussen-T/F 3226 25-01-2014 09:35:00 2.2 C 97 % 1.77 C
3227 25-01-2014 09:40:00 2.2 C 96 % 1.63 C
3228 25-01-2014 09:45:00 2.2 C 96 % 1.63 C
3229 25-01-2014 09:50:00 2.3 C 96 % 1.73 C
3230 25-01-2014 09:55:00 2.3 C 96 % 1.73 C
3231 25-01-2014 10:00:00 2.3 C 96 % 1.73 C
3232 25-01-2014 10:05:00 2.3 C 96 % 1.73 C
3233 25-01-2014 10:10:00 2.4 C 96 % 1.83 C
3234 25-01-2014 10:15:00 2.4 C 96 % 1.83 C
3235 25-01-2014 10:20:00 2.5 C 96 % 1.93 C
3236 25-01-2014 10:25:00 2.5 C 96 % 1.93 C
3237 25-01-2014 10:30:00 2.6 C 95 % 1.88 C
3238 25-01-2014 10:35:00 2.6 C 95 % 1.88 C
3239 25-01-2014 10:40:00 2.6 C 95 % 1.88 C
3240 25-01-2014 10:45:00 2.7 C 95 % 1.98 C
3241 25-01-2014 10:50:00 2.7 C 95 % 1.98 C
3242 25-01-2014 10:55:00 2.7 C 95 % 1.98 C
3243 25-01-2014 11:00:00 2.8 C 95 % 2.08 C
3244 25-01-2014 11:05:00 2.8 C 95 % 2.08 C
3245 25-01-2014 11:10:00 3 C 95 % 2.28 C
3246 25-01-2014 11:15:00 3.1 C 95 % 2.38 C
3247 25-01-2014 11:20:00 3.2 C 94 % 2.33 C
3248 25-01-2014 11:25:00 3.2 C 94 % 2.33 C
3249 25-01-2014 11:30:00 3.2 C 94 % 2.33 C
3250 25-01-2014 11:35:00 3.3 C 94 % 2.43 C
Sensor: Nr:Datum:Temp:Feuchte:Taupunkt:
Aussen-T/F 3251 25-01-2014 11:40:00 3.3 C 94 % 2.43 C
3252 25-01-2014 11:45:00 3.4 C 93 % 2.38 C
3253 25-01-2014 11:50:00 3.4 C 93 % 2.38 C
3254 25-01-2014 11:55:00 3.5 C 93 % 2.48 C
3255 25-01-2014 12:00:00 3.6 C 93 % 2.58 C
3256 25-01-2014 12:05:00 3.6 C 93 % 2.58 C
3257 25-01-2014 12:10:00 3.6 C 93 % 2.58 C
3258 25-01-2014 12:15:00 3.6 C 92 % 2.42 C
3259 25-01-2014 12:20:00 3.7 C 92 % 2.52 C
3260 25-01-2014 12:25:00 3.7 C 92 % 2.52 C
3261 25-01-2014 12:30:00 3.7 C 93 % 2.68 C
3262 25-01-2014 12:35:00 3.8 C 93 % 2.77 C
3263 25-01-2014 12:40:00 3.8 C 92 % 2.62 C
3264 25-01-2014 12:45:00 3.9 C 92 % 2.72 C
3265 25-01-2014 12:50:00 4.1 C 92 % 2.92 C
3266 25-01-2014 12:55:00 4.2 C 91 % 2.87 C
3267 25-01-2014 13:00:00 4.2 C 90 % 2.71 C
3268 25-01-2014 13:05:00 4.3 C 91 % 2.96 C
3269 25-01-2014 13:10:00 4.3 C 90 % 2.81 C
3270 25-01-2014 13:15:00 4.3 C 91 % 2.96 C
3271 25-01-2014 13:20:00 4.3 C 90 % 2.81 C
3272 25-01-2014 13:25:00 4.4 C 90 % 2.91 C
3273 25-01-2014 13:30:00 4.4 C 90 % 2.91 C
3274 25-01-2014 13:35:00 4.4 C 90 % 2.91 C
3275 25-01-2014 13:40:00 4.5 C 90 % 3.01 C
Sensor: Nr:Datum:Temp:Feuchte:Taupunkt:
Aussen-T/F 3276 25-01-2014 13:45:00 4.5 C 90 % 3.01 C
3277 25-01-2014 13:50:00 4.7 C 89 % 3.05 C
3278 25-01-2014 13:55:00 4.7 C 88 % 2.89 C
3279 25-01-2014 14:00:00 4.8 C 89 % 3.14 C
3280 25-01-2014 14:05:00 4.8 C 89 % 3.14 C
3281 25-01-2014 14:10:00 4.8 C 89 % 3.14 C
3282 25-01-2014 14:15:00 4.8 C 89 % 3.14 C
3283 25-01-2014 17:35:00 3.3 C 100 % 3.3 C
3284 25-01-2014 17:40:00 3.2 C 91 % 1.88 C
3285 25-01-2014 17:45:00 3.2 C 91 % 1.88 C
3286 25-01-2014 17:50:00 3.2 C 92 % 2.03 C
3287 25-01-2014 17:55:00 3.2 C 92 % 2.03 C
3288 25-01-2014 18:00:00 3.2 C 92 % 2.03 C
3289 25-01-2014 18:05:00 3.3 C 92 % 2.13 C
3290 25-01-2014 18:10:00 3.3 C 93 % 2.28 C
3291 25-01-2014 18:15:00 3.3 C 93 % 2.28 C
3292 25-01-2014 18:20:00 3.2 C 93 % 2.18 C
3293 25-01-2014 18:25:00 3.2 C 93 % 2.18 C
3294 25-01-2014 18:30:00 3.2 C 93 % 2.18 C
3295 25-01-2014 18:35:00 3.2 C 93 % 2.18 C
3296 25-01-2014 22:45:00 3.9 C 85 % 1.61 C
3297 25-01-2014 22:50:00 3.6 C 87 % 1.64 C
3298 25-01-2014 22:55:00 3.3 C 88 % 1.51 C
3299 25-01-2014 23:00:00 3.1 C 90 % 1.62 C
3300 25-01-2014 23:05:00 3.1 C 91 % 1.78 C
Sensor: Nr:Datum:Temp:Feuchte:Taupunkt:
Aussen-T/F 3301 25-01-2014 23:10:00 3 C 91 % 1.68 C
3302 25-01-2014 23:15:00 3 C 91 % 1.68 C
3303 25-01-2014 23:20:00 2.9 C 91 % 1.58 C
3304 25-01-2014 23:25:00 2.9 C 92 % 1.73 C
3305 25-01-2014 23:30:00 2.9 C 92 % 1.73 C
3306 25-01-2014 23:35:00 2.8 C 92 % 1.63 C
3307 25-01-2014 23:40:00 2.9 C 92 % 1.73 C
3308 25-01-2014 23:45:00 3 C 93 % 1.98 C
3309 25-01-2014 23:50:00 3.2 C 92 % 2.03 C
3310 25-01-2014 23:55:00 3.3 C 91 % 1.98 C
3311 26-01-2014 00:00:00 3.4 C 91 % 2.07 C
3312 26-01-2014 00:05:00 3.3 C 91 % 1.98 C
3313 26-01-2014 00:10:00 3.3 C 91 % 1.98 C
3314 26-01-2014 00:15:00 3.2 C 92 % 2.03 C
3315 26-01-2014 00:20:00 3.1 C 92 % 1.93 C
3316 26-01-2014 00:25:00 3 C 93 % 1.98 C
3317 26-01-2014 00:30:00 2.9 C 93 % 1.88 C
3318 26-01-2014 00:35:00 2.8 C 93 % 1.78 C
3319 26-01-2014 00:40:00 2.8 C 94 % 1.93 C
3320 26-01-2014 00:45:00 2.8 C 94 % 1.93 C
3321 26-01-2014 00:50:00 2.8 C 94 % 1.93 C
3322 26-01-2014 00:55:00 2.8 C 94 % 1.93 C
3323 26-01-2014 01:00:00 2.9 C 94 % 2.03 C
3324 26-01-2014 01:05:00 3 C 94 % 2.13 C
3325 26-01-2014 01:10:00 3.1 C 94 % 2.23 C
Sensor: Nr:Datum:Temp:Feuchte:Taupunkt:
Aussen-T/F 3326 26-01-2014 01:15:00 3.2 C 94 % 2.33 C
3327 26-01-2014 01:20:00 3.3 C 94 % 2.43 C
3328 26-01-2014 01:25:00 3.5 C 93 % 2.48 C
3329 26-01-2014 01:30:00 3.6 C 93 % 2.58 C
3330 26-01-2014 01:35:00 3.6 C 93 % 2.58 C
3331 26-01-2014 01:40:00 3.7 C 93 % 2.68 C
3332 26-01-2014 01:45:00 3.7 C 93 % 2.68 C
3333 26-01-2014 01:50:00 3.6 C 93 % 2.58 C
3334 26-01-2014 01:55:00 3.6 C 94 % 2.73 C
3335 26-01-2014 02:00:00 3.6 C 94 % 2.73 C
3336 26-01-2014 02:05:00 3.6 C 94 % 2.73 C
3337 26-01-2014 02:10:00 3.6 C 95 % 2.88 C
3338 26-01-2014 02:15:00 3.7 C 94 % 2.83 C
3339 26-01-2014 02:20:00 4 C 93 % 2.97 C
3340 26-01-2014 02:25:00 4.3 C 91 % 2.96 C
3341 26-01-2014 02:30:00 4.6 C 90 % 3.1 C
3342 26-01-2014 02:35:00 4.7 C 89 % 3.05 C
3343 26-01-2014 02:40:00 4.8 C 88 % 2.99 C
3344 26-01-2014 02:45:00 4.8 C 88 % 2.99 C
3345 26-01-2014 02:50:00 4.8 C 88 % 2.99 C
3346 26-01-2014 02:55:00 4.9 C 88 % 3.08 C
3347 26-01-2014 03:00:00 4.9 C 87 % 2.92 C
3348 26-01-2014 03:05:00 4.8 C 88 % 2.99 C
3349 26-01-2014 03:10:00 4.8 C 88 % 2.99 C
3350 26-01-2014 03:15:00 4.8 C 88 % 2.99 C
Sensor: Nr:Datum:Temp:Feuchte:Taupunkt:
Aussen-T/F 3351 26-01-2014 03:20:00 4.9 C 88 % 3.08 C
3352 26-01-2014 03:25:00 5 C 87 % 3.02 C
3353 26-01-2014 03:30:00 5.1 C 87 % 3.12 C
3354 26-01-2014 03:35:00 5.1 C 86 % 2.96 C
3355 26-01-2014 03:40:00 5.2 C 86 % 3.05 C
3356 26-01-2014 03:45:00 5.2 C 85 % 2.89 C
3357 26-01-2014 03:50:00 5.3 C 85 % 2.99 C
3358 26-01-2014 03:55:00 5.4 C 84 % 2.92 C
3359 26-01-2014 04:00:00 5.4 C 84 % 2.92 C
3360 26-01-2014 04:05:00 5.6 C 83 % 2.95 C
3361 26-01-2014 04:10:00 5.6 C 83 % 2.95 C
3362 26-01-2014 04:15:00 5.6 C 84 % 3.12 C
3363 26-01-2014 04:20:00 5.4 C 85 % 3.09 C
3364 26-01-2014 04:25:00 5.2 C 86 % 3.05 C
3365 26-01-2014 04:30:00 5.1 C 87 % 3.12 C
3366 26-01-2014 04:35:00 5.1 C 86 % 2.96 C
3367 26-01-2014 04:40:00 5.1 C 86 % 2.96 C
3368 26-01-2014 04:45:00 5.2 C 85 % 2.89 C
3369 26-01-2014 04:50:00 5.4 C 83 % 2.75 C
3370 26-01-2014 04:55:00 5.6 C 83 % 2.95 C
3371 26-01-2014 05:00:00 5.7 C 82 % 2.87 C
3372 26-01-2014 05:05:00 5.8 C 81 % 2.8 C
3373 26-01-2014 05:10:00 5.8 C 80 % 2.62 C
3374 26-01-2014 05:15:00 5.9 C 80 % 2.72 C
3375 26-01-2014 05:20:00 5.9 C 80 % 2.72 C
Sensor: Nr:Datum:Temp:Feuchte:Taupunkt:
Aussen-T/F 3376 26-01-2014 05:25:00 5.9 C 79 % 2.54 C
3377 26-01-2014 05:30:00 5.9 C 80 % 2.72 C
3378 26-01-2014 05:35:00 5.9 C 79 % 2.54 C
3379 26-01-2014 05:40:00 5.9 C 80 % 2.72 C
3380 26-01-2014 05:45:00 6 C 80 % 2.82 C
3381 26-01-2014 05:50:00 6 C 79 % 2.64 C
3382 26-01-2014 05:55:00 6.1 C 79 % 2.74 C
3383 26-01-2014 06:00:00 6.1 C 79 % 2.74 C
3384 26-01-2014 06:05:00 6.1 C 79 % 2.74 C
3385 26-01-2014 06:10:00 6.1 C 80 % 2.92 C
3386 26-01-2014 06:15:00 6 C 80 % 2.82 C
3387 26-01-2014 06:20:00 5.9 C 80 % 2.72 C
3388 26-01-2014 06:25:00 6 C 79 % 2.64 C
3389 26-01-2014 06:30:00 6.1 C 79 % 2.74 C
3390 26-01-2014 06:35:00 6 C 79 % 2.64 C
3391 26-01-2014 06:40:00 6 C 79 % 2.64 C
3392 26-01-2014 06:45:00 6 C 79 % 2.64 C
3393 26-01-2014 06:50:00 6 C 80 % 2.82 C
3394 26-01-2014 06:55:00 5.9 C 80 % 2.72 C
3395 26-01-2014 07:00:00 5.9 C 80 % 2.72 C
3396 26-01-2014 07:05:00 6 C 79 % 2.64 C
3397 26-01-2014 07:10:00 6.1 C 79 % 2.74 C
3398 26-01-2014 07:15:00 6.1 C 79 % 2.74 C
3399 26-01-2014 07:20:00 6.1 C 79 % 2.74 C
3400 26-01-2014 07:25:00 6.1 C 78 % 2.56 C
Sensor: Nr:Datum:Temp:Feuchte:Taupunkt:
Aussen-T/F 3401 26-01-2014 07:30:00 6.1 C 79 % 2.74 C
3402 26-01-2014 07:35:00 6.1 C 79 % 2.74 C
3403 26-01-2014 07:40:00 6 C 79 % 2.64 C
3404 26-01-2014 07:45:00 6 C 80 % 2.82 C
3405 26-01-2014 07:50:00 5.9 C 80 % 2.72 C
3406 26-01-2014 07:55:00 5.9 C 80 % 2.72 C
3407 26-01-2014 08:00:00 5.9 C 79 % 2.54 C
3408 26-01-2014 08:05:00 5.9 C 80 % 2.72 C
3409 26-01-2014 08:10:00 5.8 C 80 % 2.62 C
3410 26-01-2014 08:15:00 5.8 C 80 % 2.62 C
3411 26-01-2014 08:20:00 5.8 C 80 % 2.62 C
3412 26-01-2014 08:25:00 5.9 C 80 % 2.72 C
3413 26-01-2014 08:30:00 5.8 C 80 % 2.62 C
3414 26-01-2014 08:35:00 5.8 C 80 % 2.62 C
3415 26-01-2014 08:40:00 5.8 C 80 % 2.62 C
3416 26-01-2014 08:45:00 5.7 C 81 % 2.7 C
3417 26-01-2014 08:50:00 5.7 C 81 % 2.7 C
3418 26-01-2014 08:55:00 5.7 C 81 % 2.7 C
3419 26-01-2014 09:00:00 5.6 C 81 % 2.6 C
3420 26-01-2014 09:05:00 5.6 C 81 % 2.6 C
3421 26-01-2014 09:10:00 5.6 C 80 % 2.43 C
3422 26-01-2014 09:15:00 5.7 C 81 % 2.7 C
3423 26-01-2014 09:20:00 5.6 C 80 % 2.43 C
3424 26-01-2014 09:25:00 5.7 C 80 % 2.53 C
3425 26-01-2014 09:30:00 5.7 C 80 % 2.53 C
Sensor: Nr:Datum:Temp:Feuchte:Taupunkt:
Aussen-T/F 3426 26-01-2014 09:35:00 5.7 C 80 % 2.53 C
3427 26-01-2014 09:40:00 5.7 C 80 % 2.53 C
3428 26-01-2014 09:45:00 5.7 C 81 % 2.7 C
3429 26-01-2014 09:50:00 5.6 C 81 % 2.6 C
3430 26-01-2014 09:55:00 5.6 C 81 % 2.6 C
3431 26-01-2014 10:00:00 5.6 C 81 % 2.6 C
3432 26-01-2014 10:05:00 5.6 C 82 % 2.78 C
3433 26-01-2014 10:10:00 5.6 C 82 % 2.78 C
3434 26-01-2014 10:15:00 5.6 C 81 % 2.6 C
3435 26-01-2014 10:20:00 5.6 C 81 % 2.6 C
3436 26-01-2014 10:25:00 5.7 C 80 % 2.53 C
3437 26-01-2014 10:30:00 5.7 C 80 % 2.53 C
3438 26-01-2014 10:35:00 5.7 C 80 % 2.53 C
3439 26-01-2014 10:40:00 5.7 C 80 % 2.53 C
3440 26-01-2014 10:45:00 5.7 C 80 % 2.53 C
3441 26-01-2014 10:50:00 5.7 C 80 % 2.53 C
3442 26-01-2014 10:55:00 5.7 C 80 % 2.53 C
3443 26-01-2014 11:00:00 5.7 C 80 % 2.53 C
3444 26-01-2014 11:05:00 5.7 C 79 % 2.35 C
3445 26-01-2014 11:10:00 5.7 C 79 % 2.35 C
3446 26-01-2014 11:15:00 5.8 C 79 % 2.45 C
3447 26-01-2014 11:20:00 5.8 C 80 % 2.62 C
3448 26-01-2014 11:25:00 5.8 C 80 % 2.62 C
3449 26-01-2014 11:30:00 5.8 C 79 % 2.45 C
3450 26-01-2014 11:35:00 5.9 C 80 % 2.72 C
Sensor: Nr:Datum:Temp:Feuchte:Taupunkt:
Aussen-T/F 3451 26-01-2014 11:40:00 5.9 C 79 % 2.54 C
3452 26-01-2014 11:45:00 5.9 C 79 % 2.54 C
3453 26-01-2014 11:50:00 6 C 78 % 2.46 C
3454 26-01-2014 11:55:00 6 C 77 % 2.28 C
3455 26-01-2014 12:00:00 6 C 77 % 2.28 C
3456 26-01-2014 12:05:00 6 C 77 % 2.28 C
3457 26-01-2014 12:10:00 6.1 C 77 % 2.38 C
3458 26-01-2014 12:15:00 6.1 C 76 % 2.2 C
3459 26-01-2014 12:20:00 6.1 C 76 % 2.2 C
3460 26-01-2014 13:00:00 6.1 C 77 % 2.38 C
3461 26-01-2014 13:05:00 6.2 C 78 % 2.66 C
3462 26-01-2014 13:10:00 6.2 C 77 % 2.48 C
3463 26-01-2014 13:15:00 6.2 C 77 % 2.48 C
3464 26-01-2014 13:20:00 6.1 C 77 % 2.38 C
3465 26-01-2014 13:25:00 6.1 C 78 % 2.56 C
3466 26-01-2014 13:30:00 6.1 C 78 % 2.56 C
3467 26-01-2014 13:35:00 6.1 C 74 % 1.82 C
3468 26-01-2014 13:40:00 6.1 C 73 % 1.63 C
3469 26-01-2014 13:45:00 6.2 C 73 % 1.73 C
3470 26-01-2014 13:50:00 6.2 C 75 % 2.11 C
3471 26-01-2014 13:55:00 6.2 C 74 % 1.92 C
3472 26-01-2014 14:00:00 6.2 C 74 % 1.92 C
3473 26-01-2014 14:05:00 6.2 C 75 % 2.11 C
3474 26-01-2014 14:10:00 6.2 C 74 % 1.92 C
3475 26-01-2014 14:15:00 6.2 C 75 % 2.11 C
Sensor: Nr:Datum:Temp:Feuchte:Taupunkt:
Aussen-T/F 3476 26-01-2014 14:20:00 6.2 C 75 % 2.11 C
3477 26-01-2014 14:25:00 6.2 C 75 % 2.11 C
3478 26-01-2014 14:30:00 6.2 C 74 % 1.92 C
3479 26-01-2014 14:35:00 6.2 C 74 % 1.92 C
3480 26-01-2014 14:40:00 6.2 C 74 % 1.92 C
3481 26-01-2014 14:45:00 6.2 C 75 % 2.11 C
3482 26-01-2014 14:50:00 6.2 C 74 % 1.92 C
3483 26-01-2014 14:55:00 6.2 C 74 % 1.92 C
3484 26-01-2014 15:00:00 6.2 C 74 % 1.92 C
3485 26-01-2014 15:05:00 6.2 C 74 % 1.92 C
3486 26-01-2014 15:10:00 6.2 C 74 % 1.92 C
3487 26-01-2014 15:15:00 6.2 C 74 % 1.92 C
3488 26-01-2014 15:20:00 6.2 C 75 % 2.11 C
3489 26-01-2014 15:25:00 6.2 C 74 % 1.92 C
3490 26-01-2014 15:30:00 6.2 C 74 % 1.92 C
3491 26-01-2014 15:35:00 6.2 C 75 % 2.11 C
3492 26-01-2014 15:40:00 6.1 C 75 % 2.01 C
3493 26-01-2014 15:45:00 6.1 C 74 % 1.82 C
3494 26-01-2014 15:50:00 6.1 C 74 % 1.82 C
3495 26-01-2014 15:55:00 6.1 C 74 % 1.82 C
3496 26-01-2014 16:00:00 5.9 C 74 % 1.63 C
3497 26-01-2014 16:05:00 5.9 C 74 % 1.63 C
3498 26-01-2014 16:10:00 5.9 C 74 % 1.63 C
3499 26-01-2014 16:15:00 5.9 C 74 % 1.63 C
3500 26-01-2014 16:20:00 5.8 C 75 % 1.72 C
Sensor: Nr:Datum:Temp:Feuchte:Taupunkt:
Aussen-T/F 3501 26-01-2014 16:25:00 5.8 C 73 % 1.34 C
3502 26-01-2014 16:30:00 5.8 C 73 % 1.34 C
3503 26-01-2014 16:35:00 5.8 C 75 % 1.72 C
3504 26-01-2014 16:40:00 5.7 C 75 % 1.62 C
3505 26-01-2014 16:45:00 5.7 C 75 % 1.62 C
3506 26-01-2014 16:50:00 5.6 C 75 % 1.53 C
3507 26-01-2014 16:55:00 5.6 C 78 % 2.07 C
3508 26-01-2014 17:00:00 5.6 C 75 % 1.53 C
3509 26-01-2014 17:05:00 5.6 C 75 % 1.53 C
3510 26-01-2014 17:10:00 5.6 C 76 % 1.71 C
3511 26-01-2014 17:15:00 5.5 C 76 % 1.62 C
3512 26-01-2014 17:20:00 5.4 C 76 % 1.52 C
3513 26-01-2014 17:25:00 5.5 C 77 % 1.8 C
3514 26-01-2014 17:30:00 5.5 C 77 % 1.8 C
3515 26-01-2014 17:35:00 5.5 C 77 % 1.8 C
3516 26-01-2014 17:40:00 5.5 C 76 % 1.62 C
3517 26-01-2014 17:45:00 5.5 C 79 % 2.16 C
3518 26-01-2014 17:50:00 5.4 C 78 % 1.88 C
3519 26-01-2014 17:55:00 5.4 C 78 % 1.88 C
3520 26-01-2014 18:00:00 5.4 C 78 % 1.88 C
3521 26-01-2014 18:05:00 5.4 C 78 % 1.88 C
3522 26-01-2014 18:10:00 5.4 C 77 % 1.7 C
3523 26-01-2014 18:15:00 5.4 C 78 % 1.88 C
3524 26-01-2014 18:20:00 5.4 C 79 % 2.06 C
3525 26-01-2014 18:25:00 5.3 C 81 % 2.31 C
Sensor: Nr:Datum:Temp:Feuchte:Taupunkt:
Aussen-T/F 3526 26-01-2014 18:30:00 5.2 C 82 % 2.39 C
3527 26-01-2014 18:35:00 5.1 C 81 % 2.12 C
3528 26-01-2014 18:40:00 5 C 81 % 2.02 C
3529 26-01-2014 18:45:00 5 C 82 % 2.19 C
3530 26-01-2014 18:50:00 4.9 C 82 % 2.09 C
3531 26-01-2014 18:55:00 4.9 C 82 % 2.09 C
3532 26-01-2014 19:00:00 4.9 C 84 % 2.43 C
3533 26-01-2014 19:05:00 4.8 C 84 % 2.33 C
3534 26-01-2014 19:10:00 4.8 C 84 % 2.33 C
3535 26-01-2014 19:15:00 4.8 C 84 % 2.33 C
3536 26-01-2014 19:20:00 4.8 C 84 % 2.33 C
3537 26-01-2014 19:25:00 4.8 C 83 % 2.16 C
3538 26-01-2014 19:30:00 4.9 C 85 % 2.6 C
3539 26-01-2014 19:35:00 4.9 C 84 % 2.43 C
3540 26-01-2014 19:40:00 4.9 C 85 % 2.6 C
3541 26-01-2014 19:45:00 4.9 C 85 % 2.6 C
3542 26-01-2014 19:50:00 4.8 C 85 % 2.5 C
3543 26-01-2014 19:55:00 4.8 C 86 % 2.66 C
3544 26-01-2014 20:00:00 4.8 C 88 % 2.99 C
3545 26-01-2014 20:05:00 4.7 C 89 % 3.05 C
3546 26-01-2014 20:10:00 4.6 C 89 % 2.95 C
3547 26-01-2014 20:15:00 4.5 C 90 % 3.01 C
3548 26-01-2014 20:20:00 4.4 C 91 % 3.06 C
3549 26-01-2014 20:25:00 4.3 C 91 % 2.96 C
3550 26-01-2014 20:30:00 4.2 C 92 % 3.02 C
Sensor: Nr:Datum:Temp:Feuchte:Taupunkt:
Aussen-T/F 3551 26-01-2014 20:35:00 4.1 C 92 % 2.92 C
3552 26-01-2014 20:40:00 4.1 C 92 % 2.92 C
3553 26-01-2014 20:45:00 4 C 92 % 2.82 C
3554 26-01-2014 20:50:00 4 C 92 % 2.82 C
3555 26-01-2014 20:55:00 3.9 C 93 % 2.87 C
3556 26-01-2014 21:00:00 3.9 C 93 % 2.87 C
3557 26-01-2014 21:05:00 3.9 C 93 % 2.87 C
3558 26-01-2014 21:10:00 3.8 C 93 % 2.77 C
3559 26-01-2014 21:15:00 3.8 C 93 % 2.77 C
3560 26-01-2014 21:20:00 3.8 C 93 % 2.77 C
3561 26-01-2014 21:25:00 3.7 C 94 % 2.83 C
3562 26-01-2014 21:30:00 3.7 C 94 % 2.83 C
3563 26-01-2014 21:35:00 3.7 C 94 % 2.83 C
3564 26-01-2014 21:40:00 3.7 C 94 % 2.83 C
3565 26-01-2014 21:45:00 3.7 C 94 % 2.83 C
3566 26-01-2014 21:50:00 3.7 C 94 % 2.83 C
3567 26-01-2014 21:55:00 3.7 C 94 % 2.83 C
3568 26-01-2014 22:00:00 3.7 C 94 % 2.83 C
3569 26-01-2014 22:05:00 3.7 C 94 % 2.83 C
3570 26-01-2014 22:10:00 3.7 C 94 % 2.83 C
3571 26-01-2014 22:15:00 3.7 C 94 % 2.83 C
3572 26-01-2014 22:20:00 3.7 C 94 % 2.83 C
3573 26-01-2014 22:25:00 3.7 C 94 % 2.83 C
3574 26-01-2014 22:30:00 3.7 C 94 % 2.83 C
3575 26-01-2014 22:35:00 3.6 C 94 % 2.73 C
Sensor: Nr:Datum:Temp:Feuchte:Taupunkt:
Aussen-T/F 3576 26-01-2014 22:40:00 3.6 C 94 % 2.73 C
3577 26-01-2014 22:45:00 3.6 C 94 % 2.73 C
3578 26-01-2014 22:50:00 3.6 C 94 % 2.73 C
3579 26-01-2014 22:55:00 3.7 C 94 % 2.83 C
3580 26-01-2014 23:00:00 3.7 C 94 % 2.83 C
3581 26-01-2014 23:05:00 3.7 C 94 % 2.83 C
3582 26-01-2014 23:10:00 3.7 C 94 % 2.83 C
3583 26-01-2014 23:15:00 3.8 C 94 % 2.93 C
3584 26-01-2014 23:20:00 3.8 C 94 % 2.93 C
3585 26-01-2014 23:25:00 3.8 C 94 % 2.93 C
3586 26-01-2014 23:30:00 3.8 C 94 % 2.93 C
3587 26-01-2014 23:35:00 3.8 C 94 % 2.93 C
3588 26-01-2014 23:40:00 3.8 C 95 % 3.07 C
3589 26-01-2014 23:45:00 3.8 C 94 % 2.93 C
3590 26-01-2014 23:50:00 3.8 C 94 % 2.93 C
3591 26-01-2014 23:55:00 3.9 C 94 % 3.02 C
3592 27-01-2014 00:00:00 4 C 94 % 3.12 C
3593 27-01-2014 00:05:00 4.1 C 93 % 3.07 C
3594 27-01-2014 00:10:00 4.1 C 93 % 3.07 C
3595 27-01-2014 00:15:00 4.1 C 93 % 3.07 C
3596 27-01-2014 00:20:00 4.1 C 93 % 3.07 C
3597 27-01-2014 00:55:00 4.2 C 94 % 3.32 C
3598 27-01-2014 01:00:00 4.2 C 94 % 3.32 C
3599 27-01-2014 01:05:00 4.2 C 95 % 3.47 C
3600 27-01-2014 01:10:00 4.2 C 95 % 3.47 C
Sensor: Nr:Datum:Temp:Feuchte:Taupunkt:
Aussen-T/F 3601 27-01-2014 01:15:00 4.2 C 95 % 3.47 C
3602 27-01-2014 01:20:00 4.2 C 95 % 3.47 C
3603 27-01-2014 01:25:00 4.2 C 95 % 3.47 C
3604 27-01-2014 01:30:00 4.3 C 95 % 3.57 C
3605 27-01-2014 01:35:00 4.3 C 95 % 3.57 C
3606 27-01-2014 01:40:00 4.3 C 95 % 3.57 C
3607 27-01-2014 01:45:00 4.3 C 95 % 3.57 C
3608 27-01-2014 01:50:00 4.2 C 95 % 3.47 C
3609 27-01-2014 01:55:00 4.3 C 95 % 3.57 C
3610 27-01-2014 02:00:00 4.3 C 95 % 3.57 C
3611 27-01-2014 02:05:00 4.6 C 96 % 4.02 C
3612 27-01-2014 02:10:00 4.6 C 95 % 3.87 C
3613 27-01-2014 02:15:00 4.5 C 94 % 3.62 C
3614 27-01-2014 02:20:00 4.4 C 94 % 3.52 C
3615 27-01-2014 02:25:00 4.2 C 94 % 3.32 C
3616 27-01-2014 02:30:00 4.2 C 95 % 3.47 C
3617 27-01-2014 02:35:00 4.2 C 95 % 3.47 C
3618 27-01-2014 02:40:00 4.2 C 95 % 3.47 C
3619 27-01-2014 02:45:00 4.1 C 95 % 3.37 C
3620 27-01-2014 02:50:00 4.2 C 96 % 3.62 C
3621 27-01-2014 02:55:00 4.3 C 95 % 3.57 C
3622 27-01-2014 03:00:00 4.5 C 96 % 3.92 C
3623 27-01-2014 03:05:00 4.8 C 95 % 4.07 C
3624 27-01-2014 03:10:00 4.9 C 94 % 4.02 C
3625 27-01-2014 03:15:00 5.2 C 92 % 4.01 C
Sensor: Nr:Datum:Temp:Feuchte:Taupunkt:
Aussen-T/F 3626 27-01-2014 03:20:00 5.2 C 91 % 3.85 C
3627 27-01-2014 03:25:00 5.3 C 90 % 3.8 C
3628 27-01-2014 03:30:00 5.2 C 91 % 3.85 C
3629 27-01-2014 03:35:00 5.2 C 91 % 3.85 C
3630 27-01-2014 03:40:00 5 C 91 % 3.66 C
3631 27-01-2014 03:45:00 4.9 C 91 % 3.56 C
3632 27-01-2014 03:50:00 4.9 C 91 % 3.56 C
3633 27-01-2014 03:55:00 4.9 C 91 % 3.56 C
3634 27-01-2014 04:00:00 4.9 C 90 % 3.4 C
3635 27-01-2014 04:05:00 4.8 C 90 % 3.3 C
3636 27-01-2014 04:10:00 4.7 C 90 % 3.2 C
3637 27-01-2014 04:15:00 4.5 C 91 % 3.16 C
3638 27-01-2014 04:20:00 4.3 C 91 % 2.96 C
3639 27-01-2014 04:25:00 4.2 C 91 % 2.87 C
3640 27-01-2014 04:30:00 3.9 C 92 % 2.72 C
3641 27-01-2014 04:35:00 3.8 C 93 % 2.77 C
3642 27-01-2014 04:40:00 3.8 C 94 % 2.93 C
3643 27-01-2014 04:45:00 3.8 C 94 % 2.93 C
3644 27-01-2014 04:50:00 3.8 C 95 % 3.07 C
3645 27-01-2014 04:55:00 3.8 C 95 % 3.07 C
3646 27-01-2014 05:00:00 3.9 C 95 % 3.17 C
3647 27-01-2014 05:05:00 3.9 C 95 % 3.17 C
3648 27-01-2014 05:10:00 3.9 C 95 % 3.17 C
3649 27-01-2014 05:15:00 4.2 C 94 % 3.32 C
3650 27-01-2014 05:20:00 4.4 C 93 % 3.37 C
Sensor: Nr:Datum:Temp:Feuchte:Taupunkt:
Aussen-T/F 3651 27-01-2014 05:25:00 4.4 C 91 % 3.06 C
3652 27-01-2014 05:30:00 4.4 C 90 % 2.91 C
3653 27-01-2014 05:35:00 4.5 C 90 % 3.01 C
3654 27-01-2014 05:40:00 4.4 C 90 % 2.91 C
3655 27-01-2014 05:45:00 4.4 C 89 % 2.75 C
3656 27-01-2014 05:50:00 4.5 C 88 % 2.69 C
3657 27-01-2014 05:55:00 4.5 C 88 % 2.69 C
3658 27-01-2014 06:00:00 4.5 C 89 % 2.85 C
3659 27-01-2014 06:05:00 4.4 C 89 % 2.75 C
3660 27-01-2014 06:10:00 4.3 C 90 % 2.81 C
3661 27-01-2014 06:15:00 4.3 C 90 % 2.81 C
3662 27-01-2014 06:20:00 4.2 C 90 % 2.71 C
3663 27-01-2014 06:25:00 4.2 C 90 % 2.71 C
3664 27-01-2014 06:30:00 4.2 C 91 % 2.87 C
3665 27-01-2014 06:35:00 4 C 91 % 2.67 C
3666 27-01-2014 06:40:00 3.9 C 90 % 2.41 C
3667 27-01-2014 06:45:00 3.9 C 90 % 2.41 C
3668 27-01-2014 06:50:00 3.8 C 90 % 2.31 C
3669 27-01-2014 06:55:00 3.7 C 91 % 2.37 C
3670 27-01-2014 07:00:00 3.6 C 91 % 2.27 C
3671 27-01-2014 07:05:00 3.4 C 92 % 2.23 C
3672 27-01-2014 07:10:00 3.3 C 92 % 2.13 C
3673 27-01-2014 07:15:00 3.2 C 92 % 2.03 C
3674 27-01-2014 07:20:00 3.1 C 92 % 1.93 C
3675 27-01-2014 07:25:00 3 C 93 % 1.98 C
Sensor: Nr:Datum:Temp:Feuchte:Taupunkt:
Aussen-T/F 3676 27-01-2014 07:30:00 2.8 C 93 % 1.78 C
3677 27-01-2014 07:35:00 2.8 C 93 % 1.78 C
3678 27-01-2014 07:40:00 2.8 C 94 % 1.93 C
3679 27-01-2014 07:45:00 3.1 C 93 % 2.08 C
3680 27-01-2014 07:50:00 3.2 C 92 % 2.03 C
3681 27-01-2014 07:55:00 3.4 C 90 % 1.92 C
3682 27-01-2014 08:00:00 3.6 C 89 % 1.96 C
3683 27-01-2014 08:05:00 3.7 C 88 % 1.9 C
3684 27-01-2014 08:10:00 3.8 C 88 % 2 C
3685 27-01-2014 08:15:00 3.8 C 88 % 2 C
3686 27-01-2014 08:20:00 3.8 C 88 % 2 C
3687 27-01-2014 08:25:00 3.8 C 86 % 1.68 C
3688 27-01-2014 08:30:00 3.9 C 86 % 1.78 C
3689 27-01-2014 08:35:00 4.2 C 86 % 2.07 C
3690 27-01-2014 08:40:00 4.2 C 86 % 2.07 C
3691 27-01-2014 08:45:00 4.2 C 86 % 2.07 C
3692 27-01-2014 08:50:00 4.2 C 86 % 2.07 C
3693 27-01-2014 08:55:00 4.1 C 86 % 1.97 C
3694 27-01-2014 09:00:00 4.1 C 86 % 1.97 C
3695 27-01-2014 09:05:00 4.1 C 86 % 1.97 C
3696 27-01-2014 09:10:00 4.1 C 86 % 1.97 C
3697 27-01-2014 12:05:00 4.9 C 81 % 1.92 C
3698 27-01-2014 12:10:00 5 C 81 % 2.02 C
3699 27-01-2014 12:15:00 5.1 C 81 % 2.12 C
3700 27-01-2014 12:20:00 5.2 C 81 % 2.21 C
Sensor: Nr:Datum:Temp:Feuchte:Taupunkt:
Aussen-T/F 3701 27-01-2014 12:25:00 5.3 C 79 % 1.96 C
3702 27-01-2014 12:30:00 5.3 C 79 % 1.96 C
3703 27-01-2014 12:35:00 5.3 C 78 % 1.78 C
3704 27-01-2014 12:40:00 5.2 C 77 % 1.51 C
3705 27-01-2014 12:45:00 5.1 C 78 % 1.59 C
3706 27-01-2014 12:50:00 5 C 78 % 1.49 C
3707 27-01-2014 12:55:00 5 C 79 % 1.67 C
3708 27-01-2014 13:00:00 5 C 80 % 1.84 C
3709 27-01-2014 13:05:00 4.7 C 85 % 2.4 C
3710 27-01-2014 13:10:00 4.3 C 87 % 2.33 C
3711 27-01-2014 13:15:00 4.2 C 88 % 2.39 C
3712 27-01-2014 13:20:00 4.2 C 87 % 2.23 C
3713 27-01-2014 13:25:00 4.2 C 88 % 2.39 C
3714 27-01-2014 13:30:00 4.2 C 89 % 2.55 C
3715 27-01-2014 13:35:00 4.3 C 89 % 2.65 C
3716 27-01-2014 13:40:00 4.4 C 88 % 2.59 C
3717 27-01-2014 13:45:00 4.5 C 87 % 2.53 C
3718 27-01-2014 13:50:00 4.7 C 83 % 2.07 C
3719 27-01-2014 13:55:00 4.8 C 82 % 1.99 C
3720 27-01-2014 14:00:00 4.9 C 80 % 1.75 C
3721 27-01-2014 14:05:00 5.1 C 78 % 1.59 C
3722 27-01-2014 14:10:00 5.1 C 79 % 1.77 C
3723 27-01-2014 14:15:00 5.2 C 79 % 1.86 C
3724 27-01-2014 14:20:00 5.2 C 78 % 1.69 C
3725 27-01-2014 14:25:00 5.2 C 78 % 1.69 C
Sensor: Nr:Datum:Temp:Feuchte:Taupunkt:
Aussen-T/F 3726 27-01-2014 14:30:00 5.1 C 79 % 1.77 C
3727 27-01-2014 14:35:00 5.1 C 78 % 1.59 C
3728 27-01-2014 14:40:00 5.1 C 78 % 1.59 C
3729 27-01-2014 14:45:00 5 C 78 % 1.49 C
3730 27-01-2014 14:50:00 5 C 78 % 1.49 C
3731 27-01-2014 14:55:00 5 C 78 % 1.49 C
3732 27-01-2014 15:00:00 5.3 C 79 % 1.96 C
3733 27-01-2014 15:05:00 5.3 C 78 % 1.78 C
3734 27-01-2014 15:10:00 5.3 C 77 % 1.6 C
3735 27-01-2014 15:15:00 5.3 C 77 % 1.6 C
3736 27-01-2014 15:20:00 5.3 C 77 % 1.6 C
3737 27-01-2014 15:25:00 5.3 C 76 % 1.42 C
3738 27-01-2014 15:30:00 5.3 C 77 % 1.6 C
3739 27-01-2014 15:35:00 5.3 C 75 % 1.24 C
3740 27-01-2014 15:40:00 5.4 C 76 % 1.52 C
3741 27-01-2014 15:45:00 5.3 C 76 % 1.42 C
3742 27-01-2014 15:50:00 5.3 C 76 % 1.42 C
3743 27-01-2014 15:55:00 5.3 C 75 % 1.24 C
3744 27-01-2014 16:00:00 5.2 C 76 % 1.32 C
3745 27-01-2014 16:05:00 5.2 C 76 % 1.32 C
3746 27-01-2014 16:10:00 5.2 C 76 % 1.32 C
3747 27-01-2014 16:15:00 5.1 C 78 % 1.59 C
3748 27-01-2014 16:20:00 5.1 C 78 % 1.59 C
3749 27-01-2014 16:25:00 5.1 C 78 % 1.59 C
3750 27-01-2014 16:30:00 5 C 77 % 1.31 C
Sensor: Nr:Datum:Temp:Feuchte:Taupunkt:
Aussen-T/F 3751 27-01-2014 16:35:00 5 C 77 % 1.31 C
3752 27-01-2014 16:40:00 5 C 76 % 1.13 C
3753 27-01-2014 16:45:00 4.9 C 81 % 1.92 C
3754 27-01-2014 16:50:00 4.9 C 83 % 2.26 C
3755 27-01-2014 16:55:00 4.8 C 83 % 2.16 C
3756 27-01-2014 17:00:00 4.7 C 83 % 2.07 C
3757 27-01-2014 17:05:00 4.6 C 79 % 1.28 C
3758 27-01-2014 17:10:00 4.6 C 80 % 1.46 C
3759 27-01-2014 17:15:00 4.6 C 81 % 1.63 C
3760 27-01-2014 17:20:00 4.4 C 84 % 1.94 C
3761 27-01-2014 17:25:00 4.3 C 83 % 1.67 C
3762 27-01-2014 17:30:00 4.2 C 84 % 1.74 C
3763 27-01-2014 17:35:00 4.1 C 84 % 1.65 C
3764 27-01-2014 17:40:00 4 C 85 % 1.71 C
3765 27-01-2014 17:45:00 3.9 C 86 % 1.78 C
3766 27-01-2014 17:50:00 3.9 C 86 % 1.78 C
3767 27-01-2014 17:55:00 3.8 C 85 % 1.52 C
3768 27-01-2014 18:00:00 3.9 C 82 % 1.12 C
3769 27-01-2014 18:05:00 4.2 C 82 % 1.41 C
3770 27-01-2014 18:10:00 4.3 C 82 % 1.51 C
3771 27-01-2014 18:15:00 4.3 C 81 % 1.34 C
3772 27-01-2014 18:20:00 4.3 C 84 % 1.84 C
3773 27-01-2014 18:25:00 4.1 C 84 % 1.65 C
3774 27-01-2014 18:30:00 4 C 86 % 1.88 C
3775 27-01-2014 18:35:00 3.9 C 85 % 1.61 C
Sensor: Nr:Datum:Temp:Feuchte:Taupunkt:
Aussen-T/F 3776 27-01-2014 18:40:00 3.9 C 84 % 1.45 C
3777 27-01-2014 18:45:00 3.9 C 84 % 1.45 C
3778 27-01-2014 18:50:00 3.9 C 84 % 1.45 C
3779 27-01-2014 21:40:00 4.4 C 100 % 4.4 C
3780 27-01-2014 21:45:00 4.4 C 100 % 4.4 C
3781 27-01-2014 21:50:00 4.4 C 100 % 4.4 C
3782 27-01-2014 21:55:00 4.4 C 100 % 4.4 C
3783 28-01-2014 08:30:00 1.4 C 93 % 0.4 C
3784 28-01-2014 08:35:00 1.4 C 93 % 0.4 C
3785 28-01-2014 08:40:00 1.4 C 93 % 0.4 C
3786 28-01-2014 10:45:00 3.6 C 86 % 1.48 C
3787 28-01-2014 10:50:00 3.6 C 85 % 1.32 C
3788 28-01-2014 10:55:00 3.7 C 83 % 1.09 C
3789 28-01-2014 11:00:00 3.8 C 85 % 1.52 C
3790 28-01-2014 11:05:00 3.8 C 85 % 1.52 C
3791 28-01-2014 11:10:00 3.7 C 85 % 1.42 C
3792 28-01-2014 11:15:00 3.7 C 82 % 0.92 C
3793 28-01-2014 11:20:00 3.8 C 84 % 1.35 C
3794 28-01-2014 11:25:00 3.7 C 85 % 1.42 C
3795 28-01-2014 11:30:00 3.5 C 86 % 1.38 C
3796 28-01-2014 11:35:00 3.4 C 88 % 1.61 C
3797 28-01-2014 11:40:00 3.5 C 86 % 1.38 C
3798 28-01-2014 11:45:00 4.1 C 83 % 1.48 C
3799 28-01-2014 11:50:00 4.5 C 80 % 1.36 C
3800 28-01-2014 11:55:00 4.8 C 80 % 1.65 C
Sensor: Nr:Datum:Temp:Feuchte:Taupunkt:
Aussen-T/F 3801 28-01-2014 12:00:00 4.7 C 79 % 1.38 C
3802 28-01-2014 12:05:00 4.8 C 78 % 1.3 C
3803 28-01-2014 12:10:00 4.9 C 79 % 1.57 C
3804 28-01-2014 12:15:00 5.1 C 77 % 1.41 C
3805 28-01-2014 12:20:00 5.3 C 78 % 1.78 C
3806 28-01-2014 12:25:00 5.4 C 76 % 1.52 C
3807 28-01-2014 12:30:00 5.4 C 75 % 1.33 C
3808 28-01-2014 12:35:00 5.4 C 75 % 1.33 C
3809 28-01-2014 16:00:00 6.6 C 75 % 2.49 C
3810 28-01-2014 16:05:00 6.6 C 75 % 2.49 C
3811 28-01-2014 16:10:00 6.6 C 75 % 2.49 C
3812 28-01-2014 17:40:00 4.1 C 86 % 1.97 C
3813 28-01-2014 17:45:00 3.8 C 86 % 1.68 C
3814 28-01-2014 17:50:00 3.6 C 88 % 1.8 C
3815 28-01-2014 17:55:00 3.3 C 88 % 1.51 C
3816 28-01-2014 18:00:00 3.2 C 89 % 1.57 C
3817 28-01-2014 18:05:00 3 C 89 % 1.37 C
3818 28-01-2014 18:10:00 2.9 C 89 % 1.27 C
3819 28-01-2014 18:15:00 2.9 C 89 % 1.27 C
3820 28-01-2014 18:20:00 2.8 C 89 % 1.17 C
3821 28-01-2014 18:25:00 2.8 C 89 % 1.17 C
3822 28-01-2014 18:30:00 2.7 C 89 % 1.07 C
3823 28-01-2014 18:35:00 2.6 C 90 % 1.13 C
3824 28-01-2014 18:40:00 2.4 C 90 % 0.93 C
3825 28-01-2014 18:45:00 2.4 C 90 % 0.93 C
Sensor: Nr:Datum:Temp:Feuchte:Taupunkt:
Aussen-T/F 3826 28-01-2014 18:50:00 2.3 C 91 % 0.99 C
3827 28-01-2014 18:55:00 2.3 C 90 % 0.83 C
3828 28-01-2014 19:00:00 2.2 C 90 % 0.73 C
3829 28-01-2014 19:05:00 2.2 C 90 % 0.73 C
3830 28-01-2014 19:10:00 2.1 C 90 % 0.64 C
3831 28-01-2014 19:15:00 2 C 91 % 0.69 C
3832 28-01-2014 19:20:00 1.9 C 91 % 0.59 C
3833 28-01-2014 19:25:00 1.9 C 91 % 0.59 C
3834 28-01-2014 19:30:00 1.9 C 91 % 0.59 C
3835 28-01-2014 19:35:00 1.8 C 91 % 0.49 C
3836 28-01-2014 19:40:00 1.8 C 91 % 0.49 C
3837 28-01-2014 19:45:00 1.8 C 91 % 0.49 C
3838 28-01-2014 19:50:00 1.8 C 91 % 0.49 C
3839 28-01-2014 19:55:00 1.7 C 91 % 0.39 C
3840 28-01-2014 20:00:00 1.7 C 92 % 0.54 C
3841 28-01-2014 20:05:00 1.7 C 91 % 0.39 C
3842 28-01-2014 20:10:00 1.6 C 92 % 0.44 C
3843 28-01-2014 20:15:00 1.6 C 92 % 0.44 C
3844 28-01-2014 20:20:00 1.5 C 92 % 0.35 C
3845 28-01-2014 20:25:00 1.5 C 92 % 0.35 C
3846 28-01-2014 20:30:00 1.4 C 92 % 0.25 C
3847 28-01-2014 20:35:00 1.4 C 92 % 0.25 C
3848 28-01-2014 20:40:00 1.4 C 92 % 0.25 C
3849 28-01-2014 20:45:00 1.3 C 92 % 0.15 C
3850 28-01-2014 20:50:00 1.3 C 92 % 0.15 C
Sensor: Nr:Datum:Temp:Feuchte:Taupunkt:
Aussen-T/F 3851 28-01-2014 20:55:00 1.2 C 92 % 0.05 C
3852 28-01-2014 21:00:00 1.2 C 92 % 0.05 C
3853 28-01-2014 21:05:00 1.2 C 92 % 0.05 C
3854 28-01-2014 21:10:00 1.2 C 93 % 0.2 C
3855 28-01-2014 21:15:00 1.1 C 93 % 0.1 C
3856 28-01-2014 21:20:00 1.1 C 93 % 0.1 C
3857 28-01-2014 21:25:00 1.1 C 93 % 0.1 C
3858 28-01-2014 21:30:00 1 C 93 % 0 C
3859 28-01-2014 21:35:00 1 C 93 % 0 C
3860 28-01-2014 21:40:00 0.9 C 93 % -0.1 C
3861 28-01-2014 21:45:00 0.9 C 94 % 0.05 C
3862 28-01-2014 21:50:00 0.9 C 93 % -0.1 C
3863 28-01-2014 21:55:00 0.9 C 93 % -0.1 C
3864 28-01-2014 22:00:00 0.9 C 93 % -0.1 C
3865 28-01-2014 22:05:00 0.9 C 93 % -0.1 C
3866 28-01-2014 22:10:00 0.9 C 94 % 0.05 C
3867 28-01-2014 22:15:00 0.9 C 93 % -0.1 C
3868 28-01-2014 22:20:00 0.8 C 94 % -0.05 C
3869 28-01-2014 22:25:00 0.8 C 93 % -0.2 C
3870 28-01-2014 22:30:00 0.8 C 93 % -0.2 C
3871 28-01-2014 22:35:00 0.8 C 93 % -0.2 C
3872 28-01-2014 22:40:00 0.8 C 93 % -0.2 C
3873 28-01-2014 22:45:00 0.7 C 93 % -0.3 C
3874 28-01-2014 22:50:00 0.7 C 93 % -0.3 C
3875 28-01-2014 22:55:00 0.7 C 93 % -0.3 C
Sensor: Nr:Datum:Temp:Feuchte:Taupunkt:
Aussen-T/F 3876 28-01-2014 23:00:00 0.7 C 93 % -0.3 C
3877 28-01-2014 23:35:00 0.4 C 100 % 0.4 C
3878 28-01-2014 23:40:00 0.4 C 94 % -0.45 C
3879 28-01-2014 23:45:00 0.3 C 94 % -0.55 C
3880 28-01-2014 23:50:00 0.3 C 94 % -0.55 C
3881 28-01-2014 23:55:00 0.2 C 94 % -0.65 C
3882 29-01-2014 00:00:00 0.2 C 94 % -0.65 C
3883 29-01-2014 00:05:00 0.1 C 94 % -0.75 C
3884 29-01-2014 00:10:00 0.2 C 94 % -0.65 C
3885 29-01-2014 00:15:00 0.1 C 94 % -0.75 C
3886 29-01-2014 00:20:00 0.2 C 95 % -0.5 C
3887 29-01-2014 00:25:00 0.2 C 95 % -0.5 C
3888 29-01-2014 00:30:00 0.1 C 94 % -0.75 C
3889 29-01-2014 00:35:00 0.1 C 94 % -0.75 C
3890 29-01-2014 00:40:00 0.1 C 95 % -0.6 C
3891 29-01-2014 00:45:00 0 C 95 % -0.7 C
3892 29-01-2014 00:50:00 0 C 95 % -0.7 C
3893 29-01-2014 00:55:00 0.1 C 95 % -0.6 C
3894 29-01-2014 01:00:00 -0.1 C 94 % -0.95 C
3895 29-01-2014 01:05:00 -0.1 C 95 % -0.8 C
3896 29-01-2014 01:10:00 -0.2 C 95 % -0.9 C
3897 29-01-2014 01:15:00 -0.2 C 95 % -0.9 C
3898 29-01-2014 01:20:00 -0.2 C 95 % -0.9 C
3899 29-01-2014 01:25:00 -0.2 C 95 % -0.9 C
3900 29-01-2014 01:30:00 -0.2 C 95 % -0.9 C
Sensor: Nr:Datum:Temp:Feuchte:Taupunkt:
Aussen-T/F 3901 29-01-2014 01:35:00 -0.2 C 95 % -0.9 C
3902 29-01-2014 01:40:00 -0.3 C 95 % -1 C